Provisional Data: Chiques Creek near Route 283


Please select a monitoring station.
Please select start date.
Please select start date.

Toggle Unit: C/F Toggle Unit: C/F
Sample Time Temperature (C) Temperature (F) Specific Conductivity (mS/cm) pH   Turbidity (NTU+) DO (mg/L)
10/17/2022 12:00:00 AM 13.02 55.436 0.524 7.83 3.11 9.36
10/17/2022 12:15:00 AM 12.99 55.382 0.526 7.8 3.03 9.42
10/17/2022 12:30:00 AM 12.96 55.328 0.526 7.79 2.86 9.39
10/17/2022 12:45:00 AM 12.94 55.292 0.493 7.8 2.79 9.36
10/17/2022 1:00:00 AM 12.91 55.238 0.506 7.82 3.23 9.4
10/17/2022 1:15:00 AM 12.88 55.184 0.506 7.79 3.25 9.35
10/17/2022 1:30:00 AM 12.86 55.148 0.507 7.82 3.02 9.33
10/17/2022 1:45:00 AM 12.84 55.112 0.507 7.83 3.77 9.32
10/17/2022 2:00:00 AM 12.83 55.094 0.507 7.82 3.19 9.39
10/17/2022 2:15:00 AM 12.83 55.094 0.5 7.83 3.34 9.34
10/17/2022 2:30:00 AM 12.81 55.058 0.508 7.79 3.18 9.19
10/17/2022 2:45:00 AM 12.8 55.04 0.499 7.79 3.15 9.3
10/17/2022 3:00:00 AM 12.79 55.022 0.508 7.78 3.32 9.36
10/17/2022 3:15:00 AM 12.78 55.004 0.502 7.81 3.19 9.37
10/17/2022 3:30:00 AM 12.76 54.968 0.509 7.81 3.12 9.34
10/17/2022 3:45:00 AM 12.75 54.95 0.503 7.82 3.65 9.38
10/17/2022 4:00:00 AM 12.74 54.932 0.51 7.83 2.93 9.4
10/17/2022 4:15:00 AM 12.74 54.932 0.503 7.85 2.91 9.42
10/17/2022 4:30:00 AM 12.73 54.914 0.53 7.83 3.07 9.43
10/17/2022 4:45:00 AM 12.73 54.914 0.504 7.83 2.97 9.37
10/17/2022 5:00:00 AM 12.73 54.914 0.511 7.82 3.04 9.42
10/17/2022 5:15:00 AM 12.73 54.914 0.511 7.84 3.09 9.46
10/17/2022 5:30:00 AM 12.73 54.914 0.512 7.84 3.18 9.47
10/17/2022 5:45:00 AM 12.74 54.932 0.505 7.86 2.94 9.43
10/17/2022 6:00:00 AM 12.74 54.932 0.513 7.85 2.89 9.45
10/17/2022 6:15:00 AM 12.76 54.968 0.506 7.85 3.03 9.53
10/17/2022 6:30:00 AM 12.77 54.986 0.514 7.85 3.11 9.52
10/17/2022 6:45:00 AM 12.78 55.004 0.504 7.85 2.97 9.52
10/17/2022 7:00:00 AM 12.78 55.004 0.514 7.82 3.04 9.49
10/17/2022 7:15:00 AM 12.8 55.04 0.507 7.83 3.16 9.59
10/17/2022 7:30:00 AM 12.81 55.058 0.515 7.84 3.16 9.58
10/17/2022 7:45:00 AM 12.83 55.094 0.508 7.87 3.1 9.55
10/17/2022 8:00:00 AM 12.84 55.112 0.535 7.87 2.92 9.48
10/17/2022 8:15:00 AM 12.86 55.148 0.508 7.89 3.17 9.61
10/17/2022 8:30:00 AM 12.88 55.184 0.516 7.89 2.9 9.63
10/17/2022 8:45:00 AM 12.9 55.22 0.509 7.89 3.08 9.64
10/17/2022 9:00:00 AM 12.92 55.256 0.508 7.89 3.08 9.67
10/17/2022 9:15:00 AM 12.95 55.31 0.515 7.88 2.96 9.72
10/17/2022 9:30:00 AM 12.98 55.364 0.517 7.91 3.15 9.74
10/17/2022 9:45:00 AM 13.01 55.418 0.537 7.91 3.31 9.7
10/17/2022 10:00:00 AM 13.05 55.49 0.516 7.91 3.22 9.79
10/17/2022 10:15:00 AM 13.1 55.58 0.509 7.92 3.52 9.92
10/17/2022 10:30:00 AM 13.13 55.634 0.517 7.94 3.14 9.88
10/17/2022 10:45:00 AM 13.17 55.706 0.51 7.95 4.27 9.92
10/17/2022 11:00:00 AM 13.22 55.796 0.509 7.96 3.19 9.96
10/17/2022 11:15:00 AM 13.24 55.832 0.537 7.94 2.95 9.92
10/17/2022 11:30:00 AM 13.27 55.886 0.506 7.94 3.37 9.93
10/17/2022 11:45:00 AM 13.36 56.048 0.51 7.97 3.13 10.02
10/17/2022 12:00:00 PM 13.44 56.192 0.509 7.95 2.84 9.95
10/17/2022 12:15:00 PM 13.47 56.246 0.51 7.96 2.97 9.98
10/17/2022 12:30:00 PM 13.42 56.156 0.517 7.93 2.9 9.73
10/17/2022 12:45:00 PM 13.41 56.138 0.505 7.93 2.83 9.65
10/17/2022 1:00:00 PM 13.44 56.192 0.536 7.96 2.97 9.8
10/17/2022 1:15:00 PM 13.47 56.246 0.51 7.95 2.98 9.88
10/17/2022 1:30:00 PM 13.46 56.228 0.505 7.95 3.06 9.87
10/17/2022 1:45:00 PM 13.45 56.21 0.511 7.95 3.2 9.78
10/17/2022 2:00:00 PM 13.45 56.21 0.518 7.91 3.15 9.77
10/17/2022 2:15:00 PM 13.45 56.21 0.511 7.95 2.97 9.73
10/17/2022 2:30:00 PM 13.46 56.228 0.517 7.94 3.02 9.7
10/17/2022 2:45:00 PM 13.48 56.264 0.511 7.94 2.85 9.7
10/17/2022 3:00:00 PM 13.48 56.264 0.505 7.94 2.76 9.6
10/17/2022 3:15:00 PM 13.49 56.282 0.506 7.94 2.77 9.61
10/17/2022 3:30:00 PM 13.5 56.3 0.519 7.9 3.11 9.58
10/17/2022 3:45:00 PM 13.52 56.336 0.519 7.94 2.81 9.61
10/17/2022 4:00:00 PM 13.53 56.354 0.519 7.9 2.95 9.58
10/17/2022 4:15:00 PM 13.53 56.354 0.509 7.91 2.76 9.48
10/17/2022 4:30:00 PM 13.53 56.354 0.541 7.9 2.94 9.46
10/17/2022 4:45:00 PM 13.53 56.354 0.54 7.92 2.61 9.58
10/17/2022 5:00:00 PM 13.53 56.354 0.514 7.92 2.94 9.53
10/17/2022 5:15:00 PM 13.52 56.336 0.541 7.88 2.75 9.49
10/17/2022 5:30:00 PM 13.51 56.318 0.515 7.92 3.05 9.47
10/17/2022 5:45:00 PM 13.5 56.3 0.543 7.89 3.02 9.38
10/17/2022 6:00:00 PM 13.48 56.264 0.516 7.91 3.02 9.34
10/17/2022 6:15:00 PM 13.47 56.246 0.524 7.87 3.01 9.3
10/17/2022 6:30:00 PM 13.47 56.246 0.518 7.89 3 9.24
10/17/2022 6:45:00 PM 13.46 56.228 0.518 7.87 2.8 9.28
10/17/2022 7:00:00 PM 13.45 56.21 0.516 7.87 2.87 9.3
10/17/2022 7:15:00 PM 13.45 56.21 0.519 7.87 2.57 9.28
10/17/2022 7:30:00 PM 13.42 56.156 0.52 7.88 3.17 9.28
10/17/2022 7:45:00 PM 13.39 56.102 0.515 7.86 2.6 9.22
10/17/2022 8:00:00 PM 13.37 56.066 0.521 7.87 2.78 9.26
10/17/2022 8:15:00 PM 13.35 56.03 0.529 7.86 2.86 9.28
10/17/2022 8:30:00 PM 13.33 55.994 0.55 7.87 2.99 9.29
10/17/2022 8:45:00 PM 13.31 55.958 0.551 7.85 3.48 9.32
10/17/2022 9:00:00 PM 13.29 55.922 0.523 7.87 2.88 9.28
10/17/2022 9:15:00 PM 13.26 55.868 0.524 7.88 3.01 9.29
10/17/2022 9:30:00 PM 13.23 55.814 0.531 7.88 2.95 9.26
10/17/2022 9:45:00 PM 13.21 55.778 0.532 7.87 3.1 9.3
10/17/2022 10:00:00 PM 13.18 55.724 0.534 7.83 2.92 9.24
10/17/2022 10:15:00 PM 13.15 55.67 0.525 7.84 2.85 9.3
10/17/2022 10:30:00 PM 13.12 55.616 0.528 7.87 2.85 9.3
10/17/2022 10:45:00 PM 13.08 55.544 0.527 7.88 2.76 9.33
10/17/2022 11:00:00 PM 13.05 55.49 0.531 7.87 2.93 9.3
10/17/2022 11:15:00 PM 13 55.4 0.539 7.87 2.95 9.26
10/17/2022 11:30:00 PM 12.96 55.328 0.534 7.87 3.48 9.34
10/17/2022 11:45:00 PM 12.92 55.256 0.542 7.85 2.9 9.28
10/18/2022 12:00:00 AM 12.88 55.184 0.533 7.86 2.78 9.32
10/18/2022 12:15:00 AM 12.86 55.148 0.537 7.87 3.02 9.3
10/18/2022 12:30:00 AM 12.83 55.094 0.535 7.85 3.05 9.29
10/18/2022 12:45:00 AM 12.79 55.022 0.545 7.83 3.03 9.33
10/18/2022 1:00:00 AM 12.76 54.968 0.536 7.88 2.96 9.33
10/18/2022 1:15:00 AM 12.74 54.932 0.539 7.86 3 9.33
10/18/2022 1:30:00 AM 12.7 54.86 0.536 7.87 3.19 9.33
10/18/2022 1:45:00 AM 12.68 54.824 0.539 7.85 3.05 9.32
10/18/2022 2:00:00 AM 12.66 54.788 0.537 7.86 3.01 9.29
10/18/2022 2:15:00 AM 12.65 54.77 0.534 7.83 2.95 9.27
10/18/2022 2:30:00 AM 12.62 54.716 0.538 7.86 3.02 9.32
10/18/2022 2:45:00 AM 12.59 54.662 0.57 7.84 3.09 9.32
10/18/2022 3:00:00 AM 12.57 54.626 0.538 7.89 2.86 9.31
10/18/2022 3:15:00 AM 12.54 54.572 0.536 7.85 2.93 9.26
10/18/2022 3:30:00 AM 12.53 54.554 0.539 7.88 2.99 9.32
10/18/2022 3:45:00 AM 12.51 54.518 0.536 7.88 3.03 9.33
10/18/2022 4:00:00 AM 12.48 54.464 0.539 7.86 3.02 9.26
10/18/2022 4:15:00 AM 12.45 54.41 0.542 7.85 3.21 9.3
10/18/2022 4:30:00 AM 12.42 54.356 0.539 7.86 3.08 9.28
10/18/2022 4:45:00 AM 12.41 54.338 0.542 7.83 3.26 9.35
10/18/2022 5:00:00 AM 12.39 54.302 0.542 7.87 3.02 9.34
10/18/2022 5:15:00 AM 12.37 54.266 0.542 7.87 2.89 9.39
10/18/2022 5:30:00 AM 12.36 54.248 0.539 7.85 2.98 9.41
10/18/2022 5:45:00 AM 12.35 54.23 0.542 7.87 2.97 9.38
10/18/2022 6:00:00 AM 12.33 54.194 0.539 7.84 2.95 9.43
10/18/2022 6:15:00 AM 12.33 54.194 0.541 7.87 3.03 9.44
10/18/2022 6:30:00 AM 12.32 54.176 0.539 7.86 3.22 9.46
10/18/2022 6:45:00 AM 12.3 54.14 0.535 7.87 3.14 9.44
10/18/2022 7:00:00 AM 12.29 54.122 0.539 7.87 3.31 9.46
10/18/2022 7:15:00 AM 12.27 54.086 0.539 7.88 3.3 9.49
10/18/2022 7:30:00 AM 12.28 54.104 0.538 7.86 3.34 9.52
10/18/2022 7:45:00 AM 12.28 54.104 0.541 7.89 3.18 9.5
10/18/2022 8:00:00 AM 12.28 54.104 0.54 7.91 3.43 9.54
10/18/2022 8:15:00 AM 12.28 54.104 0.54 7.9 3.29 9.58
10/18/2022 8:30:00 AM 12.29 54.122 0.54 7.92 3.32 9.57
10/18/2022 8:45:00 AM 12.32 54.176 0.539 7.93 3.42 9.58
10/18/2022 9:00:00 AM 12.33 54.194 0.537 7.94 3.55 9.65
10/18/2022 9:15:00 AM 12.37 54.266 0.532 7.95 3.31 9.8
10/18/2022 9:30:00 AM 12.4 54.32 0.537 7.93 3.44 9.85
10/18/2022 9:45:00 AM 12.43 54.374 0.546 7.95 3.31 9.9
10/18/2022 10:00:00 AM 12.48 54.464 0.537 7.94 3.42 9.88
10/18/2022 10:15:00 AM 12.51 54.518 0.547 7.94 3.38 9.98
10/18/2022 10:30:00 AM 12.55 54.59 0.54 7.97 3.26 9.97
10/18/2022 10:45:00 AM 12.6 54.68 0.539 7.96 3.4 9.99
10/18/2022 11:00:00 AM 12.63 54.734 0.534 7.97 3.2 9.99
10/18/2022 11:15:00 AM 12.66 54.788 0.54 8 3.15 10.05
10/18/2022 11:30:00 AM 12.69 54.842 0.537 7.97 2.9 10.07
10/18/2022 11:45:00 AM 12.73 54.914 0.541 7.99 3.25 9.96
10/18/2022 12:00:00 PM 12.73 54.914 0.549 8.01 2.88 9.99
10/18/2022 12:15:00 PM 12.74 54.932 0.542 8 3.2 10.06
10/18/2022 12:30:00 PM 12.75 54.95 0.549 7.99 2.91 10.02
10/18/2022 12:45:00 PM 12.75 54.95 0.537 8.02 2.99 10
10/18/2022 1:00:00 PM 12.78 55.004 0.537 8 2.98 10.02
10/18/2022 1:15:00 PM 12.77 54.986 0.542 7.98 3.54 9.95
10/18/2022 1:30:00 PM 12.78 55.004 0.553 7.97 2.96 9.96
10/18/2022 1:45:00 PM 12.75 54.95 0.543 7.97 3.33 9.98
10/18/2022 2:00:00 PM 12.72 54.896 0.547 7.99 2.94 9.92
10/18/2022 2:15:00 PM 12.74 54.932 0.544 7.97 2.99 9.92
10/18/2022 2:30:00 PM 12.72 54.896 0.554 7.95 2.88 9.82
10/18/2022 2:45:00 PM 12.67 54.806 0.543 7.99 2.96 9.81
10/18/2022 3:00:00 PM 12.67 54.806 0.556 7.97 3.09 9.77
10/18/2022 3:15:00 PM 12.65 54.77 0.557 7.97 3.17 9.86
10/18/2022 3:30:00 PM 12.59 54.662 0.55 7.97 2.95 9.78
10/18/2022 3:45:00 PM 12.56 54.608 0.547 7.98 3.11 9.73
10/18/2022 4:00:00 PM 12.51 54.518 0.55 7.95 3.2 9.79
10/18/2022 4:15:00 PM 12.49 54.482 0.548 7.97 2.85 9.68
10/18/2022 4:30:00 PM 12.47 54.446 0.548 7.98 2.9 9.69
10/18/2022 4:45:00 PM 12.45 54.41 0.551 7.96 2.83 9.61
10/18/2022 5:00:00 PM 12.43 54.374 0.552 7.97 2.75 9.67
10/18/2022 5:15:00 PM 12.4 54.32 0.546 7.94 3.03 9.54
10/18/2022 5:30:00 PM 12.37 54.266 0.552 7.95 2.87 9.52
10/18/2022 5:45:00 PM 12.36 54.248 0.546 7.93 2.9 9.52
10/18/2022 6:00:00 PM 12.35 54.23 0.56 7.9 3.22 9.44
10/18/2022 6:15:00 PM 12.33 54.194 0.549 7.92 2.74 9.42
10/18/2022 6:30:00 PM 12.3 54.14 0.552 7.94 2.92 9.46
10/18/2022 6:45:00 PM 12.28 54.104 0.549 7.94 2.91 9.41
10/18/2022 7:00:00 PM 12.26 54.068 0.551 7.92 3.01 9.33
10/18/2022 7:15:00 PM 12.25 54.05 0.552 7.94 2.98 9.38
10/18/2022 7:30:00 PM 12.23 54.014 0.553 7.93 2.86 9.38
10/18/2022 7:45:00 PM 12.22 53.996 0.551 7.92 2.99 9.39
10/18/2022 8:00:00 PM 12.21 53.978 0.552 7.94 2.9 9.41
10/18/2022 8:15:00 PM 12.2 53.96 0.552 7.93 2.9 9.43
10/18/2022 8:30:00 PM 12.19 53.942 0.552 7.92 2.83 9.46
10/18/2022 8:45:00 PM 12.16 53.888 0.545 7.95 2.67 9.55
10/18/2022 9:00:00 PM 12.15 53.87 0.551 7.92 3.13 9.56
10/18/2022 9:15:00 PM 12.14 53.852 0.548 7.92 2.6 9.54
10/18/2022 9:30:00 PM 12.11 53.798 0.559 7.96 2.96 9.58
10/18/2022 9:45:00 PM 12.08 53.744 0.548 7.93 2.9 9.55
10/18/2022 10:00:00 PM 12.05 53.69 0.559 7.88 2.82 9.53
10/18/2022 10:15:00 PM 12.01 53.618 0.548 7.93 2.87 9.56
10/18/2022 10:30:00 PM 11.98 53.564 0.557 7.93 2.99 9.61
10/18/2022 10:45:00 PM 11.95 53.51 0.547 7.92 2.83 9.58
10/18/2022 11:00:00 PM 11.91 53.438 0.558 7.9 2.83 9.59
10/18/2022 11:15:00 PM 11.86 53.348 0.547 7.93 2.84 9.58
10/18/2022 11:30:00 PM 11.8 53.24 0.544 7.94 3.13 9.59
10/18/2022 11:45:00 PM 11.74 53.132 0.558 7.96 2.98 9.61
10/19/2022 12:00:00 AM 11.69 53.042 0.558 7.92 3.01 9.59
10/19/2022 12:15:00 AM 11.63 52.934 0.55 7.94 3.12 9.61
10/19/2022 12:30:00 AM 11.57 52.826 0.558 7.89 3.15 9.58
10/19/2022 12:45:00 AM 11.51 52.718 0.547 7.93 2.85 9.58
10/19/2022 1:00:00 AM 11.45 52.61 0.558 7.89 2.88 9.56
10/19/2022 1:15:00 AM 11.4 52.52 0.548 7.92 3.64 9.55
10/19/2022 1:30:00 AM 11.34 52.412 0.551 7.91 3.14 9.6
10/19/2022 1:45:00 AM 11.29 52.322 0.549 7.88 2.87 9.56
10/19/2022 2:00:00 AM 11.24 52.232 0.56 7.89 3.28 9.56
10/19/2022 2:15:00 AM 11.19 52.142 0.552 7.9 3.15 9.58
10/19/2022 2:30:00 AM 11.14 52.052 0.55 7.91 3.38 9.59
10/19/2022 2:45:00 AM 11.09 51.962 0.55 7.91 2.97 9.61
10/19/2022 3:00:00 AM 11.05 51.89 0.562 7.88 3.25 9.62
10/19/2022 3:15:00 AM 11 51.8 0.555 7.9 3.34 9.59
10/19/2022 3:30:00 AM 10.95 51.71 0.562 7.89 3.15 9.6
10/19/2022 3:45:00 AM 10.91 51.638 0.556 7.91 3.52 9.59
10/19/2022 4:00:00 AM 10.86 51.548 0.556 7.89 3.17 9.63
10/19/2022 4:15:00 AM 10.84 51.512 0.554 7.89 3.08 9.65
10/19/2022 4:30:00 AM 10.81 51.458 0.551 7.9 3.04 9.65
10/19/2022 4:45:00 AM 10.77 51.386 0.555 7.9 3.41 9.65
10/19/2022 5:00:00 AM 10.73 51.314 0.542 7.91 3.09 9.7
10/19/2022 5:15:00 AM 10.69 51.242 0.559 7.91 3.25 9.66
10/19/2022 5:30:00 AM 10.67 51.206 0.566 7.87 3.13 9.72
10/19/2022 5:45:00 AM 10.65 51.17 0.556 7.91 3.04 9.7
10/19/2022 6:00:00 AM 10.62 51.116 0.56 7.91 3.25 9.72
10/19/2022 6:15:00 AM 10.61 51.098 0.56 7.9 3.33 9.75
10/19/2022 6:30:00 AM 10.59 51.062 0.56 7.91 3.15 9.75
10/19/2022 6:45:00 AM 10.56 51.008 0.557 7.9 3.23 9.74
10/19/2022 7:00:00 AM 10.53 50.954 0.56 7.91 3.2 9.81
10/19/2022 7:15:00 AM 10.51 50.918 0.568 7.94 3.63 9.81
10/19/2022 7:30:00 AM 10.49 50.882 0.557 7.93 3.52 9.79
10/19/2022 7:45:00 AM 10.47 50.846 0.561 7.92 3.5 9.81
10/19/2022 8:00:00 AM 10.45 50.81 0.56 7.93 5.67 9.84
10/19/2022 8:15:00 AM 10.45 50.81 0.568 7.91 3.7 9.85
10/19/2022 8:30:00 AM 10.44 50.792 0.56 7.92 3.67 9.96
10/19/2022 8:45:00 AM 10.43 50.774 0.56 7.93 3.11 10.01
10/19/2022 9:00:00 AM 10.43 50.774 0.568 7.9 3.1 10.02
10/19/2022 9:15:00 AM 10.47 50.846 0.56 7.96 3.12 10.19
10/19/2022 9:30:00 AM 10.48 50.864 0.56 7.97 2.95 10.24
10/19/2022 9:45:00 AM 10.52 50.936 0.559 7.99 3.02 10.24
10/19/2022 10:00:00 AM 10.53 50.954 0.559 7.99 3 10.33
10/19/2022 10:15:00 AM 10.54 50.972 0.558 7.98 3.07 10.38
10/19/2022 10:30:00 AM 10.6 51.08 0.558 7.99 3.91 10.38
10/19/2022 10:45:00 AM 10.61 51.098 0.557 7.99 3.3 10.42
10/19/2022 11:00:00 AM 10.67 51.206 0.557 8.03 3.04 10.48
10/19/2022 11:15:00 AM 10.7 51.26 0.557 8.02 3 10.51
10/19/2022 11:30:00 AM 10.76 51.368 0.563 8.04 3.13 10.41
10/19/2022 11:45:00 AM 10.86 51.548 0.555 8.06 3.01 10.58
10/19/2022 12:00:00 PM 10.87 51.566 0.555 8.04 2.92 10.53
10/19/2022 12:15:00 PM 10.86 51.548 0.556 8.05 2.91 10.49
10/19/2022 12:30:00 PM 10.84 51.512 0.552 8.04 2.93 10.48
10/19/2022 12:45:00 PM 10.82 51.476 0.551 8.02 3.16 10.43
10/19/2022 1:00:00 PM 10.78 51.404 0.551 8.02 3.17 10.42
10/19/2022 1:15:00 PM 10.83 51.494 0.554 8.04 3.64 10.51
10/19/2022 1:30:00 PM 10.82 51.476 0.55 8.05 2.97 10.44
10/19/2022 1:45:00 PM 10.8 51.44 0.553 8.06 3.2 10.52
10/19/2022 2:00:00 PM 10.79 51.422 0.553 8.06 3.28 10.51
10/19/2022 2:15:00 PM 10.77 51.386 0.553 8.05 2.97 10.43
10/19/2022 2:30:00 PM 10.78 51.404 0.56 8.03 3.04 10.47
10/19/2022 2:45:00 PM 10.77 51.386 0.552 8.05 3.34 10.22
10/19/2022 3:00:00 PM 10.76 51.368 0.552 8.08 3.09 10.4
10/19/2022 3:15:00 PM 10.75 51.35 0.56 8.04 3.07 10.39
10/19/2022 3:30:00 PM 10.74 51.332 0.549 8.05 3.21 10.43
10/19/2022 3:45:00 PM 10.72 51.296 0.553 8.05 3.26 10.43
10/19/2022 4:00:00 PM 10.69 51.242 0.55 8.03 3.21 10.35
10/19/2022 4:15:00 PM 10.66 51.188 0.552 8.04 3.31 10.31
10/19/2022 4:30:00 PM 10.65 51.17 0.56 8.03 3.26 10.3
10/19/2022 4:45:00 PM 10.63 51.134 0.553 8.03 3.95 10.3
10/19/2022 5:00:00 PM 10.61 51.098 0.553 8.03 3.05 10.21
10/19/2022 5:15:00 PM 10.59 51.062 0.561 8.01 3.06 10.2
10/19/2022 5:30:00 PM 10.57 51.026 0.554 8.01 3.44 10.16
10/19/2022 5:45:00 PM 10.55 50.99 0.562 7.97 2.97 10.12
10/19/2022 6:00:00 PM 10.52 50.936 0.554 8 3.04 10.06
10/19/2022 6:15:00 PM 10.49 50.882 0.555 7.98 3.06 10.09
10/19/2022 6:30:00 PM 10.46 50.828 0.555 7.99 3.14 9.99
10/19/2022 6:45:00 PM 10.44 50.792 0.555 7.98 3.13 10.04
10/19/2022 7:00:00 PM 10.42 50.756 0.555 7.98 3.35 10.05
10/19/2022 7:15:00 PM 10.4 50.72 0.564 7.95 3.32 10.05
10/19/2022 7:30:00 PM 10.37 50.666 0.564 7.93 3.12 10.02
10/19/2022 7:45:00 PM 10.34 50.612 0.557 7.98 3.02 10.02
10/19/2022 8:00:00 PM 10.32 50.576 0.55 8 3.22 10.03
10/19/2022 8:15:00 PM 10.29 50.522 0.554 7.98 3.11 10.07
10/19/2022 8:30:00 PM 10.27 50.486 0.558 7.97 3.13 10.06
10/19/2022 8:45:00 PM 10.25 50.45 0.555 7.94 3.01 10.1
10/19/2022 9:00:00 PM 10.22 50.396 0.558 7.97 3.07 10.06
10/19/2022 9:15:00 PM 10.2 50.36 0.559 7.96 3.08 9.92
10/19/2022 9:30:00 PM 10.18 50.324 0.559 7.97 3.24 10.09
10/19/2022 9:45:00 PM 10.16 50.288 0.567 7.97 3.18 10.08
10/19/2022 10:00:00 PM 10.15 50.27 0.557 7.98 2.99 10.07
10/19/2022 10:15:00 PM 10.13 50.234 0.56 7.96 2.98 10.1
10/19/2022 10:30:00 PM 10.1 50.18 0.556 7.96 2.98 10.01
10/19/2022 10:45:00 PM 10.08 50.144 0.561 7.97 3.03 10.09
10/19/2022 11:00:00 PM 10.06 50.108 0.561 7.96 3.12 10.07
10/19/2022 11:15:00 PM 10.05 50.09 0.561 7.96 3.03 10.1
10/19/2022 11:30:00 PM 10.03 50.054 0.558 7.97 2.98 10.15
10/19/2022 11:45:00 PM 10.01 50.018 0.555 7.95 2.81 10.1
10/20/2022 12:00:00 AM 9.99 49.982 0.562 7.95 3.02 10.09
10/20/2022 12:15:00 AM 9.96 49.928 0.569 7.93 3.1 10.06
10/20/2022 12:30:00 AM 9.93 49.874 0.562 7.95 3.55 10.07
10/20/2022 12:45:00 AM 9.89 49.802 0.555 7.95 3 10.12
10/20/2022 1:00:00 AM 9.86 49.748 0.559 7.95 3.16 10
10/20/2022 1:15:00 AM 9.82 49.676 0.561 7.96 3.01 10.1
10/20/2022 1:30:00 AM 9.79 49.622 0.559 7.96 2.97 10.08
10/20/2022 1:45:00 AM 9.75 49.55 0.562 7.96 3.29 10.05
10/20/2022 2:00:00 AM 9.72 49.496 0.559 7.94 3.11 10.14
10/20/2022 2:15:00 AM 9.68 49.424 0.592 7.9 2.98 10.11
10/20/2022 2:30:00 AM 9.65 49.37 0.562 7.94 3.37 10.1
10/20/2022 2:45:00 AM 9.63 49.334 0.57 7.94 3.16 10.11
10/20/2022 3:00:00 AM 9.59 49.262 0.563 7.94 3.12 10.12
10/20/2022 3:15:00 AM 9.57 49.226 0.548 7.93 3 10.07
10/20/2022 3:30:00 AM 9.54 49.172 0.563 7.94 3.46 10.15
10/20/2022 3:45:00 AM 9.52 49.136 0.557 7.9 3.17 10.14
10/20/2022 4:00:00 AM 9.5 49.1 0.563 7.93 3.14 10.13
10/20/2022 4:15:00 AM 9.49 49.082 0.56 7.93 3.21 10.12
10/20/2022 4:30:00 AM 9.47 49.046 0.557 7.93 2.99 10.14
10/20/2022 4:45:00 AM 9.45 49.01 0.561 7.9 3.24 10.15
10/20/2022 5:00:00 AM 9.44 48.992 0.572 7.95 3.3 10.15
10/20/2022 5:15:00 AM 9.41 48.938 0.572 7.94 3.46 10.18
10/20/2022 5:30:00 AM 9.39 48.902 0.565 7.93 3.28 10.17
10/20/2022 5:45:00 AM 9.37 48.866 0.573 7.92 3.38 10.17
10/20/2022 6:00:00 AM 9.34 48.812 0.565 7.93 3.32 10.14
10/20/2022 6:15:00 AM 9.31 48.758 0.566 7.93 3.57 10.2
10/20/2022 6:30:00 AM 9.29 48.722 0.574 7.9 3.25 10.15
10/20/2022 6:45:00 AM 9.28 48.704 0.563 7.92 3.45 10.22
10/20/2022 7:00:00 AM 9.25 48.65 0.574 7.9 3.18 10.14
10/20/2022 7:15:00 AM 9.24 48.632 0.564 7.92 3.36 10.22
10/20/2022 7:30:00 AM 9.21 48.578 0.568 7.93 3.61 10.24
10/20/2022 7:45:00 AM 9.2 48.56 0.568 7.95 3.46 10.29
10/20/2022 8:00:00 AM 9.18 48.524 0.569 7.96 3.4 10.26
10/20/2022 8:15:00 AM 9.19 48.542 0.569 7.94 3.29 10.34
10/20/2022 8:30:00 AM 9.2 48.56 0.57 7.94 3.55 10.34
10/20/2022 8:45:00 AM 9.22 48.596 0.57 7.95 3.38 10.44
10/20/2022 9:00:00 AM 9.25 48.65 0.567 7.96 3.53 10.43
10/20/2022 9:15:00 AM 9.28 48.704 0.571 7.97 3.32 10.52
10/20/2022 9:30:00 AM 9.33 48.794 0.571 7.97 3.6 10.6
10/20/2022 9:45:00 AM 9.38 48.884 0.572 7.98 3.82 10.62
10/20/2022 10:00:00 AM 9.44 48.992 0.581 8 3.76 10.76
10/20/2022 10:15:00 AM 9.48 49.064 0.568 7.96 3.35 10.72
10/20/2022 10:30:00 AM 9.54 49.172 0.574 8 3.44 10.88
10/20/2022 10:45:00 AM 9.58 49.244 0.568 7.98 3.41 10.92
10/20/2022 11:00:00 AM 9.63 49.334 0.572 8 3.45 10.96
10/20/2022 11:15:00 AM 9.67 49.406 0.568 8.02 3.23 10.96
10/20/2022 11:30:00 AM 9.73 49.514 0.57 7.99 3.33 10.89
10/20/2022 11:45:00 AM 9.78 49.604 0.576 8.01 3.13 10.94
10/20/2022 12:00:00 PM 9.81 49.658 0.574 8 3.11 10.9
10/20/2022 12:15:00 PM 9.83 49.694 0.575 8.04 3.29 10.97
10/20/2022 12:30:00 PM 9.88 49.784 0.578 8.02 3.21 10.93
10/20/2022 12:45:00 PM 9.91 49.838 0.587 8.01 3.12 11
10/20/2022 1:00:00 PM 9.93 49.874 0.579 8.04 3.45 10.97
10/20/2022 1:15:00 PM 9.95 49.91 0.579 8.04 3.36 10.93
10/20/2022 1:30:00 PM 9.96 49.928 0.577 8.05 3.15 10.9
10/20/2022 1:45:00 PM 9.96 49.928 0.588 8.05 3.24 10.91
10/20/2022 2:00:00 PM 9.97 49.946 0.578 8.04 3.3 10.88
10/20/2022 2:15:00 PM 9.98 49.964 0.578 8.07 3.37 10.85
10/20/2022 2:30:00 PM 10.02 50.036 0.578 8.05 3.37 10.8
10/20/2022 2:45:00 PM 10.06 50.108 0.579 8.04 2.93 10.78
10/20/2022 3:00:00 PM 10.05 50.09 0.582 8.04 3.25 10.75
10/20/2022 3:15:00 PM 10.01 50.018 0.59 8.07 3.07 10.74
10/20/2022 3:30:00 PM 9.99 49.982 0.576 8.06 3.38 10.61
10/20/2022 3:45:00 PM 9.94 49.892 0.582 8.04 3.22 10.59
10/20/2022 4:00:00 PM 9.91 49.838 0.583 8.03 3.27 10.53
10/20/2022 4:15:00 PM 9.88 49.784 0.58 8.03 3.17 10.55
10/20/2022 4:30:00 PM 9.85 49.73 0.577 8.02 2.99 10.45
10/20/2022 4:45:00 PM 9.83 49.694 0.581 8.03 3.26 10.51
10/20/2022 5:00:00 PM 9.82 49.676 0.593 7.99 3.14 10.55
10/20/2022 5:15:00 PM 9.81 49.658 0.582 8.03 3.26 10.48
10/20/2022 5:30:00 PM 9.79 49.622 0.585 8.02 3.22 10.32
10/20/2022 5:45:00 PM 9.77 49.586 0.583 8.01 4.93 10.22
10/20/2022 6:00:00 PM 9.74 49.532 0.586 8 5.73 10.36
10/20/2022 6:15:00 PM 9.71 49.478 0.584 8 5.78 10.36
10/20/2022 6:30:00 PM 9.68 49.424 0.588 7.99 3.18 10.31
10/20/2022 6:45:00 PM 9.65 49.37 0.588 7.98 3.83 10.34
10/20/2022 7:00:00 PM 9.64 49.352 0.587 8.01 3.33 10.27
10/20/2022 7:15:00 PM 9.62 49.316 0.583 7.99 3.28 10.35
10/20/2022 7:30:00 PM 9.6 49.28 0.579 7.99 4.36 10.37
10/20/2022 7:45:00 PM 9.59 49.262 0.585 7.98 3.22 10.36
10/20/2022 8:00:00 PM 9.58 49.244 0.598 7.96 3.44 10.38
10/20/2022 8:15:00 PM 9.57 49.226 0.585 7.99 3.3 10.39
10/20/2022 8:30:00 PM 9.56 49.208 0.599 7.98 2.97 10.35
10/20/2022 8:45:00 PM 9.57 49.226 0.59 7.98 3.47 10.35
10/20/2022 9:00:00 PM 9.59 49.262 0.59 7.97 3.12 10.37
10/20/2022 9:15:00 PM 9.61 49.298 0.591 7.99 3.11 10.33
10/20/2022 9:30:00 PM 9.62 49.316 0.595 7.98 2.78 10.35
10/20/2022 9:45:00 PM 9.63 49.334 0.592 7.99 2.96 10.35
10/20/2022 10:00:00 PM 9.64 49.352 0.589 7.98 2.93 10.37
10/20/2022 10:15:00 PM 9.65 49.37 0.592 8 3.12 10.46
10/20/2022 10:30:00 PM 9.64 49.352 0.596 7.99 3.03 10.41
10/20/2022 10:45:00 PM 9.64 49.352 0.594 7.98 3.1 10.38
10/20/2022 11:00:00 PM 9.64 49.352 0.596 7.98 3.29 10.38
10/20/2022 11:15:00 PM 9.65 49.37 0.593 7.96 3.22 10.43
10/20/2022 11:30:00 PM 9.66 49.388 0.591 7.96 3.03 10.39
10/20/2022 11:45:00 PM 9.67 49.406 0.595 7.93 3.41 10.38
10/21/2022 12:00:00 AM 9.67 49.406 0.595 7.97 3.64 10.37
10/21/2022 12:15:00 AM 9.67 49.406 0.595 7.96 4.39 10.36
10/21/2022 12:30:00 AM 9.66 49.388 0.6 7.97 3.27 10.38
10/21/2022 12:45:00 AM 9.63 49.334 0.595 7.94 3.49 10.38
10/21/2022 1:00:00 AM 9.6 49.28 0.599 7.95 3.32 10.35
10/21/2022 1:15:00 AM 9.56 49.208 0.609 7.96 3.5 10.37
10/21/2022 1:30:00 AM 9.52 49.136 0.608 7.95 3.27 10.32
10/21/2022 1:45:00 AM 9.47 49.046 0.597 7.94 3.23 10.27
10/21/2022 2:00:00 AM 9.42 48.956 0.598 7.95 3.18 10.31
10/21/2022 2:15:00 AM 9.38 48.884 0.595 7.95 3.2 10.3
10/21/2022 2:30:00 AM 9.33 48.794 0.598 7.94 3.38 10.28
10/21/2022 2:45:00 AM 9.29 48.722 0.601 7.94 3.34 10.28
10/21/2022 3:00:00 AM 9.24 48.632 0.602 7.96 3.21 10.27
10/21/2022 3:15:00 AM 9.2 48.56 0.599 7.92 3.03 10.28
10/21/2022 3:30:00 AM 9.15 48.47 0.61 7.93 3.35 10.29
10/21/2022 3:45:00 AM 9.12 48.416 0.595 7.95 3.68 10.32
10/21/2022 4:00:00 AM 9.08 48.344 0.602 7.93 3.31 10.29
10/21/2022 4:15:00 AM 9.05 48.29 0.595 7.93 3.34 10.28
10/21/2022 4:30:00 AM 9.02 48.236 0.609 7.9 3.11 10.3
10/21/2022 4:45:00 AM 9 48.2 0.597 7.93 3.2 10.28
10/21/2022 5:00:00 AM 8.97 48.146 0.608 7.9 3.31 10.3
10/21/2022 5:15:00 AM 8.94 48.092 0.594 7.9 3.3 10.3
10/21/2022 5:30:00 AM 8.91 48.038 0.6 7.91 3.21 10.32
10/21/2022 5:45:00 AM 8.88 47.984 0.596 7.92 3.3 10.31
10/21/2022 6:00:00 AM 8.85 47.93 0.599 7.9 3.24 10.32
10/21/2022 6:15:00 AM 8.82 47.876 0.594 7.91 3.33 10.35
10/21/2022 6:30:00 AM 8.79 47.822 0.599 7.92 3.59 10.34
10/21/2022 6:45:00 AM 8.76 47.768 0.593 7.91 3.5 10.35
10/21/2022 7:00:00 AM 8.73 47.714 0.605 7.91 3.74 10.38
10/21/2022 7:15:00 AM 8.71 47.678 0.594 7.9 3.35 10.37
10/21/2022 7:30:00 AM 8.68 47.624 0.597 7.91 3.25 10.37
10/21/2022 7:45:00 AM 8.65 47.57 0.594 7.9 3.3 10.41
10/21/2022 8:00:00 AM 8.63 47.534 0.605 7.91 3.21 10.43
10/21/2022 8:15:00 AM 8.62 47.516 0.596 7.88 3.18 10.42
10/21/2022 8:30:00 AM 8.61 47.498 0.596 7.91 3.32 10.48
10/21/2022 8:45:00 AM 8.61 47.498 0.593 7.91 3.31 10.53
10/21/2022 9:00:00 AM 8.63 47.534 0.592 7.92 3.15 10.59
10/21/2022 9:15:00 AM 8.66 47.588 0.59 7.93 3.43 10.65
10/21/2022 9:30:00 AM 8.7 47.66 0.592 7.91 3.57 10.71
10/21/2022 9:45:00 AM 8.75 47.75 0.594 7.92 3.43 10.78
10/21/2022 10:00:00 AM 8.8 47.84 0.595 7.93 3.65 10.86
10/21/2022 10:15:00 AM 8.86 47.948 0.588 7.98 3.61 10.94
10/21/2022 10:30:00 AM 8.89 48.002 0.594 7.96 3.34 11
10/21/2022 10:45:00 AM 8.94 48.092 0.591 7.96 3.66 11.02
10/21/2022 11:00:00 AM 8.99 48.182 0.587 7.98 3.52 11.06
10/21/2022 11:15:00 AM 9.04 48.272 0.591 7.99 3.26 11.08
10/21/2022 11:30:00 AM 9.09 48.362 0.594 8 3.55 11.09
10/21/2022 11:45:00 AM 9.14 48.452 0.59 8.01 3.25 11.1
10/21/2022 12:00:00 PM 9.19 48.542 0.594 8 3.34 11.12
10/21/2022 12:15:00 PM 9.22 48.596 0.594 7.99 3.18 11.11
10/21/2022 12:30:00 PM 9.27 48.686 0.591 7.99 3.24 11.09
10/21/2022 12:45:00 PM 9.31 48.758 0.594 8.01 3.11 11.09
10/21/2022 1:00:00 PM 9.36 48.848 0.594 8 3.31 11.07
10/21/2022 1:15:00 PM 9.39 48.902 0.588 8.03 3.13 11.05
10/21/2022 1:30:00 PM 9.41 48.938 0.627 8.03 3.05 11.03
10/21/2022 1:45:00 PM 9.42 48.956 0.592 8.02 3.46 11
10/21/2022 2:00:00 PM 9.46 49.028 0.589 8.02 3.27 10.97
10/21/2022 2:15:00 PM 9.49 49.082 0.594 8.02 3.27 10.96
10/21/2022 2:30:00 PM 9.54 49.172 0.597 8 3.17 10.96
10/21/2022 2:45:00 PM 9.55 49.19 0.594 8.01 3.04 10.92
10/21/2022 3:00:00 PM 9.56 49.208 0.605 8.01 3.15 10.91
10/21/2022 3:15:00 PM 9.6 49.28 0.593 8.02 3.44 10.87
10/21/2022 3:30:00 PM 9.65 49.37 0.599 8.02 3.04 10.81
10/21/2022 3:45:00 PM 9.68 49.424 0.596 8.02 3.17 10.78
10/21/2022 4:00:00 PM 9.66 49.388 0.599 8.01 2.97 10.74
10/21/2022 4:15:00 PM 9.63 49.334 0.596 7.98 2.9 10.68
10/21/2022 4:30:00 PM 9.63 49.334 0.608 8 3.01 10.66
10/21/2022 4:45:00 PM 9.64 49.352 0.601 8.01 2.92 10.62
10/21/2022 5:00:00 PM 9.64 49.352 0.597 8.01 3.11 10.6
10/21/2022 5:15:00 PM 9.64 49.352 0.6 8 3.29 10.57
10/21/2022 5:30:00 PM 9.66 49.388 0.609 7.98 2.92 10.55
10/21/2022 5:45:00 PM 9.68 49.424 0.597 8.02 2.83 10.51
10/21/2022 6:00:00 PM 9.69 49.442 0.601 7.99 3.94 10.49
10/21/2022 6:15:00 PM 9.7 49.46 0.595 7.98 2.67 10.47
10/21/2022 6:30:00 PM 9.69 49.442 0.598 7.99 2.85 10.42
10/21/2022 6:45:00 PM 9.69 49.442 0.598 7.98 3.02 10.41
10/21/2022 7:00:00 PM 9.69 49.442 0.595 7.97 2.79 10.36
10/21/2022 7:15:00 PM 9.71 49.478 0.597 7.96 3.03 10.39
10/21/2022 7:30:00 PM 9.73 49.514 0.601 8 3.11 10.4
10/21/2022 7:45:00 PM 9.75 49.55 0.597 7.97 2.95 10.37
10/21/2022 8:00:00 PM 9.76 49.568 0.601 7.98 2.92 10.38
10/21/2022 8:15:00 PM 9.77 49.586 0.598 7.99 3.18 10.34
10/21/2022 8:30:00 PM 9.77 49.586 0.595 7.97 2.95 10.36
10/21/2022 8:45:00 PM 9.77 49.586 0.598 7.96 3.09 10.36
10/21/2022 9:00:00 PM 9.75 49.55 0.601 7.95 2.98 10.39
10/21/2022 9:15:00 PM 9.73 49.514 0.596 7.96 2.96 10.39
10/21/2022 9:30:00 PM 9.7 49.46 0.602 7.96 3.1 10.4
10/21/2022 9:45:00 PM 9.68 49.424 0.598 7.97 3.14 10.39
10/21/2022 10:00:00 PM 9.65 49.37 0.601 7.98 3 10.39
10/21/2022 10:15:00 PM 9.63 49.334 0.598 7.93 3.06 10.39
10/21/2022 10:30:00 PM 9.61 49.298 0.601 7.94 3.17 10.42
10/21/2022 10:45:00 PM 9.58 49.244 0.601 7.96 3.13 10.42
10/21/2022 11:00:00 PM 9.55 49.19 0.598 7.94 2.98 10.43
10/21/2022 11:15:00 PM 9.53 49.154 0.602 7.94 3 10.45
10/21/2022 11:30:00 PM 9.5 49.1 0.598 7.97 3.54 10.41
10/21/2022 11:45:00 PM 9.48 49.064 0.601 7.96 3.11 10.43
10/22/2022 12:00:00 AM 9.45 49.01 0.595 7.95 3.02 10.41
10/22/2022 12:15:00 AM 9.43 48.974 0.601 7.91 3.23 10.43
10/22/2022 12:30:00 AM 9.4 48.92 0.598 7.95 2.97 10.41
10/22/2022 12:45:00 AM 9.38 48.884 0.609 7.94 3.3 10.39
10/22/2022 1:00:00 AM 9.35 48.83 0.599 7.93 3.46 10.38
10/22/2022 1:15:00 AM 9.33 48.794 0.602 7.93 3.49 10.4
10/22/2022 1:30:00 AM 9.29 48.722 0.599 7.93 3.53 10.38
10/22/2022 1:45:00 AM 9.25 48.65 0.603 7.93 3.56 10.41
10/22/2022 2:00:00 AM 9.21 48.578 0.6 7.93 3.28 10.37
10/22/2022 2:15:00 AM 9.17 48.506 0.602 7.92 3.46 10.39
10/22/2022 2:30:00 AM 9.13 48.434 0.6 7.94 3.33 10.39
10/22/2022 2:45:00 AM 9.09 48.362 0.596 7.93 3.35 10.39
10/22/2022 3:00:00 AM 9.05 48.29 0.597 7.91 3.08 10.39
10/22/2022 3:15:00 AM 9.01 48.218 0.604 7.91 3.39 10.4
10/22/2022 3:30:00 AM 8.97 48.146 0.601 7.92 3.17 10.38
10/22/2022 3:45:00 AM 8.94 48.092 0.612 7.91 3.49 10.39
10/22/2022 4:00:00 AM 8.9 48.02 0.601 7.92 3.02 10.38
10/22/2022 4:15:00 AM 8.87 47.966 0.604 7.93 3.25 10.39
10/22/2022 4:30:00 AM 8.84 47.912 0.606 7.9 3.3 10.4
10/22/2022 4:45:00 AM 8.81 47.858 0.604 7.91 3.1 10.4
10/22/2022 5:00:00 AM 8.78 47.804 0.605 7.89 3.16 10.41
10/22/2022 5:15:00 AM 8.75 47.75 0.605 7.93 3.14 10.42
10/22/2022 5:30:00 AM 8.73 47.714 0.614 7.92 3.12 10.4
10/22/2022 5:45:00 AM 8.71 47.678 0.605 7.91 3.22 10.41
10/22/2022 6:00:00 AM 8.69 47.642 0.598 7.88 3.32 10.4
10/22/2022 6:15:00 AM 8.67 47.606 0.605 7.89 3.27 10.39
10/22/2022 6:30:00 AM 8.64 47.552 0.599 7.9 3.31 10.39
10/22/2022 6:45:00 AM 8.62 47.516 0.614 7.86 3.1 10.39
10/22/2022 7:00:00 AM 8.6 47.48 0.601 7.88 3.04 10.42
10/22/2022 7:15:00 AM 8.57 47.426 0.605 7.89 3.11 10.4
10/22/2022 7:30:00 AM 8.56 47.408 0.602 7.89 3.29 10.38
10/22/2022 7:45:00 AM 8.54 47.372 0.604 7.88 3.35 10.39
10/22/2022 8:00:00 AM 8.52 47.336 0.601 7.86 3.12 10.43
10/22/2022 8:15:00 AM 8.51 47.318 0.603 7.88 3.03 10.49
10/22/2022 8:30:00 AM 8.51 47.318 0.6 7.9 4.2 10.49
10/22/2022 8:45:00 AM 8.52 47.336 0.603 7.89 3.56 10.54
10/22/2022 9:00:00 AM 8.54 47.372 0.598 7.92 3.43 10.6
10/22/2022 9:15:00 AM 8.58 47.444 0.603 7.91 3.34 10.67
10/22/2022 9:30:00 AM 8.63 47.534 0.599 7.92 3.19 10.75
10/22/2022 9:45:00 AM 8.68 47.624 0.598 7.96 3.24 10.83
10/22/2022 10:00:00 AM 8.75 47.75 0.598 7.96 3.07 10.87
10/22/2022 10:15:00 AM 8.82 47.876 0.601 7.96 3.16 10.94
10/22/2022 10:30:00 AM 8.87 47.966 0.6 7.94 3.27 10.97
10/22/2022 10:45:00 AM 8.93 48.074 0.593 7.97 3.17 11
10/22/2022 11:00:00 AM 9 48.2 0.606 7.98 3.21 11.02
10/22/2022 11:15:00 AM 9.07 48.326 0.592 7.99 3.12 11.05
10/22/2022 11:30:00 AM 9.14 48.452 0.598 7.97 3.26 11.09
10/22/2022 11:45:00 AM 9.21 48.578 0.592 7.98 3.33 11.06
10/22/2022 12:00:00 PM 9.29 48.722 0.593 8.02 3.18 11.06
10/22/2022 12:15:00 PM 9.35 48.83 0.593 8 3.04 11.07
10/22/2022 12:30:00 PM 9.41 48.938 0.589 8.03 2.92 11.06
10/22/2022 12:45:00 PM 9.48 49.064 0.591 8.03 2.89 11.11
10/22/2022 1:00:00 PM 9.54 49.172 0.602 8 2.85 11.04
10/22/2022 1:15:00 PM 9.6 49.28 0.591 7.99 2.87 10.99
10/22/2022 1:30:00 PM 9.65 49.37 0.602 7.98 2.96 10.99
10/22/2022 1:45:00 PM 9.68 49.424 0.587 8.03 2.94 10.91
10/22/2022 2:00:00 PM 9.73 49.514 0.586 8.03 2.85 10.93
10/22/2022 2:15:00 PM 9.76 49.568 0.589 8 2.88 10.9
10/22/2022 2:30:00 PM 9.84 49.712 0.6 7.98 2.9 10.9
10/22/2022 2:45:00 PM 9.93 49.874 0.593 8.02 3.12 10.82
10/22/2022 3:00:00 PM 9.98 49.964 0.592 7.99 2.75 10.82
10/22/2022 3:15:00 PM 10.01 50.018 0.593 8.02 3.16 10.74
10/22/2022 3:30:00 PM 10.04 50.072 0.592 8 2.68 10.77
10/22/2022 3:45:00 PM 10.05 50.09 0.589 8.02 4.88 10.69
10/22/2022 4:00:00 PM 10.05 50.09 0.592 8 2.86 10.66
10/22/2022 4:15:00 PM 10.08 50.144 0.589 8.02 2.79 10.58
10/22/2022 4:30:00 PM 10.12 50.216 0.591 8.01 2.91 10.53
10/22/2022 4:45:00 PM 10.18 50.324 0.589 8.01 2.67 10.51
10/22/2022 5:00:00 PM 10.22 50.396 0.592 7.97 2.91 10.49
10/22/2022 5:15:00 PM 10.27 50.486 0.588 8 2.94 10.44
10/22/2022 5:30:00 PM 10.3 50.54 0.592 8.02 2.71 10.42
10/22/2022 5:45:00 PM 10.31 50.558 0.589 7.99 2.61 10.41
10/22/2022 6:00:00 PM 10.32 50.576 0.592 7.99 2.83 10.42
10/22/2022 6:15:00 PM 10.32 50.576 0.589 8 2.9 10.37
10/22/2022 6:30:00 PM 10.31 50.558 0.591 7.99 2.89 10.37
10/22/2022 6:45:00 PM 10.31 50.558 0.588 8 3.17 10.33
10/22/2022 7:00:00 PM 10.3 50.54 0.585 7.98 2.64 10.34
10/22/2022 7:15:00 PM 10.28 50.504 0.588 8 3.06 10.33
10/22/2022 7:30:00 PM 10.26 50.468 0.623 7.97 2.59 10.36
10/22/2022 7:45:00 PM 10.24 50.432 0.588 7.98 3.02 10.31
10/22/2022 8:00:00 PM 10.23 50.414 0.591 7.95 2.93 10.31
10/22/2022 8:15:00 PM 10.22 50.396 0.589 7.97 2.76 10.3
10/22/2022 8:30:00 PM 10.22 50.396 0.592 7.98 2.78 10.35
10/22/2022 8:45:00 PM 10.2 50.36 0.589 7.95 2.62 10.33
10/22/2022 9:00:00 PM 10.19 50.342 0.592 7.96 3.12 10.28
10/22/2022 9:15:00 PM 10.17 50.306 0.589 7.95 2.6 10.31
10/22/2022 9:30:00 PM 10.14 50.252 0.592 7.99 2.56 10.34
10/22/2022 9:45:00 PM 10.11 50.198 0.589 7.98 2.72 10.3
10/22/2022 10:00:00 PM 10.08 50.144 0.592 7.96 2.89 10.37
10/22/2022 10:15:00 PM 10.04 50.072 0.591 7.97 2.85 10.34
10/22/2022 10:30:00 PM 10.01 50.018 0.592 7.96 2.95 10.37
10/22/2022 10:45:00 PM 9.98 49.964 0.589 7.97 2.92 10.34
10/22/2022 11:00:00 PM 9.95 49.91 0.6 7.94 2.92 10.33
10/22/2022 11:15:00 PM 9.91 49.838 0.589 7.97 2.82 10.34
10/22/2022 11:30:00 PM 9.88 49.784 0.592 7.96 2.85 10.34
10/22/2022 11:45:00 PM 9.84 49.712 0.586 7.95 2.69 10.34
10/23/2022 12:00:00 AM 9.8 49.64 0.593 7.95 2.66 10.35
10/23/2022 12:15:00 AM 9.77 49.586 0.601 7.93 2.7 10.33
10/23/2022 12:30:00 AM 9.73 49.514 0.593 7.95 2.81 10.34
10/23/2022 12:45:00 AM 9.7 49.46 0.601 7.91 3.04 10.35
10/23/2022 1:00:00 AM 9.67 49.406 0.601 7.92 2.95 10.37
10/23/2022 1:15:00 AM 9.63 49.334 0.601 7.91 2.92 10.34
10/23/2022 1:30:00 AM 9.6 49.28 0.59 7.93 3 10.31
10/23/2022 1:45:00 AM 9.57 49.226 0.592 7.91 3.11 10.33
10/23/2022 2:00:00 AM 9.54 49.172 0.59 7.92 3.23 10.33
10/23/2022 2:15:00 AM 9.52 49.136 0.593 7.93 3.36 10.32
10/23/2022 2:30:00 AM 9.49 49.082 0.593 7.91 3.3 10.34
10/23/2022 2:45:00 AM 9.46 49.028 0.594 7.91 3.3 10.3
10/23/2022 3:00:00 AM 9.43 48.974 0.587 7.91 3.32 10.33
10/23/2022 3:15:00 AM 9.39 48.902 0.602 7.91 3.18 10.31
10/23/2022 3:30:00 AM 9.36 48.848 0.591 7.91 3.28 10.32
10/23/2022 3:45:00 AM 9.33 48.794 0.602 7.91 3.13 10.32
10/23/2022 4:00:00 AM 9.3 48.74 0.595 7.91 3.5 10.34
10/23/2022 4:15:00 AM 9.27 48.686 0.594 7.89 3.52 10.33
10/23/2022 4:30:00 AM 9.24 48.632 0.589 7.91 3.3 10.34
10/23/2022 4:45:00 AM 9.21 48.578 0.603 7.87 3.38 10.34
10/23/2022 5:00:00 AM 9.2 48.56 0.595 7.9 3.21 10.36
10/23/2022 5:15:00 AM 9.18 48.524 0.595 7.9 3.43 10.37
10/23/2022 5:30:00 AM 9.16 48.488 0.596 7.91 3.37 10.37
10/23/2022 5:45:00 AM 9.14 48.452 0.596 7.91 2.92 10.36
10/23/2022 6:00:00 AM 9.12 48.416 0.604 7.88 3.01 10.35
10/23/2022 6:15:00 AM 9.11 48.398 0.592 7.91 3.29 10.35
10/23/2022 6:30:00 AM 9.09 48.362 0.603 7.91 3.22 10.37
10/23/2022 6:45:00 AM 9.08 48.344 0.591 7.89 3.19 10.36
10/23/2022 7:00:00 AM 9.07 48.326 0.596 7.87 3.31 10.37
10/23/2022 7:15:00 AM 9.06 48.308 0.593 7.91 3.22 10.36
10/23/2022 7:30:00 AM 9.05 48.29 0.604 7.86 3.21 10.37
10/23/2022 7:45:00 AM 9.05 48.29 0.596 7.91 3.21 10.39
10/23/2022 8:00:00 AM 9.06 48.308 0.596 7.9 2.97 10.4
10/23/2022 8:15:00 AM 9.07 48.326 0.596 7.9 3.14 10.46
10/23/2022 8:30:00 AM 9.08 48.344 0.596 7.9 2.93 10.46
10/23/2022 8:45:00 AM 9.1 48.38 0.59 7.9 3.12 10.52
10/23/2022 9:00:00 AM 9.11 48.398 0.596 7.91 2.86 10.51
10/23/2022 9:15:00 AM 9.13 48.434 0.597 7.92 2.87 10.58
10/23/2022 9:30:00 AM 9.15 48.47 0.604 7.92 2.96 10.56
10/23/2022 9:45:00 AM 9.17 48.506 0.593 7.93 3.13 10.56
10/23/2022 10:00:00 AM 9.22 48.596 0.604 7.91 3.4 10.68
10/23/2022 10:15:00 AM 9.28 48.704 0.596 7.94 3.14 10.79
10/23/2022 10:30:00 AM 9.34 48.812 0.604 7.94 2.81 10.84
10/23/2022 10:45:00 AM 9.4 48.92 0.594 7.96 2.97 10.84
10/23/2022 11:00:00 AM 9.45 49.01 0.592 7.97 2.82 10.86
10/23/2022 11:15:00 AM 9.53 49.154 0.592 7.96 2.89 10.96
10/23/2022 11:30:00 AM 9.6 49.28 0.603 7.96 2.97 10.98
10/23/2022 11:45:00 AM 9.68 49.424 0.594 8 2.82 11.01
10/23/2022 12:00:00 PM 9.75 49.55 0.594 8 2.84 11
10/23/2022 12:15:00 PM 9.81 49.658 0.588 8 2.8 10.99
10/23/2022 12:30:00 PM 9.87 49.766 0.594 7.99 2.81 10.97
10/23/2022 12:45:00 PM 9.93 49.874 0.588 7.99 2.7 10.94
10/23/2022 1:00:00 PM 9.99 49.982 0.594 8.01 2.91 10.93
10/23/2022 1:15:00 PM 10.03 50.054 0.594 8 2.88 10.85
10/23/2022 1:30:00 PM 10.08 50.144 0.594 7.98 2.66 10.81
10/23/2022 1:45:00 PM 10.14 50.252 0.594 8.01 2.82 10.78
10/23/2022 2:00:00 PM 10.23 50.414 0.594 8.01 2.94 10.85
10/23/2022 2:15:00 PM 10.32 50.576 0.591 8.02 2.98 10.83
10/23/2022 2:30:00 PM 10.39 50.702 0.588 8.02 2.78 10.78
10/23/2022 2:45:00 PM 10.44 50.792 0.591 8.04 2.64 10.8
10/23/2022 3:00:00 PM 10.48 50.864 0.601 8 2.62 10.76
10/23/2022 3:15:00 PM 10.53 50.954 0.603 8.03 2.56 10.71
10/23/2022 3:30:00 PM 10.58 51.044 0.594 8.02 2.78 10.72
10/23/2022 3:45:00 PM 10.61 51.098 0.595 8.03 2.57 10.7
10/23/2022 4:00:00 PM 10.63 51.134 0.595 8.01 2.81 10.59
10/23/2022 4:15:00 PM 10.66 51.188 0.596 8.01 2.62 10.54
10/23/2022 4:30:00 PM 10.69 51.242 0.593 8.02 3 10.49
10/23/2022 4:45:00 PM 10.71 51.278 0.593 8 2.58 10.47
10/23/2022 5:00:00 PM 10.73 51.314 0.604 7.98 2.7 10.43
10/23/2022 5:15:00 PM 10.74 51.332 0.59 8.02 2.4 10.34
10/23/2022 5:30:00 PM 10.74 51.332 0.591 8.01 2.68 10.28
10/23/2022 5:45:00 PM 10.74 51.332 0.594 8 2.56 10.25
10/23/2022 6:00:00 PM 10.74 51.332 0.597 7.94 2.93 10.27
10/23/2022 6:15:00 PM 10.75 51.35 0.594 7.97 2.98 10.3
10/23/2022 6:30:00 PM 10.75 51.35 0.591 7.98 2.64 10.27
10/23/2022 6:45:00 PM 10.76 51.368 0.595 7.98 3.11 10.23
10/23/2022 7:00:00 PM 10.76 51.368 0.593 7.94 2.57 10.13
10/23/2022 7:15:00 PM 10.76 51.368 0.595 7.98 2.88 10.18
10/23/2022 7:30:00 PM 10.75 51.35 0.598 7.94 2.71 10.2
10/23/2022 7:45:00 PM 10.75 51.35 0.594 7.94 2.72 10.19
10/23/2022 8:00:00 PM 10.74 51.332 0.596 7.94 3.05 10.28
10/23/2022 8:15:00 PM 10.74 51.332 0.593 7.94 3.04 10.22
10/23/2022 8:30:00 PM 10.74 51.332 0.596 7.95 2.73 10.19
10/23/2022 8:45:00 PM 10.72 51.296 0.594 7.96 2.53 10.11
10/23/2022 9:00:00 PM 10.7 51.26 0.597 7.94 2.94 10.2
10/23/2022 9:15:00 PM 10.68 51.224 0.598 7.94 3.17 10.16
10/23/2022 9:30:00 PM 10.65 51.17 0.606 7.91 2.94 10.14
10/23/2022 9:45:00 PM 10.64 51.152 0.594 7.95 2.86 10.21
10/23/2022 10:00:00 PM 10.63 51.134 0.605 7.96 2.73 10.2
10/23/2022 10:15:00 PM 10.61 51.098 0.595 7.96 3.01 10.16
10/23/2022 10:30:00 PM 10.59 51.062 0.596 7.96 3.25 10.17
10/23/2022 10:45:00 PM 10.57 51.026 0.595 7.94 2.82 10.15
10/23/2022 11:00:00 PM 10.55 50.99 0.601 7.92 3.86 10.18
10/23/2022 11:15:00 PM 10.54 50.972 0.609 7.91 3.41 10.15
10/23/2022 11:30:00 PM 10.54 50.972 0.607 7.91 3.13 10.12
10/23/2022 11:45:00 PM 10.53 50.954 0.607 7.95 2.97 10.13
10/24/2022 12:00:00 AM 10.54 50.972 0.597 7.93 2.92 10.17
10/24/2022 12:15:00 AM 10.54 50.972 0.596 7.94 3.14 10.18
10/24/2022 12:30:00 AM 10.54 50.972 0.595 7.93 3.38 10.1
10/24/2022 12:45:00 AM 10.54 50.972 0.602 7.93 3.18 10.16
10/24/2022 1:00:00 AM 10.53 50.954 0.594 7.92 3.31 10.18
10/24/2022 1:15:00 AM 10.54 50.972 0.594 7.92 3.78 10.18
10/24/2022 1:30:00 AM 10.61 51.098 0.577 7.93 7.96 10.21
10/24/2022 1:45:00 AM 10.57 51.026 0.577 7.89 6.3 10.18
10/24/2022 2:00:00 AM 10.53 50.954 0.59 7.91 162.25 10.15
10/24/2022 2:15:00 AM 10.51 50.918 0.593 7.88 6.32 10.21
10/24/2022 2:30:00 AM 10.5 50.9 0.624 7.9 6.26 10.22
10/24/2022 2:45:00 AM 10.5 50.9 0.59 7.9 5.8 10.24
10/24/2022 3:00:00 AM 10.5 50.9 0.597 7.91 6.32 10.3
10/24/2022 3:15:00 AM 10.5 50.9 0.599 7.86 6.46 10.28
10/24/2022 3:30:00 AM 10.5 50.9 0.599 7.9 4.12 10.25
10/24/2022 3:45:00 AM 10.51 50.918 0.601 7.91 4.91 10.26
10/24/2022 4:00:00 AM 10.54 50.972 0.607 7.89 5.57 10.26
10/24/2022 4:15:00 AM 10.57 51.026 0.602 7.91 6.08 10.22
10/24/2022 4:30:00 AM 10.61 51.098 0.607 7.88 6.95 10.31
10/24/2022 4:45:00 AM 10.66 51.188 0.604 7.92 7.39 10.34
10/24/2022 5:00:00 AM 10.74 51.332 0.604 7.91 2640.8 10.39
10/24/2022 5:15:00 AM 10.84 51.512 0.599 7.91 11.69 10.44
10/24/2022 5:30:00 AM 10.97 51.746 0.607 7.9 11.82 10.46
10/24/2022 5:45:00 AM 11.1 51.98 0.595 7.94 10.38 10.46
10/24/2022 6:00:00 AM 11.23 52.214 0.589 7.93 10.83 10.45
10/24/2022 6:15:00 AM 11.35 52.43 0.577 7.94 8.08 10.39
10/24/2022 6:30:00 AM 11.43 52.574 0.574 7.9 8.49 10.33
10/24/2022 6:45:00 AM 11.54 52.772 0.555 7.88 8.52 10.26
10/24/2022 7:00:00 AM 11.75 53.15 0.519 7.84 12.68 10.2
10/24/2022 7:15:00 AM 11.94 53.492 0.481 7.85 13.92 10.16
10/24/2022 7:30:00 AM 11.92 53.456 0.515 7.86 12.72 10.17
10/24/2022 7:45:00 AM 11.85 53.33 0.51 7.87 11.62 10.17
10/24/2022 8:00:00 AM 11.79 53.222 0.527 7.84 11 10.2
10/24/2022 8:15:00 AM 11.76 53.168 0.513 7.86 11.4 10.22
10/24/2022 8:30:00 AM 11.75 53.15 0.54 7.84 12.76 10.24
10/24/2022 8:45:00 AM 11.76 53.168 0.513 7.87 13.82 10.26
10/24/2022 9:00:00 AM 11.77 53.186 0.531 7.84 14.76 10.29
10/24/2022 9:15:00 AM 11.8 53.24 0.511 7.85 15.87 10.32
10/24/2022 9:30:00 AM 11.83 53.294 0.526 7.84 15.89 10.33
10/24/2022 9:45:00 AM 11.88 53.384 0.523 7.87 17.2 10.33
10/24/2022 10:00:00 AM 11.95 53.51 0.517 7.85 19.94 10.33
10/24/2022 10:15:00 AM 12.04 53.672 0.504 7.85 49.04 10.31
10/24/2022 10:30:00 AM 12.15 53.87 0.494 7.84 27.79 10.28
10/24/2022 10:45:00 AM 12.28 54.104 0.494 7.82 29.4 10.23
10/24/2022 11:00:00 AM 12.4 54.32 0.524 7.78 27.74 10.2
10/24/2022 11:15:00 AM 12.52 54.536 0.39 7.74 31.15 10.16
10/24/2022 11:30:00 AM 12.62 54.716 0.351 7.74 39.57 10.14
10/24/2022 11:45:00 AM 12.69 54.842 0.316 7.69 41.2 10.12
10/24/2022 12:00:00 PM 12.76 54.968 0.288 7.68 41.41 10.12
10/24/2022 12:15:00 PM 12.8 55.04 0.272 7.64 46.06 10.13
10/24/2022 12:30:00 PM 12.81 55.058 0.263 7.67 44.37 10.14
10/24/2022 12:45:00 PM 12.79 55.022 0.261 7.67 56.8 10.14
10/24/2022 1:00:00 PM 12.75 54.95 0.261 7.61 69.37 10.14
10/24/2022 1:15:00 PM 12.72 54.896 0.264 7.55 80.88 10.15
10/24/2022 1:30:00 PM 12.68 54.824 0.265 7.67 69.48 10.15
10/24/2022 1:45:00 PM 12.65 54.77 0.272 7.63 62.01 10.16
10/24/2022 2:00:00 PM 12.63 54.734 0.273 7.64 65.68 10.15
10/24/2022 2:15:00 PM 12.62 54.716 0.278 7.63 56.33 10.16
10/24/2022 2:30:00 PM 12.61 54.698 0.28 7.62 61.11 10.16
10/24/2022 2:45:00 PM 12.61 54.698 0.283 7.63 60.47 10.16
10/24/2022 3:00:00 PM 12.61 54.698 0.281 7.59 62.06 10.16
10/24/2022 3:15:00 PM 12.62 54.716 0.283 7.62 52.21 10.15
10/24/2022 3:30:00 PM 12.63 54.734 0.281 7.59 53.14 10.15
10/24/2022 3:45:00 PM 12.65 54.77 0.281 7.62 60.14 10.15
10/24/2022 4:00:00 PM 12.67 54.806 0.277 7.64 51.8 10.15
10/24/2022 4:15:00 PM 12.68 54.824 0.279 7.62 47.4 10.14
10/24/2022 4:30:00 PM 12.7 54.86 0.277 7.59 45.16 10.14
10/24/2022 4:45:00 PM 12.71 54.878 0.279 7.61 54.33 10.14
10/24/2022 5:00:00 PM 12.74 54.932 0.279 7.63 39.61 10.13
10/24/2022 5:15:00 PM 12.76 54.968 0.282 7.58 46.43 10.12
10/24/2022 5:30:00 PM 12.79 55.022 0.283 7.58 42.03 10.11
10/24/2022 5:45:00 PM 12.81 55.058 0.285 7.57 43.21 10.1
10/24/2022 6:00:00 PM 12.83 55.094 0.284 7.56 43.64 10.1
10/24/2022 6:15:00 PM 12.85 55.13 0.284 7.56 40.19 10.1
10/24/2022 6:30:00 PM 12.86 55.148 0.285 7.56 40.51 10.09
10/24/2022 6:45:00 PM 12.87 55.166 0.287 7.57 38.19 10.09
10/24/2022 7:00:00 PM 12.88 55.184 0.288 7.58 37.36 10.09
10/24/2022 7:15:00 PM 12.89 55.202 0.291 7.58 34.6 10.08
10/24/2022 7:30:00 PM 12.89 55.202 0.291 7.58 37.56 10.08
10/24/2022 7:45:00 PM 12.9 55.22 0.295 7.58 32.96 10.06
10/24/2022 8:00:00 PM 12.91 55.238 0.296 7.57 31.36 10.04
10/24/2022 8:15:00 PM 12.92 55.256 0.299 7.6 30.71 10.02
10/24/2022 8:30:00 PM 12.93 55.274 0.301 7.6 33.11 9.99
10/24/2022 8:45:00 PM 12.95 55.31 0.305 7.6 31.55 9.99
10/24/2022 9:00:00 PM 12.97 55.346 0.304 7.59 31.1 9.97
10/24/2022 9:15:00 PM 12.99 55.382 0.305 7.56 27.59 9.95
10/24/2022 9:30:00 PM 13 55.4 0.309 7.59 29.67 9.94
10/24/2022 9:45:00 PM 13.01 55.418 0.305 7.59 27.54 9.93
10/24/2022 10:00:00 PM 13.03 55.454 0.304 7.57 29.66 9.92
10/24/2022 10:15:00 PM 13.04 55.472 0.3 7.58 28.21 9.93
10/24/2022 10:30:00 PM 13.05 55.49 0.303 7.57 27.41 9.93
10/24/2022 10:45:00 PM 13.06 55.508 0.301 7.56 27.05 9.93
10/24/2022 11:00:00 PM 13.07 55.526 0.3 7.57 26.3 9.93
10/24/2022 11:15:00 PM 13.08 55.544 0.303 7.59 26.03 9.93
10/24/2022 11:30:00 PM 13.09 55.562 0.3 7.59 25.09 9.94
10/24/2022 11:45:00 PM 13.1 55.58 0.3 7.57 23.96 9.94
10/25/2022 12:00:00 AM 13.11 55.598 0.302 7.57 23.55 9.95
10/25/2022 12:15:00 AM 13.11 55.598 0.302 7.57 23.3 9.94
10/25/2022 12:30:00 AM 13.12 55.616 0.304 7.56 22.46 9.94
10/25/2022 12:45:00 AM 13.13 55.634 0.304 7.58 21.85 9.94
10/25/2022 1:00:00 AM 13.14 55.652 0.306 7.58 21.82 9.93
10/25/2022 1:15:00 AM 13.14 55.652 0.304 7.56 20.93 9.92
10/25/2022 1:30:00 AM 13.15 55.67 0.307 7.59 20.91 9.92
10/25/2022 1:45:00 AM 13.16 55.688 0.306 7.5 20.81 9.92
10/25/2022 2:00:00 AM 13.17 55.706 0.308 7.61 18.45 9.92
10/25/2022 2:15:00 AM 13.17 55.706 0.312 7.61 19.53 9.91
10/25/2022 2:30:00 AM 13.18 55.724 0.31 7.6 19.36 9.91
10/25/2022 2:45:00 AM 13.19 55.742 0.314 7.6 17.93 9.9
10/25/2022 3:00:00 AM 13.2 55.76 0.312 7.61 17.93 9.9
10/25/2022 3:15:00 AM 13.2 55.76 0.312 7.59 18.4 9.89
10/25/2022 3:30:00 AM 13.21 55.778 0.313 7.62 17.32 9.89
10/25/2022 3:45:00 AM 13.22 55.796 0.313 7.6 17.86 9.89
10/25/2022 4:00:00 AM 13.22 55.796 0.314 7.57 16.17 9.87
10/25/2022 4:15:00 AM 13.23 55.814 0.316 7.6 16.64 9.87
10/25/2022 4:30:00 AM 13.23 55.814 0.317 7.59 16.45 9.86
10/25/2022 4:45:00 AM 13.24 55.832 0.319 7.59 15.72 9.87
10/25/2022 5:00:00 AM 13.25 55.85 0.32 7.58 15.79 9.86
10/25/2022 5:15:00 AM 13.25 55.85 0.323 7.61 15.4 9.85
10/25/2022 5:30:00 AM 13.26 55.868 0.327 7.59 14.39 9.84
10/25/2022 5:45:00 AM 13.26 55.868 0.326 7.62 14.6 9.84
10/25/2022 6:00:00 AM 13.27 55.886 0.325 7.58 14.37 9.84
10/25/2022 6:15:00 AM 13.27 55.886 0.327 7.59 15.26 9.83
10/25/2022 6:30:00 AM 13.28 55.904 0.327 7.59 14.01 9.83
10/25/2022 6:45:00 AM 13.28 55.904 0.329 7.62 14 9.82
10/25/2022 7:00:00 AM 13.29 55.922 0.328 7.6 14.07 9.82
10/25/2022 7:15:00 AM 13.29 55.922 0.33 7.6 13.76 9.82
10/25/2022 7:30:00 AM 13.29 55.922 0.33 7.6 14 9.81
10/25/2022 7:45:00 AM 13.3 55.94 0.332 7.61 13.59 9.81
10/25/2022 8:00:00 AM 13.3 55.94 0.332 7.61 13.55 9.81
10/25/2022 8:15:00 AM 13.31 55.958 0.331 7.62 13.25 9.8
10/25/2022 8:30:00 AM 13.31 55.958 0.332 7.62 13.4 9.8
10/25/2022 8:45:00 AM 13.32 55.976 0.331 7.61 13.07 9.8
10/25/2022 9:00:00 AM 13.34 56.012 0.331 7.61 13.21 9.82
10/25/2022 9:15:00 AM 13.36 56.048 0.338 7.61 13.25 9.82
10/25/2022 9:30:00 AM 13.37 56.066 0.335 7.62 13.49 9.81
10/25/2022 9:45:00 AM 13.39 56.102 0.334 7.61 12.65 9.82
10/25/2022 10:00:00 AM 13.42 56.156 0.334 7.6 12 9.81
10/25/2022 10:15:00 AM 13.45 56.21 0.338 7.61 13.77 9.8
10/25/2022 10:30:00 AM 13.46 56.228 0.339 7.62 11.59 9.79
10/25/2022 10:45:00 AM 13.47 56.246 0.34 7.63 11.44 9.78
10/25/2022 11:00:00 AM 13.49 56.282 0.345 7.62 11.32 9.78
10/25/2022 11:15:00 AM 13.51 56.318 0.342 7.62 11.34 9.78
10/25/2022 11:30:00 AM 13.52 56.336 0.343 7.66 11.23 9.77
10/25/2022 11:45:00 AM 13.55 56.39 0.345 7.64 11.1 9.78
10/25/2022 12:00:00 PM 13.57 56.426 0.346 7.64 12.36 9.77
10/25/2022 12:15:00 PM 13.58 56.444 0.346 7.61 10.48 9.76
10/25/2022 12:30:00 PM 13.59 56.462 0.352 7.65 12.23 9.75
10/25/2022 12:45:00 PM 13.61 56.498 0.348 7.64 12.43 9.74
10/25/2022 1:00:00 PM 13.62 56.516 0.349 7.65 11.06 9.76
10/25/2022 1:15:00 PM 13.64 56.552 0.349 7.63 10.28 9.75
10/25/2022 1:30:00 PM 13.66 56.588 0.354 7.63 9.75 9.76
10/25/2022 1:45:00 PM 13.69 56.642 0.354 7.67 10.69 9.76
10/25/2022 2:00:00 PM 13.71 56.678 0.349 7.64 10.73 9.75
10/25/2022 2:15:00 PM 13.74 56.732 0.352 7.55 9.96 9.75
10/25/2022 2:30:00 PM 13.76 56.768 0.352 7.64 10.11 9.74
10/25/2022 2:45:00 PM 13.78 56.804 0.354 7.67 9.15 9.75
10/25/2022 3:00:00 PM 13.81 56.858 0.357 7.68 10.01 9.73
10/25/2022 3:15:00 PM 13.84 56.912 0.355 7.67 9.4 9.76
10/25/2022 3:30:00 PM 13.86 56.948 0.352 7.68 10.21 9.75
10/25/2022 3:45:00 PM 13.88 56.984 0.356 7.68 9.62 9.73
10/25/2022 4:00:00 PM 13.89 57.002 0.355 7.64 9.31 9.72
10/25/2022 4:15:00 PM 13.91 57.038 0.356 7.68 8.71 9.72
10/25/2022 4:30:00 PM 13.92 57.056 0.352 7.65 9.16 9.72
10/25/2022 4:45:00 PM 13.93 57.074 0.356 7.67 9.09 9.7
10/25/2022 5:00:00 PM 13.94 57.092 0.361 7.69 9.04 9.71
10/25/2022 5:15:00 PM 13.95 57.11 0.358 7.69 9.02 9.7
10/25/2022 5:30:00 PM 13.96 57.128 0.357 7.68 9.04 9.69
10/25/2022 5:45:00 PM 13.97 57.146 0.358 7.7 8.76 9.7
10/25/2022 6:00:00 PM 13.98 57.164 0.355 7.71 8.19 9.68
10/25/2022 6:15:00 PM 13.98 57.164 0.36 7.7 8.33 9.68
10/25/2022 6:30:00 PM 14 57.2 0.359 7.69 8.53 9.68
10/25/2022 6:45:00 PM 14.01 57.218 0.362 7.7 8.36 9.68
10/25/2022 7:00:00 PM 14.02 57.236 0.358 7.7 8.37 9.68
10/25/2022 7:15:00 PM 14.04 57.272 0.364 7.71 8.08 9.68
10/25/2022 7:30:00 PM 14.05 57.29 0.363 7.69 8.2 9.68
10/25/2022 7:45:00 PM 14.06 57.308 0.366 7.73 7.9 9.67
10/25/2022 8:00:00 PM 14.08 57.344 0.37 7.69 8.14 9.67
10/25/2022 8:15:00 PM 14.09 57.362 0.368 7.72 8.08 9.67
10/25/2022 8:30:00 PM 14.1 57.38 0.368 7.71 8.14 9.66
10/25/2022 8:45:00 PM 14.12 57.416 0.37 7.73 7.62 9.66
10/25/2022 9:00:00 PM 14.13 57.434 0.37 7.74 7.7 9.66
10/25/2022 9:15:00 PM 14.13 57.434 0.375 7.74 9.19 9.64
10/25/2022 9:30:00 PM 14.14 57.452 0.208 7.73 7.68 9.65
10/25/2022 9:45:00 PM 14.15 57.47 0.371 7.75 7.46 9.65
10/25/2022 10:00:00 PM 14.15 57.47 0.371 7.71 7.39 9.65
10/25/2022 10:15:00 PM 14.15 57.47 0.369 7.75 7.62 9.64
10/25/2022 10:30:00 PM 14.16 57.488 0.362 7.74 7.37 9.63
10/25/2022 10:45:00 PM 14.16 57.488 0.37 7.73 7.38 9.63
10/25/2022 11:00:00 PM 14.16 57.488 0.367 7.72 7.34 9.6
10/25/2022 11:15:00 PM 14.16 57.488 0.368 7.72 7.47 9.6
10/25/2022 11:30:00 PM 14.16 57.488 0.368 7.72 7.05 9.59
10/25/2022 11:45:00 PM 14.16 57.488 0.363 7.65 7.62 9.58
10/26/2022 12:00:00 AM 14.16 57.488 0.363 7.73 6.81 9.59
10/26/2022 12:15:00 AM 14.16 57.488 0.362 7.73 6.92 9.58
10/26/2022 12:30:00 AM 14.16 57.488 0.367 7.73 6.75 9.56
10/26/2022 12:45:00 AM 14.16 57.488 0.371 7.73 6.98 9.57
10/26/2022 1:00:00 AM 14.16 57.488 0.369 7.73 6.9 9.57
10/26/2022 1:15:00 AM 14.16 57.488 0.37 7.73 6.47 9.57
10/26/2022 1:30:00 AM 14.16 57.488 0.372 7.73 6.65 9.57
10/26/2022 1:45:00 AM 14.16 57.488 0.373 7.74 6.54 9.56
10/26/2022 2:00:00 AM 14.15 57.47 0.372 7.72 6.33 9.56
10/26/2022 2:15:00 AM 14.15 57.47 0.37 7.72 6.45 9.53
10/26/2022 2:30:00 AM 14.15 57.47 0.366 7.74 6.13 9.53
10/26/2022 2:45:00 AM 14.14 57.452 0.371 7.71 6.2 9.49
10/26/2022 3:00:00 AM 14.14 57.452 0.368 7.71 6.35 9.52
10/26/2022 3:15:00 AM 14.14 57.452 0.366 7.74 6.33 9.51
10/26/2022 3:30:00 AM 14.14 57.452 0.468 7.7 6.58 9.51
10/26/2022 3:45:00 AM 14.14 57.452 0.37 7.71 5.91 9.5
10/26/2022 4:00:00 AM 14.13 57.434 0.37 7.72 6.12 9.49
10/26/2022 4:15:00 AM 14.13 57.434 0.368 7.7 5.99 9.48
10/26/2022 4:30:00 AM 14.12 57.416 0.37 7.73 5.64 9.48
10/26/2022 4:45:00 AM 14.12 57.416 0.37 7.74 6.13 9.48
10/26/2022 5:00:00 AM 14.11 57.398 0.363 7.68 6.28 9.48
10/26/2022 5:15:00 AM 14.11 57.398 0.369 7.74 6.47 9.46
10/26/2022 5:30:00 AM 14.11 57.398 0.367 7.7 5.9 9.47
10/26/2022 5:45:00 AM 14.1 57.38 0.37 7.7 5.81 9.48
10/26/2022 6:00:00 AM 14.1 57.38 0.363 7.67 5.96 9.43
10/26/2022 6:15:00 AM 14.1 57.38 0.371 7.71 6 9.47
10/26/2022 6:30:00 AM 14.1 57.38 0.364 7.68 6.5 9.47
10/26/2022 6:45:00 AM 14.09 57.362 0.372 7.7 6.08 9.45
10/26/2022 7:00:00 AM 14.09 57.362 0.372 7.7 5.93 9.45
10/26/2022 7:15:00 AM 14.09 57.362 0.375 7.72 6.03 9.46
10/26/2022 7:30:00 AM 14.09 57.362 0.368 7.7 5.83 9.45
10/26/2022 7:45:00 AM 14.09 57.362 0.376 7.72 6.07 9.45
10/26/2022 8:00:00 AM 14.1 57.38 0.374 7.72 6.24 9.46
10/26/2022 8:15:00 AM 14.1 57.38 0.372 7.68 6.15 9.47
10/26/2022 8:30:00 AM 14.11 57.398 0.371 7.72 6.14 9.47
10/26/2022 8:45:00 AM 14.12 57.416 0.37 7.68 5.87 9.46
10/26/2022 9:00:00 AM 14.12 57.416 0.399 7.73 5.9 9.44
10/26/2022 9:15:00 AM 14.13 57.434 0.37 7.73 5.56 9.46
10/26/2022 9:30:00 AM 14.14 57.452 0.367 7.72 5.68 9.46
10/26/2022 9:45:00 AM 14.15 57.47 0.368 7.73 5.84 9.47
10/26/2022 10:00:00 AM 14.17 57.506 0.366 7.73 5.82 9.48
10/26/2022 10:15:00 AM 14.21 57.578 0.365 7.71 5.6 9.53
10/26/2022 10:30:00 AM 14.24 57.632 0.493 7.75 5.49 9.51
10/26/2022 10:45:00 AM 14.24 57.632 0.372 7.74 5.43 9.48
10/26/2022 11:00:00 AM 14.26 57.668 0.495 7.76 5.64 9.49
10/26/2022 11:15:00 AM 14.32 57.776 0.496 7.75 5.35 9.53
10/26/2022 11:30:00 AM 14.4 57.92 0.498 7.76 5.27 9.56
10/26/2022 11:45:00 AM 14.4 57.92 0.5 7.78 5.52 9.51
10/26/2022 12:00:00 PM 14.4 57.92 0.499 7.74 5.54 9.48
10/26/2022 12:15:00 PM 14.46 58.028 0.5 7.75 5.48 9.5
10/26/2022 12:30:00 PM 14.46 58.028 0.502 7.75 5.7 9.48
10/26/2022 12:45:00 PM 14.49 58.082 0.366 7.77 5.35 9.48
10/26/2022 1:00:00 PM 14.52 58.136 0.449 7.77 5.28 9.49
10/26/2022 1:15:00 PM 14.54 58.172 0.505 7.78 5.2 9.47
10/26/2022 1:30:00 PM 14.58 58.244 0.508 7.75 5.09 9.48
10/26/2022 1:45:00 PM 14.58 58.244 0.506 7.78 5.27 9.45
10/26/2022 2:00:00 PM 14.58 58.244 0.452 7.78 5.81 9.43
10/26/2022 2:15:00 PM 14.6 58.28 0.509 7.75 5.12 9.46
10/26/2022 2:30:00 PM 14.62 58.316 0.509 7.78 5.22 9.46
10/26/2022 2:45:00 PM 14.68 58.424 0.455 7.78 5.03 9.5
10/26/2022 3:00:00 PM 14.7 58.46 0.426 7.78 4.94 9.48
10/26/2022 3:15:00 PM 14.72 58.496 0.455 7.77 4.74 9.45
10/26/2022 3:30:00 PM 14.73 58.514 0.456 7.78 5.02 9.44
10/26/2022 3:45:00 PM 14.75 58.55 0.427 7.81 4.67 9.42
10/26/2022 4:00:00 PM 14.77 58.586 0.513 7.82 4.89 9.42
10/26/2022 4:15:00 PM 14.78 58.604 0.428 7.81 4.59 9.38
10/26/2022 4:30:00 PM 14.81 58.658 0.457 7.78 4.78 9.41
10/26/2022 4:45:00 PM 14.82 58.676 0.458 7.82 4.85 9.38
10/26/2022 5:00:00 PM 14.84 58.712 0.514 7.79 4.53 9.4
10/26/2022 5:15:00 PM 14.85 58.73 0.429 7.8 4.68 9.38
10/26/2022 5:30:00 PM 14.86 58.748 0.459 7.77 4.49 9.39
10/26/2022 5:45:00 PM 14.87 58.766 0.459 7.78 4.68 9.38
10/26/2022 6:00:00 PM 14.89 58.802 0.46 7.79 4.66 9.37
10/26/2022 6:15:00 PM 14.9 58.82 0.46 7.79 4.39 9.36
10/26/2022 6:30:00 PM 14.91 58.838 0.461 7.8 4.4 9.37
10/26/2022 6:45:00 PM 14.92 58.856 0.462 7.8 4.8 9.37
10/26/2022 7:00:00 PM 14.94 58.892 0.462 7.8 7.42 9.37
10/26/2022 7:15:00 PM 14.95 58.91 0.519 7.77 4.47 9.37
10/26/2022 7:30:00 PM 14.96 58.928 0.444 7.79 4.38 9.37
10/26/2022 7:45:00 PM 14.97 58.946 0.463 7.79 4.43 9.38
10/26/2022 8:00:00 PM 14.98 58.964 0.445 7.79 4.46 9.38
10/26/2022 8:15:00 PM 14.99 58.982 0.464 7.8 4.6 9.38
10/26/2022 8:30:00 PM 15 59 0.445 7.81 4.57 9.38
10/26/2022 8:45:00 PM 15.01 59.018 0.464 7.8 4.66 9.38
10/26/2022 9:00:00 PM 15.02 59.036 0.517 7.77 4.7 9.38
10/26/2022 9:15:00 PM 15.02 59.036 0.463 7.8 4.72 9.38
10/26/2022 9:30:00 PM 15.02 59.036 0.463 7.81 4.54 9.38
10/26/2022 9:45:00 PM 15.02 59.036 0.463 7.82 4.72 9.38
10/26/2022 10:00:00 PM 15.01 59.018 0.519 7.78 4.79 9.38
10/26/2022 10:15:00 PM 15 59 0.461 7.81 4.66 9.38
10/26/2022 10:30:00 PM 14.99 58.982 0.443 7.8 4.81 9.38
10/26/2022 10:45:00 PM 14.98 58.964 0.519 7.81 4.92 9.39
10/26/2022 11:00:00 PM 14.96 58.928 0.444 7.82 4.51 9.39
10/26/2022 11:15:00 PM 14.95 58.91 0.462 7.8 4.92 9.38
10/26/2022 11:30:00 PM 14.94 58.892 0.444 7.83 4.46 9.38
10/26/2022 11:45:00 PM 14.92 58.856 0.463 7.82 4.94 9.38
10/27/2022 12:00:00 AM 14.9 58.82 0.445 7.82 4.84 9.38
10/27/2022 12:15:00 AM 14.88 58.784 0.521 7.81 4.9 9.38
10/27/2022 12:30:00 AM 14.86 58.748 0.446 7.79 4.76 9.37
10/27/2022 12:45:00 AM 14.84 58.712 0.434 7.8 4.82 9.37
10/27/2022 1:00:00 AM 14.82 58.676 0.465 7.81 4.93 9.37
10/27/2022 1:15:00 AM 14.8 58.64 0.523 7.83 5.08 9.36
10/27/2022 1:30:00 AM 14.77 58.586 0.436 7.82 4.83 9.35
10/27/2022 1:45:00 AM 14.75 58.55 0.436 7.79 4.77 9.34
10/27/2022 2:00:00 AM 14.73 58.514 0.448 7.8 4.91 9.35
10/27/2022 2:15:00 AM 14.7 58.46 0.466 7.78 5.2 9.35
10/27/2022 2:30:00 AM 14.68 58.424 0.466 7.81 5.15 9.34
10/27/2022 2:45:00 AM 14.65 58.37 0.523 7.8 4.88 9.34
10/27/2022 3:00:00 AM 14.63 58.334 0.448 7.8 4.97 9.34
10/27/2022 3:15:00 AM 14.61 58.298 0.467 7.78 4.77 9.33
10/27/2022 3:30:00 AM 14.59 58.262 0.437 7.81 4.52 9.34
10/27/2022 3:45:00 AM 14.57 58.226 0.467 7.8 4.79 9.33
10/27/2022 4:00:00 AM 14.55 58.19 0.449 7.8 4.9 9.33
10/27/2022 4:15:00 AM 14.53 58.154 0.438 7.8 4.83 9.33
10/27/2022 4:30:00 AM 14.49 58.082 0.469 7.8 4.92 9.34
10/27/2022 4:45:00 AM 14.46 58.028 0.468 7.78 4.73 9.34
10/27/2022 5:00:00 AM 14.42 57.956 0.439 7.8 4.7 9.34
10/27/2022 5:15:00 AM 14.39 57.902 0.439 7.77 4.92 9.34
10/27/2022 5:30:00 AM 14.36 57.848 0.469 7.79 4.58 9.35
10/27/2022 5:45:00 AM 14.33 57.794 0.527 7.76 4.9 9.35
10/27/2022 6:00:00 AM 14.31 57.758 0.469 7.78 4.7 9.36
10/27/2022 6:15:00 AM 14.28 57.704 0.47 7.79 4.67 9.35
10/27/2022 6:30:00 AM 14.25 57.65 0.469 7.79 5.05 9.36
10/27/2022 6:45:00 AM 14.21 57.578 0.47 7.79 4.65 9.36
10/27/2022 7:00:00 AM 14.18 57.524 0.526 7.79 4.74 9.36
10/27/2022 7:15:00 AM 14.15 57.47 0.47 7.79 4.64 9.37
10/27/2022 7:30:00 AM 14.12 57.416 0.528 7.8 5.08 9.38
10/27/2022 7:45:00 AM 14.09 57.362 0.525 7.8 4.78 9.39
10/27/2022 8:00:00 AM 14.07 57.326 0.47 7.8 4.86 9.39
10/27/2022 8:15:00 AM 14.05 57.29 0.527 7.77 5.12 9.41
10/27/2022 8:30:00 AM 14.02 57.236 0.469 7.75 4.92 9.42
10/27/2022 8:45:00 AM 13.99 57.182 0.529 7.77 4.69 9.46
10/27/2022 9:00:00 AM 13.98 57.164 0.529 7.75 4.87 9.49
10/27/2022 9:15:00 AM 13.96 57.128 0.529 7.78 4.98 9.51
10/27/2022 9:30:00 AM 13.95 57.11 0.471 7.8 4.42 9.53
10/27/2022 9:45:00 AM 13.96 57.128 0.471 7.8 4.94 9.56
10/27/2022 10:00:00 AM 13.96 57.128 0.529 7.78 4.6 9.58
10/27/2022 10:15:00 AM 13.96 57.128 0.442 7.81 4.47 9.59
10/27/2022 10:30:00 AM 13.96 57.128 0.532 7.78 4.7 9.61
10/27/2022 10:45:00 AM 13.97 57.146 0.455 7.79 4.56 9.63
10/27/2022 11:00:00 AM 13.97 57.146 0.532 7.81 4.55 9.64
10/27/2022 11:15:00 AM 13.97 57.146 0.533 7.82 4.3 9.64
10/27/2022 11:30:00 AM 13.98 57.164 0.474 7.8 4.29 9.64
10/27/2022 11:45:00 AM 13.98 57.164 0.533 7.79 4.41 9.65
10/27/2022 12:00:00 PM 13.99 57.182 0.476 7.83 4.54 9.65
10/27/2022 12:15:00 PM 13.99 57.182 0.476 7.82 4.14 9.65
10/27/2022 12:30:00 PM 14 57.2 0.457 7.8 4.11 9.65
10/27/2022 12:45:00 PM 14.01 57.218 0.476 7.81 4.19 9.65
10/27/2022 1:00:00 PM 14.01 57.218 0.458 7.82 3.9 9.65
10/27/2022 1:15:00 PM 14.01 57.218 0.478 7.83 4.11 9.64
10/27/2022 1:30:00 PM 14.02 57.236 0.536 7.83 3.68 9.63
10/27/2022 1:45:00 PM 14.02 57.236 0.535 7.84 3.73 9.63
10/27/2022 2:00:00 PM 14.04 57.272 0.46 7.83 3.94 9.64
10/27/2022 2:15:00 PM 14.05 57.29 0.481 7.81 3.54 9.63
10/27/2022 2:30:00 PM 14.07 57.326 0.462 7.82 3.81 9.63
10/27/2022 2:45:00 PM 14.08 57.344 0.541 7.82 3.56 9.63
10/27/2022 3:00:00 PM 14.1 57.38 0.484 7.82 3.59 9.61
10/27/2022 3:15:00 PM 14.12 57.416 0.485 7.81 3.59 9.6
10/27/2022 3:30:00 PM 14.14 57.452 0.455 7.79 3.63 9.58
10/27/2022 3:45:00 PM 14.17 57.506 0.468 7.82 6.02 9.58
10/27/2022 4:00:00 PM 14.2 57.56 0.47 7.83 3.38 9.57
10/27/2022 4:15:00 PM 14.24 57.632 0.547 7.79 3.69 9.56
10/27/2022 4:30:00 PM 14.27 57.686 0.472 7.84 4.02 9.55
10/27/2022 4:45:00 PM 14.3 57.74 0.474 7.83 3.42 9.55
10/27/2022 5:00:00 PM 14.33 57.794 0.476 7.84 3.86 9.55
10/27/2022 5:15:00 PM 14.34 57.812 0.477 7.82 3.6 9.54
10/27/2022 5:30:00 PM 14.34 57.812 0.479 7.84 3.61 9.55
10/27/2022 5:45:00 PM 14.33 57.794 0.479 7.83 3.41 9.57
10/27/2022 6:00:00 PM 14.31 57.758 0.481 7.83 3.63 9.56
10/27/2022 6:15:00 PM 14.27 57.686 0.501 7.82 3.48 9.57
10/27/2022 6:30:00 PM 14.22 57.596 0.482 7.83 3.55 9.57
10/27/2022 6:45:00 PM 14.16 57.488 0.501 7.82 3.57 9.59
10/27/2022 7:00:00 PM 14.09 57.362 0.472 7.78 3.32 9.59
10/27/2022 7:15:00 PM 14.01 57.218 0.485 7.85 3.89 9.6
10/27/2022 7:30:00 PM 13.93 57.074 0.486 7.83 3.74 9.63
10/27/2022 7:45:00 PM 13.87 56.966 0.486 7.81 3.91 9.64
10/27/2022 8:00:00 PM 13.82 56.876 0.487 7.83 4.24 9.65
10/27/2022 8:15:00 PM 13.79 56.822 0.507 7.8 3.93 9.66
10/27/2022 8:30:00 PM 13.76 56.768 0.48 7.81 3.62 9.66
10/27/2022 8:45:00 PM 13.74 56.732 0.487 7.81 4.02 9.66
10/27/2022 9:00:00 PM 13.72 56.696 0.48 7.82 4.02 9.67
10/27/2022 9:15:00 PM 13.7 56.66 0.486 7.8 4.21 9.67
10/27/2022 9:30:00 PM 13.68 56.624 0.487 7.83 4.17 9.67
10/27/2022 9:45:00 PM 13.66 56.588 0.475 7.8 3.86 9.68
10/27/2022 10:00:00 PM 13.64 56.552 0.486 7.82 3.82 9.69
10/27/2022 10:15:00 PM 13.62 56.516 0.506 7.8 4.09 9.69
10/27/2022 10:30:00 PM 13.6 56.48 0.486 7.85 4.19 9.69
10/27/2022 10:45:00 PM 13.57 56.426 0.505 7.83 4.09 9.7
10/27/2022 11:00:00 PM 13.55 56.39 0.484 7.83 3.73 9.71
10/27/2022 11:15:00 PM 13.52 56.336 0.484 7.84 4.25 9.71
10/27/2022 11:30:00 PM 13.49 56.282 0.476 7.82 4.28 9.71
10/27/2022 11:45:00 PM 13.47 56.246 0.502 7.79 4.28 9.73
10/28/2022 12:00:00 AM 13.43 56.174 0.482 7.82 4.21 9.72
10/28/2022 12:15:00 AM 13.4 56.12 0.501 7.8 4.34 9.72
10/28/2022 12:30:00 AM 13.37 56.066 0.468 7.84 4.03 9.73
10/28/2022 12:45:00 AM 13.33 55.994 0.499 7.83 4.13 9.73
10/28/2022 1:00:00 AM 13.29 55.922 0.48 7.84 4.48 9.73
10/28/2022 1:15:00 AM 13.25 55.85 0.499 7.82 4.34 9.75
10/28/2022 1:30:00 AM 13.21 55.778 0.479 7.85 4.64 9.74
10/28/2022 1:45:00 AM 13.17 55.706 0.498 7.84 4.19 9.74
10/28/2022 2:00:00 AM 13.13 55.634 0.479 7.84 4.29 9.76
10/28/2022 2:15:00 AM 13.09 55.562 0.499 7.84 4.13 9.76
10/28/2022 2:30:00 AM 13.05 55.49 0.497 7.83 4.32 9.76
10/28/2022 2:45:00 AM 13 55.4 0.498 7.81 4.48 9.76
10/28/2022 3:00:00 AM 12.96 55.328 0.498 7.79 4.41 9.76
10/28/2022 3:15:00 AM 12.91 55.238 0.499 7.83 4.34 9.77
10/28/2022 3:30:00 AM 12.86 55.148 0.497 7.85 4.25 9.77
10/28/2022 3:45:00 AM 12.82 55.076 0.479 7.84 4.8 9.77
10/28/2022 4:00:00 AM 12.76 54.968 0.498 7.82 4.55 9.78
10/28/2022 4:15:00 AM 12.71 54.878 0.479 7.84 4.65 9.78
10/28/2022 4:30:00 AM 12.66 54.788 0.479 7.82 4.76 9.78
10/28/2022 4:45:00 AM 12.61 54.698 0.472 7.8 4.7 9.79
10/28/2022 5:00:00 AM 12.56 54.608 0.5 7.81 4.69 9.8
10/28/2022 5:15:00 AM 12.5 54.5 0.48 7.84 4.65 9.8
10/28/2022 5:30:00 AM 12.45 54.41 0.5 7.81 4.63 9.81
10/28/2022 5:45:00 AM 12.39 54.302 0.5 7.8 4.63 9.81
10/28/2022 6:00:00 AM 12.34 54.212 0.479 7.82 4.53 9.82
10/28/2022 6:15:00 AM 12.29 54.122 0.48 7.83 4.6 9.83
10/28/2022 6:30:00 AM 12.24 54.032 0.479 7.84 4.78 9.84
10/28/2022 6:45:00 AM 12.18 53.924 0.48 7.82 4.84 9.84
10/28/2022 7:00:00 AM 12.12 53.816 0.48 7.81 4.79 9.85
10/28/2022 7:15:00 AM 12.06 53.708 0.499 7.78 4.81 9.86
10/28/2022 7:30:00 AM 12 53.6 0.468 7.79 4.53 9.87
10/28/2022 7:45:00 AM 11.95 53.51 0.468 7.79 4.53 9.89
10/28/2022 8:00:00 AM 11.9 53.42 0.481 7.81 4.75 9.92
10/28/2022 8:15:00 AM 11.85 53.33 0.563 7.81 4.35 9.94
10/28/2022 8:30:00 AM 11.81 53.258 0.47 7.8 4.44 9.95
10/28/2022 8:45:00 AM 11.77 53.186 0.47 7.81 4.49 9.97
10/28/2022 9:00:00 AM 11.74 53.132 0.483 7.78 4.39 10.02
10/28/2022 9:15:00 AM 11.72 53.096 0.483 7.82 4.39 10.05
10/28/2022 9:30:00 AM 11.71 53.078 0.484 7.82 4.39 10.09
10/28/2022 9:45:00 AM 11.7 53.06 0.484 7.82 4.36 10.11
10/28/2022 10:00:00 AM 11.67 53.006 0.485 7.83 4.38 10.13
10/28/2022 10:15:00 AM 11.65 52.97 0.485 7.84 4.19 10.14
10/28/2022 10:30:00 AM 11.63 52.934 0.473 7.85 4.05 10.14
10/28/2022 10:45:00 AM 11.62 52.916 0.507 7.83 4.02 10.18
10/28/2022 11:00:00 AM 11.61 52.898 0.506 7.81 4.05 10.2
10/28/2022 11:15:00 AM 11.61 52.898 0.486 7.85 4.08 10.21
10/28/2022 11:30:00 AM 11.6 52.88 0.507 7.83 4.04 10.22
10/28/2022 11:45:00 AM 11.58 52.844 0.506 7.83 3.88 10.23
10/28/2022 12:00:00 PM 11.56 52.808 0.507 7.82 3.82 10.24
10/28/2022 12:15:00 PM 11.56 52.808 0.566 7.8 4.1 10.25
10/28/2022 12:30:00 PM 11.54 52.772 0.396 7.84 3.7 10.24
10/28/2022 12:45:00 PM 11.53 52.754 0.508 7.81 4.12 10.26
10/28/2022 1:00:00 PM 11.52 52.736 0.488 7.83 3.56 10.26
10/28/2022 1:15:00 PM 11.49 52.682 0.488 7.85 3.68 10.26
10/28/2022 1:30:00 PM 11.51 52.718 0.489 7.83 3.53 10.28
10/28/2022 1:45:00 PM 11.49 52.682 0.51 7.84 3.64 10.26
10/28/2022 2:00:00 PM 11.53 52.754 0.51 7.83 3.82 10.27
10/28/2022 2:15:00 PM 11.54 52.772 0.572 7.83 3.74 10.28
10/28/2022 2:30:00 PM 11.54 52.772 0.491 7.83 3.6 10.27
10/28/2022 2:45:00 PM 11.52 52.736 0.512 7.82 3.58 10.28
10/28/2022 3:00:00 PM 11.52 52.736 0.492 7.82 3.61 10.29
10/28/2022 3:15:00 PM 11.49 52.682 0.479 7.84 3.4 10.29
10/28/2022 3:30:00 PM 11.48 52.664 0.513 7.86 3.57 10.3
10/28/2022 3:45:00 PM 11.45 52.61 0.514 7.83 3.6 10.25
10/28/2022 4:00:00 PM 11.44 52.592 0.481 7.85 3.45 10.26
10/28/2022 4:15:00 PM 11.44 52.592 0.514 7.82 3.4 10.27
10/28/2022 4:30:00 PM 11.43 52.574 0.488 7.82 3.57 10.28
10/28/2022 4:45:00 PM 11.42 52.556 0.515 7.83 3.94 10.26
10/28/2022 5:00:00 PM 11.42 52.556 0.488 7.82 3.62 10.26
10/28/2022 5:15:00 PM 11.41 52.538 0.517 7.84 3.57 10.24
10/28/2022 5:30:00 PM 11.4 52.52 0.483 7.85 3.74 10.24
10/28/2022 5:45:00 PM 11.41 52.538 0.48 7.85 3.47 10.24
10/28/2022 6:00:00 PM 11.41 52.538 0.496 7.85 3.61 10.25
10/28/2022 6:15:00 PM 11.4 52.52 0.516 7.85 3.47 10.24
10/28/2022 6:30:00 PM 11.39 52.502 0.49 7.85 3.49 10.25
10/28/2022 6:45:00 PM 11.37 52.466 0.497 7.86 3.98 10.26
10/28/2022 7:00:00 PM 11.36 52.448 0.484 7.83 3.52 10.26
10/28/2022 7:15:00 PM 11.35 52.43 0.498 7.87 3.58 10.28
10/28/2022 7:30:00 PM 11.33 52.394 0.518 7.85 3.9 10.29
10/28/2022 7:45:00 PM 11.31 52.358 0.491 7.82 3.66 10.29
10/28/2022 8:00:00 PM 11.28 52.304 0.518 7.81 3.55 10.3
10/28/2022 8:15:00 PM 11.26 52.268 0.499 7.87 3.94 10.32
10/28/2022 8:30:00 PM 11.24 52.232 0.519 7.9 3.8 10.34
10/28/2022 8:45:00 PM 11.22 52.196 0.499 7.87 3.72 10.34
10/28/2022 9:00:00 PM 11.21 52.178 0.52 7.88 3.64 10.34
10/28/2022 9:15:00 PM 11.2 52.16 0.5 7.88 3.68 10.34
10/28/2022 9:30:00 PM 11.18 52.124 0.521 7.86 3.75 10.35
10/28/2022 9:45:00 PM 11.17 52.106 0.502 7.87 3.75 10.36
10/28/2022 10:00:00 PM 11.16 52.088 0.502 7.87 3.91 10.37
10/28/2022 10:15:00 PM 11.16 52.088 0.496 7.86 3.76 10.37
10/28/2022 10:30:00 PM 11.15 52.07 0.524 7.85 3.76 10.38
10/28/2022 10:45:00 PM 11.15 52.07 0.496 7.85 3.59 10.39
10/28/2022 11:00:00 PM 11.15 52.07 0.504 7.86 3.77 10.39
10/28/2022 11:15:00 PM 11.16 52.088 0.505 7.88 3.85 10.4
10/28/2022 11:30:00 PM 11.16 52.088 0.506 7.88 3.88 10.4
10/28/2022 11:45:00 PM 11.17 52.106 0.498 7.88 3.62 10.41
10/29/2022 12:00:00 AM 11.17 52.106 0.527 7.86 3.81 10.41
10/29/2022 12:15:00 AM 11.17 52.106 0.528 7.89 3.75 10.41
10/29/2022 12:30:00 AM 11.17 52.106 0.508 7.89 3.88 10.42
10/29/2022 12:45:00 AM 11.17 52.106 0.507 7.88 3.95 10.42
10/29/2022 1:00:00 AM 11.16 52.088 0.528 7.88 3.83 10.42
10/29/2022 1:15:00 AM 11.15 52.07 0.529 7.84 3.88 10.42
10/29/2022 1:30:00 AM 11.14 52.052 0.508 7.87 3.8 10.41
10/29/2022 1:45:00 AM 11.12 52.016 0.529 7.91 4.05 10.41
10/29/2022 2:00:00 AM 11.1 51.98 0.508 7.89 4.08 10.41
10/29/2022 2:15:00 AM 11.09 51.962 0.509 7.89 4.02 10.41
10/29/2022 2:30:00 AM 11.07 51.926 0.509 7.9 4.22 10.41
10/29/2022 2:45:00 AM 11.05 51.89 0.509 7.9 4.11 10.41
10/29/2022 3:00:00 AM 11.03 51.854 0.502 7.87 4.05 10.41
10/29/2022 3:15:00 AM 11 51.8 0.593 7.87 4.25 10.41
10/29/2022 3:30:00 AM 10.97 51.746 0.51 7.89 3.95 10.4
10/29/2022 3:45:00 AM 10.95 51.71 0.509 7.89 3.9 10.4
10/29/2022 4:00:00 AM 10.92 51.656 0.594 7.89 4.46 10.39
10/29/2022 4:15:00 AM 10.89 51.602 0.502 7.89 3.97 10.39
10/29/2022 4:30:00 AM 10.86 51.548 0.509 7.89 3.87 10.39
10/29/2022 4:45:00 AM 10.83 51.494 0.51 7.9 4.19 10.39
10/29/2022 5:00:00 AM 10.8 51.44 0.509 7.89 4.09 10.39
10/29/2022 5:15:00 AM 10.76 51.368 0.53 7.9 4.23 10.38
10/29/2022 5:30:00 AM 10.73 51.314 0.497 7.91 4.28 10.38
10/29/2022 5:45:00 AM 10.69 51.242 0.529 7.89 4.15 10.39
10/29/2022 6:00:00 AM 10.65 51.17 0.51 7.91 4.13 10.39
10/29/2022 6:15:00 AM 10.61 51.098 0.531 7.87 4.55 10.39
10/29/2022 6:30:00 AM 10.58 51.044 0.51 7.88 4.2 10.39
10/29/2022 6:45:00 AM 10.54 50.972 0.496 7.86 4.06 10.38
10/29/2022 7:00:00 AM 10.5 50.9 0.509 7.87 4.16 10.38
10/29/2022 7:15:00 AM 10.46 50.828 0.531 7.84 4.01 10.39
10/29/2022 7:30:00 AM 10.41 50.738 0.531 7.85 4.59 10.39
10/29/2022 7:45:00 AM 10.37 50.666 0.529 7.83 3.95 10.4
10/29/2022 8:00:00 AM 10.34 50.612 0.497 7.86 5.07 10.41
10/29/2022 8:15:00 AM 10.3 50.54 0.509 7.86 5.31 10.43
10/29/2022 8:30:00 AM 10.27 50.486 0.51 7.87 4.36 10.45
10/29/2022 8:45:00 AM 10.25 50.45 0.497 7.84 4.18 10.47
10/29/2022 9:00:00 AM 10.23 50.414 0.51 7.85 4.15 10.52
10/29/2022 9:15:00 AM 10.22 50.396 0.531 7.86 3.8 10.55
10/29/2022 9:30:00 AM 10.23 50.414 0.502 7.86 4.12 10.56
10/29/2022 9:45:00 AM 10.23 50.414 0.53 7.84 4.37 10.58
10/29/2022 10:00:00 AM 10.24 50.432 0.509 7.87 4.3 10.62
10/29/2022 10:15:00 AM 10.26 50.468 0.509 7.88 3.98 10.62
10/29/2022 10:30:00 AM 10.27 50.486 0.502 7.85 3.83 10.63
10/29/2022 10:45:00 AM 10.28 50.504 0.508 7.88 3.8 10.63
10/29/2022 11:00:00 AM 10.29 50.522 0.529 7.89 4 10.64
10/29/2022 11:15:00 AM 10.31 50.558 0.529 7.88 3.82 10.65
10/29/2022 11:30:00 AM 10.32 50.576 0.53 7.87 3.94 10.65
10/29/2022 11:45:00 AM 10.31 50.558 0.53 7.89 3.8 10.65
10/29/2022 12:00:00 PM 10.32 50.576 0.529 7.89 3.73 10.65
10/29/2022 12:15:00 PM 10.33 50.594 0.509 7.92 4.1 10.65
10/29/2022 12:30:00 PM 10.33 50.594 0.529 7.87 3.58 10.65
10/29/2022 12:45:00 PM 10.32 50.576 0.502 7.87 3.49 10.65
10/29/2022 1:00:00 PM 10.31 50.558 0.508 7.9 3.63 10.64
10/29/2022 1:15:00 PM 10.32 50.576 0.51 7.9 3.68 10.63
10/29/2022 1:30:00 PM 10.32 50.576 0.53 7.84 3.45 10.63
10/29/2022 1:45:00 PM 10.33 50.594 0.51 7.89 3.59 10.62
10/29/2022 2:00:00 PM 10.35 50.63 0.509 7.88 3.19 10.62
10/29/2022 2:15:00 PM 10.37 50.666 0.51 7.89 4.95 10.61
10/29/2022 2:30:00 PM 10.33 50.594 0.531 7.87 3.28 10.62
10/29/2022 2:45:00 PM 10.31 50.558 0.503 7.87 4.55 10.63
10/29/2022 3:00:00 PM 10.31 50.558 0.531 7.86 4.1 10.59
10/29/2022 3:15:00 PM 10.31 50.558 0.51 7.89 3.6 10.58
10/29/2022 3:30:00 PM 10.3 50.54 0.531 7.87 3.06 10.58
10/29/2022 3:45:00 PM 10.27 50.486 0.502 7.84 2.9 10.57
10/29/2022 4:00:00 PM 10.26 50.468 0.531 7.87 3.19 10.58
10/29/2022 4:15:00 PM 10.25 50.45 0.51 7.88 2.98 10.57
10/29/2022 4:30:00 PM 10.25 50.45 0.591 7.86 2.74 10.58
10/29/2022 4:45:00 PM 10.26 50.468 0.497 7.87 2.58 10.57
10/29/2022 5:00:00 PM 10.26 50.468 0.53 7.83 2.85 10.57
10/29/2022 5:15:00 PM 10.26 50.468 0.502 7.87 2.68 10.57
10/29/2022 5:30:00 PM 10.27 50.486 0.509 7.89 3.27 10.56
10/29/2022 5:45:00 PM 10.28 50.504 0.509 7.89 3.06 10.57
10/29/2022 6:00:00 PM 10.3 50.54 0.508 7.87 2.84 10.54
10/29/2022 6:15:00 PM 10.3 50.54 0.594 7.88 2.75 10.55
10/29/2022 6:30:00 PM 10.31 50.558 0.509 7.88 3.36 10.56
10/29/2022 6:45:00 PM 10.32 50.576 0.593 7.86 3.15 10.56
10/29/2022 7:00:00 PM 10.31 50.558 0.495 7.88 3.28 10.56
10/29/2022 7:15:00 PM 10.3 50.54 0.528 7.86 3.35 10.57
10/29/2022 7:30:00 PM 10.29 50.522 0.508 7.89 3.32 10.58
10/29/2022 7:45:00 PM 10.25 50.45 0.529 7.89 3.23 10.59
10/29/2022 8:00:00 PM 10.21 50.378 0.507 7.9 3.42 10.59
10/29/2022 8:15:00 PM 10.16 50.288 0.529 7.89 3.18 10.59
10/29/2022 8:30:00 PM 10.1 50.18 0.495 7.9 3.49 10.6
10/29/2022 8:45:00 PM 10.03 50.054 0.528 7.87 3.33 10.63
10/29/2022 9:00:00 PM 9.96 49.928 0.493 7.91 3.05 10.66
10/29/2022 9:15:00 PM 9.91 49.838 0.527 7.93 3.1 10.67
10/29/2022 9:30:00 PM 9.88 49.784 0.526 7.92 3.67 10.68
10/29/2022 9:45:00 PM 9.85 49.73 0.527 7.92 3.22 10.68
10/29/2022 10:00:00 PM 9.83 49.694 0.506 7.92 3.32 10.7
10/29/2022 10:15:00 PM 9.81 49.658 0.527 7.95 3.18 10.7
10/29/2022 10:30:00 PM 9.8 49.64 0.505 7.95 3.12 10.71
10/29/2022 10:45:00 PM 9.79 49.622 0.526 7.94 3.75 10.7
10/29/2022 11:00:00 PM 9.79 49.622 0.504 7.93 3.44 10.7
10/29/2022 11:15:00 PM 9.8 49.64 0.525 7.9 3.47 10.7
10/29/2022 11:30:00 PM 9.81 49.658 0.525 7.91 3.24 10.7
10/29/2022 11:45:00 PM 9.83 49.694 0.503 7.9 3.45 10.71
10/30/2022 12:00:00 AM 9.85 49.73 0.588 7.89 3.18 10.7
10/30/2022 12:15:00 AM 9.87 49.766 0.523 7.92 3.51 10.71
10/30/2022 12:30:00 AM 9.89 49.802 0.49 7.92 3.35 10.71
10/30/2022 12:45:00 AM 9.91 49.838 0.49 7.93 3.5 10.71
10/30/2022 1:00:00 AM 9.93 49.874 0.524 7.92 3.44 10.71
10/30/2022 1:15:00 AM 9.94 49.892 0.489 7.93 3.45 10.7
10/30/2022 1:30:00 AM 9.95 49.91 0.524 7.92 3.48 10.69
10/30/2022 1:45:00 AM 9.96 49.928 0.503 7.91 3.47 10.7
10/30/2022 2:00:00 AM 9.97 49.946 0.525 7.91 3.46 10.69
10/30/2022 2:15:00 AM 9.98 49.964 0.504 7.92 3.64 10.69
10/30/2022 2:30:00 AM 9.97 49.946 0.526 7.93 3.52 10.68
10/30/2022 2:45:00 AM 9.97 49.946 0.505 7.91 3.55 10.67
10/30/2022 3:00:00 AM 9.96 49.928 0.527 7.92 3.43 10.66
10/30/2022 3:15:00 AM 9.96 49.928 0.507 7.92 3.68 10.67
10/30/2022 3:30:00 AM 9.95 49.91 0.508 7.89 4.15 10.65
10/30/2022 3:45:00 AM 9.93 49.874 0.496 7.94 3.9 10.66
10/30/2022 4:00:00 AM 9.92 49.856 0.51 7.93 3.76 10.65
10/30/2022 4:15:00 AM 9.9 49.82 0.504 7.93 3.86 10.65
10/30/2022 4:30:00 AM 9.88 49.784 0.534 7.91 3.98 10.64
10/30/2022 4:45:00 AM 9.85 49.73 0.501 7.96 4.01 10.61
10/30/2022 5:00:00 AM 9.83 49.694 0.515 7.94 3.95 10.63
10/30/2022 5:15:00 AM 9.81 49.658 0.509 7.91 3.95 10.62
10/30/2022 5:30:00 AM 9.8 49.64 0.538 7.97 4.14 10.62
10/30/2022 5:45:00 AM 9.78 49.604 0.539 7.93 4.23 10.62
10/30/2022 6:00:00 AM 9.76 49.568 0.541 7.92 3.93 10.6
10/30/2022 6:15:00 AM 9.75 49.55 0.521 7.92 4.18 10.61
10/30/2022 6:30:00 AM 9.73 49.514 0.522 7.92 3.96 10.6
10/30/2022 6:45:00 AM 9.7 49.46 0.544 7.94 4.3 10.59
10/30/2022 7:00:00 AM 9.68 49.424 0.517 7.91 3.99 10.59
10/30/2022 7:15:00 AM 9.66 49.388 0.525 7.94 3.83 10.59
10/30/2022 7:30:00 AM 9.64 49.352 0.513 7.97 3.97 10.59
10/30/2022 7:45:00 AM 9.62 49.316 0.548 7.93 4.12 10.6
10/30/2022 8:00:00 AM 9.6 49.28 0.521 7.94 4.05 10.6
10/30/2022 8:15:00 AM 9.58 49.244 0.55 7.94 3.84 10.59
10/30/2022 8:30:00 AM 9.57 49.226 0.551 7.95 4.04 10.61
10/30/2022 8:45:00 AM 9.56 49.208 0.553 7.9 3.79 10.64
10/30/2022 9:00:00 AM 9.55 49.19 0.524 7.93 4.21 10.66
10/30/2022 9:15:00 AM 9.55 49.19 0.519 7.91 3.92 10.69
10/30/2022 9:30:00 AM 9.55 49.19 0.525 7.97 3.89 10.72
10/30/2022 9:45:00 AM 9.57 49.226 0.555 7.93 4.05 10.74
10/30/2022 10:00:00 AM 9.58 49.244 0.556 7.95 4.42 10.78
10/30/2022 10:15:00 AM 9.59 49.262 0.534 7.91 4.04 10.78
10/30/2022 10:30:00 AM 9.6 49.28 0.535 7.97 4.18 10.79
10/30/2022 10:45:00 AM 9.62 49.316 0.623 7.93 4.24 10.8
10/30/2022 11:00:00 AM 9.65 49.37 0.527 7.95 3.91 10.81
10/30/2022 11:15:00 AM 9.65 49.37 0.536 7.97 4.07 10.81
10/30/2022 11:30:00 AM 9.67 49.406 0.528 7.95 4.11 10.81
10/30/2022 11:45:00 AM 9.69 49.442 0.558 7.92 4.57 10.82
10/30/2022 12:00:00 PM 9.69 49.442 0.528 7.93 4.21 10.82
10/30/2022 12:15:00 PM 9.7 49.46 0.558 7.95 4.22 10.82
10/30/2022 12:30:00 PM 9.69 49.442 0.528 7.94 4.15 10.8
10/30/2022 12:45:00 PM 9.71 49.478 0.557 7.89 4.22 10.8
10/30/2022 1:00:00 PM 9.74 49.532 0.528 7.94 4.19 10.8
10/30/2022 1:15:00 PM 9.74 49.532 0.623 7.9 4.22 10.8
10/30/2022 1:30:00 PM 9.75 49.55 0.527 7.95 4.52 10.82
10/30/2022 1:45:00 PM 9.77 49.586 0.534 7.92 4.55 10.8
10/30/2022 2:00:00 PM 9.79 49.622 0.535 7.95 3.7 10.82
10/30/2022 2:15:00 PM 9.82 49.676 0.556 7.9 3.62 10.84
10/30/2022 2:30:00 PM 9.86 49.748 0.534 7.96 3.9 10.83
10/30/2022 2:45:00 PM 9.89 49.802 0.534 7.96 3.48 10.8
10/30/2022 3:00:00 PM 9.93 49.874 0.534 7.95 3.54 10.71
10/30/2022 3:15:00 PM 9.93 49.874 0.534 7.93 3.58 10.74
10/30/2022 3:30:00 PM 9.92 49.856 0.526 7.96 3.65 10.72
10/30/2022 3:45:00 PM 9.89 49.802 0.621 7.92 3.38 10.7
10/30/2022 4:00:00 PM 9.87 49.766 0.555 7.98 3.75 10.69
10/30/2022 4:15:00 PM 9.85 49.73 0.533 7.99 3.33 10.7
10/30/2022 4:30:00 PM 9.83 49.694 0.533 7.97 3.24 10.69
10/30/2022 4:45:00 PM 9.81 49.658 0.533 7.97 3.32 10.66
10/30/2022 5:00:00 PM 9.8 49.64 0.555 7.97 3.3 10.68
10/30/2022 5:15:00 PM 9.78 49.604 0.533 7.96 3.17 10.7
10/30/2022 5:30:00 PM 9.77 49.586 0.532 7.94 705.66 10.69
10/30/2022 5:45:00 PM 9.75 49.55 0.533 7.98 4.18 10.67
10/30/2022 6:00:00 PM 9.74 49.532 0.555 7.92 4.91 10.65
10/30/2022 6:15:00 PM 9.73 49.514 0.533 7.94 4.02 10.66
10/30/2022 6:30:00 PM 9.72 49.496 0.554 7.94 3.91 10.66
10/30/2022 6:45:00 PM 9.73 49.514 0.522 7.94 4.05 10.66
10/30/2022 7:00:00 PM 9.74 49.532 0.555 7.95 7.64 10.67
10/30/2022 7:15:00 PM 9.74 49.532 0.526 7.95 4.2 10.65
10/30/2022 7:30:00 PM 9.74 49.532 0.526 7.95 4.18 10.67
10/30/2022 7:45:00 PM 9.73 49.514 0.526 7.94 4.75 10.68
10/30/2022 8:00:00 PM 9.73 49.514 0.534 7.95 3.73 10.69
10/30/2022 8:15:00 PM 9.72 49.496 0.555 7.99 6.92 10.67
10/30/2022 8:30:00 PM 9.71 49.478 0.554 7.93 3.7 10.67
10/30/2022 8:45:00 PM 9.71 49.478 0.534 7.94 6.03 10.68
10/30/2022 9:00:00 PM 9.7 49.46 0.534 7.94 3.74 10.69
10/30/2022 9:15:00 PM 9.69 49.442 0.534 7.93 4.03 10.69
10/30/2022 9:30:00 PM 9.69 49.442 0.535 7.92 4.29 10.69
10/30/2022 9:45:00 PM 9.68 49.424 0.521 7.93 3.49 10.7
10/30/2022 10:00:00 PM 9.67 49.406 0.535 7.95 8.81 10.71
10/30/2022 10:15:00 PM 9.67 49.406 0.535 7.94 3.74 10.66
10/30/2022 10:30:00 PM 9.67 49.406 0.557 7.95 3.4 10.68
10/30/2022 10:45:00 PM 9.69 49.442 0.528 7.97 3.44 10.68
10/30/2022 11:00:00 PM 9.7 49.46 0.535 7.98 3.56 10.65
10/30/2022 11:15:00 PM 9.71 49.478 0.535 7.93 4.04 10.68
10/30/2022 11:30:00 PM 9.73 49.514 0.557 7.93 3.41 10.69
10/30/2022 11:45:00 PM 9.75 49.55 0.558 7.96 3.57 10.71
10/31/2022 12:00:00 AM 9.77 49.586 0.535 7.94 3.19 10.65
10/31/2022 12:15:00 AM 9.79 49.622 0.535 7.96 4.13 10.71
10/31/2022 12:30:00 AM 9.81 49.658 0.535 7.96 3.54 10.7
10/31/2022 12:45:00 AM 9.83 49.694 0.527 7.97 3.75 10.7
10/31/2022 1:00:00 AM 9.86 49.748 0.535 7.97 3.59 10.72
10/31/2022 1:15:00 AM 9.89 49.802 0.534 7.98 3.67 10.71
10/31/2022 1:30:00 AM 9.92 49.856 0.526 8.01 3.51 10.72
10/31/2022 1:45:00 AM 9.94 49.892 0.526 7.98 3.54 10.73
10/31/2022 2:00:00 AM 9.97 49.946 0.533 7.98 3.37 10.71
10/31/2022 2:15:00 AM 10 50 0.533 7.99 3.6 10.73
10/31/2022 2:30:00 AM 10.03 50.054 0.533 7.97 3.43 10.69
10/31/2022 2:45:00 AM 10.06 50.108 0.533 7.99 3.5 10.7
10/31/2022 3:00:00 AM 10.08 50.144 0.519 7.99 3.45 10.67
10/31/2022 3:15:00 AM 10.11 50.198 0.532 7.98 4 10.67
10/31/2022 3:30:00 AM 10.13 50.234 0.553 7.97 3.85 10.67
10/31/2022 3:45:00 AM 10.15 50.27 0.553 7.95 3.69 10.65
10/31/2022 4:00:00 AM 10.17 50.306 0.553 7.96 4.25 10.63
10/31/2022 4:15:00 AM 10.19 50.342 0.53 7.95 3.76 10.62
10/31/2022 4:30:00 AM 10.2 50.36 0.531 7.98 4.02 10.61
10/31/2022 4:45:00 AM 10.22 50.396 0.55 7.95 3.8 10.6
10/31/2022 5:00:00 AM 10.22 50.396 0.616 7.98 3.88 10.58
10/31/2022 5:15:00 AM 10.24 50.432 0.524 7.98 4 10.57
10/31/2022 5:30:00 AM 10.25 50.45 0.531 7.97 4.26 10.56
10/31/2022 5:45:00 AM 10.25 50.45 0.532 7.99 4.37 10.55
10/31/2022 6:00:00 AM 10.24 50.432 0.532 7.97 4.77 10.53
10/31/2022 6:15:00 AM 10.23 50.414 0.62 7.98 5.58 10.51
10/31/2022 6:30:00 AM 10.22 50.396 0.555 7.98 4.28 10.5
10/31/2022 6:45:00 AM 10.22 50.396 0.534 7.98 4.32 10.49
10/31/2022 7:00:00 AM 10.21 50.378 0.557 7.98 4.46 10.48
10/31/2022 7:15:00 AM 10.21 50.378 0.535 7.97 4.29 10.46
10/31/2022 7:30:00 AM 10.21 50.378 0.528 7.96 3.88 10.44
10/31/2022 7:45:00 AM 10.22 50.396 0.536 7.95 3.97 10.45
10/31/2022 8:00:00 AM 10.23 50.414 0.53 7.99 3.93 10.44
10/31/2022 8:15:00 AM 10.23 50.414 0.538 7.95 4.27 10.46
10/31/2022 8:30:00 AM 10.24 50.432 0.539 7.97 3.92 10.45
10/31/2022 8:45:00 AM 10.24 50.432 0.54 7.96 3.5 10.45
10/31/2022 9:00:00 AM 10.25 50.45 0.527 7.96 3.49 10.45
10/31/2022 9:15:00 AM 10.26 50.468 0.541 7.98 3.73 10.5
10/31/2022 9:30:00 AM 10.27 50.486 0.541 7.95 3.74 10.49
10/31/2022 9:45:00 AM 10.29 50.522 0.534 7.96 3.76 10.5
10/31/2022 10:00:00 AM 10.31 50.558 0.543 7.97 3.46 10.48
10/31/2022 10:15:00 AM 10.33 50.594 0.53 7.97 3.52 10.5
10/31/2022 10:30:00 AM 10.36 50.648 0.544 7.94 3.95 10.53
10/31/2022 10:45:00 AM 10.39 50.702 0.537 7.94 4.55 10.55
10/31/2022 11:00:00 AM 10.45 50.81 0.545 7.95 3.75 10.6
10/31/2022 11:15:00 AM 10.54 50.972 0.545 8.01 3.73 10.63
10/31/2022 11:30:00 AM 10.58 51.044 0.545 7.94 3.65 10.59
10/31/2022 11:45:00 AM 10.57 51.026 0.539 7.96 3.61 10.56
10/31/2022 12:00:00 PM 10.64 51.152 0.547 7.97 3.5 10.59
10/31/2022 12:15:00 PM 10.73 51.314 0.539 7.97 3.59 10.58
10/31/2022 12:30:00 PM 10.74 51.332 0.547 7.96 3.4 10.54
10/31/2022 12:45:00 PM 10.7 51.26 0.54 7.96 3.49 10.46
10/31/2022 1:00:00 PM 10.66 51.188 0.548 7.94 3.47 10.42
10/31/2022 1:15:00 PM 10.65 51.17 0.537 7.98 3.43 10.42
10/31/2022 1:30:00 PM 10.66 51.188 0.548 7.95 3.61 10.4
10/31/2022 1:45:00 PM 10.71 51.278 0.54 8 3.53 10.51
10/31/2022 2:00:00 PM 10.75 51.35 0.534 7.96 3.38 10.51
10/31/2022 2:15:00 PM 10.79 51.422 0.547 7.98 3.3 10.55
10/31/2022 2:30:00 PM 10.81 51.458 0.547 7.96 3.19 10.5
10/31/2022 2:45:00 PM 10.83 51.494 0.539 7.99 3.13 10.45
10/31/2022 3:00:00 PM 10.82 51.476 0.547 7.96 3.48 10.41
10/31/2022 3:15:00 PM 10.81 51.458 0.539 7.97 3.52 10.39
10/31/2022 3:30:00 PM 10.81 51.458 0.547 7.95 3.03 10.34
10/31/2022 3:45:00 PM 10.81 51.458 0.539 7.97 3.06 10.34
10/31/2022 4:00:00 PM 10.81 51.458 0.546 7.94 3.15 10.31
10/31/2022 4:15:00 PM 10.81 51.458 0.532 7.95 3.04 10.3
10/31/2022 4:30:00 PM 10.81 51.458 0.532 7.92 3.04 10.28
10/31/2022 4:45:00 PM 10.81 51.458 0.545 7.94 3.06 10.28
10/31/2022 5:00:00 PM 10.81 51.458 0.544 7.94 3.81 10.26
10/31/2022 5:15:00 PM 10.8 51.44 0.544 7.97 3.96 10.25
10/31/2022 5:30:00 PM 10.78 51.404 0.544 7.93 3.65 10.24
10/31/2022 5:45:00 PM 10.78 51.404 0.537 7.92 2.98 10.23
10/31/2022 6:00:00 PM 10.77 51.386 0.536 7.94 3.71 10.23
10/31/2022 6:15:00 PM 10.77 51.386 0.544 7.95 3.16 10.23
10/31/2022 6:30:00 PM 10.77 51.386 0.565 7.94 3.09 10.23
10/31/2022 6:45:00 PM 10.77 51.386 0.536 7.95 3.2 10.22
10/31/2022 7:00:00 PM 10.76 51.368 0.543 7.93 3.24 10.23
10/31/2022 7:15:00 PM 10.76 51.368 0.533 7.92 3.16 10.22
10/31/2022 7:30:00 PM 10.76 51.368 0.542 7.94 3.1 10.21
10/31/2022 7:45:00 PM 10.76 51.368 0.532 7.98 3.16 10.2
10/31/2022 8:00:00 PM 10.76 51.368 0.529 7.96 3.09 10.21
10/31/2022 8:15:00 PM 10.77 51.386 0.535 7.96 3.4 10.19
10/31/2022 8:30:00 PM 10.77 51.386 0.562 7.94 3.17 10.21
10/31/2022 8:45:00 PM 10.78 51.404 0.535 7.96 3.53 10.19
10/31/2022 9:00:00 PM 10.79 51.422 0.563 7.93 3.45 10.2
10/31/2022 9:15:00 PM 10.8 51.44 0.535 7.95 3.13 10.19
10/31/2022 9:30:00 PM 10.81 51.458 0.542 7.9 3.23 10.19
10/31/2022 9:45:00 PM 10.83 51.494 0.532 7.9 3.25 10.18
10/31/2022 10:00:00 PM 10.84 51.512 0.535 7.93 4.37 10.17
10/31/2022 10:15:00 PM 10.86 51.548 0.536 7.96 2.99 10.14
10/31/2022 10:30:00 PM 10.89 51.602 0.542 7.95 3.16 10.18
10/31/2022 10:45:00 PM 10.92 51.656 0.535 7.96 3.22 10.14
10/31/2022 11:00:00 PM 10.96 51.728 0.542 7.96 3.3 10.05
10/31/2022 11:15:00 PM 10.99 51.782 0.535 7.91 3.1 10.06
10/31/2022 11:30:00 PM 11.02 51.836 0.542 7.94 3.18 9.89
10/31/2022 11:45:00 PM 11.05 51.89 0.535 7.94 2.92 9.97
11/1/2022 12:00:00 AM 11.09 51.962 0.534 7.93 3.09 10.02
11/1/2022 12:15:00 AM 11.14 52.052 0.528 7.96 3.12 10.04
11/1/2022 12:30:00 AM 11.2 52.16 0.528 7.99 3.1 10.06
11/1/2022 12:45:00 AM 11.24 52.232 0.53 7.98 3.36 10.04
11/1/2022 1:00:00 AM 11.28 52.304 0.539 8 3.25 10.1
11/1/2022 1:15:00 AM 11.32 52.376 0.539 8.02 3.01 10.11
11/1/2022 1:30:00 AM 11.36 52.448 0.531 8.04 3.04 10.07
11/1/2022 1:45:00 AM 11.4 52.52 0.539 8.02 3.44 10.14
11/1/2022 2:00:00 AM 11.43 52.574 0.526 8.01 2.78 9.84
11/1/2022 2:15:00 AM 11.47 52.646 0.559 8.01 3.19 10.14
11/1/2022 2:30:00 AM 11.51 52.718 0.559 8.01 3.12 9.98
11/1/2022 2:45:00 AM 11.55 52.79 0.556 7.93 4.27 9.9
11/1/2022 3:00:00 AM 11.58 52.844 0.529 7.94 3.12 10.07
11/1/2022 3:15:00 AM 11.61 52.898 0.528 7.97 3.49 9.94
11/1/2022 3:30:00 AM 11.64 52.952 0.525 7.91 3.7 9.89
11/1/2022 3:45:00 AM 11.67 53.006 0.527 7.94 3.26 10.04
11/1/2022 4:00:00 AM 11.7 53.06 0.524 7.94 3.23 10.06
11/1/2022 4:15:00 AM 11.72 53.096 0.526 7.99 3.44 9.84
11/1/2022 4:30:00 AM 11.74 53.132 0.526 7.98 3.34 10.01
11/1/2022 4:45:00 AM 11.76 53.168 0.525 7.99 3.53 10.02
11/1/2022 5:00:00 AM 11.78 53.204 0.524 8 3.4 10.01
11/1/2022 5:15:00 AM 11.8 53.24 0.524 8 3.28 10.01
11/1/2022 5:30:00 AM 11.82 53.276 0.524 7.97 4.01 9.91
11/1/2022 5:45:00 AM 11.83 53.294 0.531 7.97 3.17 9.94
11/1/2022 6:00:00 AM 11.84 53.312 0.53 7.97 3.44 9.71
11/1/2022 6:15:00 AM 11.86 53.348 0.53 7.97 3.91 9.8
11/1/2022 6:30:00 AM 11.88 53.384 0.552 7.94 3.82 9.83
11/1/2022 6:45:00 AM 11.89 53.402 0.552 7.95 3.21 9.8
11/1/2022 7:00:00 AM 11.91 53.438 0.531 7.92 3.68 9.45
11/1/2022 7:15:00 AM 11.92 53.456 0.532 7.92 3.5 9.77
11/1/2022 7:30:00 AM 11.93 53.474 0.524 7.94 3.34 9.82
11/1/2022 7:45:00 AM 11.95 53.51 0.532 7.89 3.61 9.83
11/1/2022 8:00:00 AM 11.96 53.528 0.532 7.93 3.96 9.8
11/1/2022 8:15:00 AM 11.98 53.564 0.533 7.91 5.01 9.85
11/1/2022 8:30:00 AM 12.01 53.618 0.534 7.9 10.55 9.84
11/1/2022 8:45:00 AM 12.04 53.672 0.528 7.92 4.45 9.87
11/1/2022 9:00:00 AM 12.07 53.726 0.523 7.89 4.61 9.87
11/1/2022 9:15:00 AM 12.1 53.78 0.529 7.88 6.68 9.85
11/1/2022 9:30:00 AM 12.13 53.834 0.538 7.88 5.11 9.85
11/1/2022 9:45:00 AM 12.17 53.906 0.539 7.87 4.7 9.85
11/1/2022 10:00:00 AM 12.22 53.996 0.527 7.87 4.31 9.84
11/1/2022 10:15:00 AM 12.26 54.068 0.541 7.88 5.16 9.79
11/1/2022 10:30:00 AM 12.31 54.158 0.54 7.88 4.75 9.82
11/1/2022 10:45:00 AM 12.34 54.212 0.542 7.85 4.2 9.8
11/1/2022 11:00:00 AM -99999.99 -179968 -99999.99 -99999.99 -99999.99 -99999.99
11/1/2022 11:15:00 AM -99999.99 -179968 -99999.99 -99999.99 -99999.99 -99999.99
11/1/2022 11:30:00 AM -99999.99 -179968 -99999.99 -99999.99 -99999.99 -99999.99
11/1/2022 11:45:00 AM -99999.99 -179968 -99999.99 -99999.99 -99999.99 -99999.99
11/1/2022 12:00:00 PM -99999.99 -179968 -99999.99 -99999.99 -99999.99 -99999.99
11/1/2022 12:15:00 PM 12.66 54.788 0.536 7.57 5.21 9.92
11/1/2022 12:30:00 PM 12.7 54.86 0.527 7.62 5.78 9.92
11/1/2022 12:45:00 PM 12.73 54.914 0.525 7.61 5.91 9.92
11/1/2022 1:00:00 PM 12.75 54.95 0.522 7.63 5.09 9.91
11/1/2022 1:15:00 PM 12.76 54.968 0.522 7.65 5.07 9.92
11/1/2022 1:30:00 PM 12.8 55.04 0.519 7.7 4.87 9.95
11/1/2022 1:45:00 PM 12.82 55.076 0.514 7.7 4.8 9.92
11/1/2022 2:00:00 PM 12.88 55.184 0.514 7.71 3.86 9.97
11/1/2022 2:15:00 PM 12.97 55.346 0.512 7.75 4.51 9.97
11/1/2022 2:30:00 PM 13 55.4 0.511 7.78 4.27 9.96
11/1/2022 2:45:00 PM 13.06 55.508 0.509 7.77 4.28 10.01
11/1/2022 3:00:00 PM 13.15 55.67 0.502 7.81 3.89 10.03
11/1/2022 3:15:00 PM 13.21 55.778 0.505 7.85 3.76 10.03
11/1/2022 3:30:00 PM 13.25 55.85 0.503 7.84 4.03 10.04
11/1/2022 3:45:00 PM 13.31 55.958 0.499 7.85 4.02 10.04
11/1/2022 4:00:00 PM 13.38 56.084 0.499 7.83 3.84 10.06
11/1/2022 4:15:00 PM 13.45 56.21 0.497 7.83 3.58 10.04
11/1/2022 4:30:00 PM 13.5 56.3 0.5 7.86 3.87 10.03
11/1/2022 4:45:00 PM 13.55 56.39 0.498 7.87 3.84 10.01
11/1/2022 5:00:00 PM 13.6 56.48 0.498 7.83 4.09 9.96
11/1/2022 5:15:00 PM 13.64 56.552 0.501 7.85 4.05 9.95
11/1/2022 5:30:00 PM 13.68 56.624 0.5 7.83 4.45 9.92
11/1/2022 5:45:00 PM 13.72 56.696 0.499 7.83 4.41 9.9
11/1/2022 6:00:00 PM 13.75 56.75 0.495 7.86 4.6 9.87
11/1/2022 6:15:00 PM 13.78 56.804 0.491 7.83 4.76 9.84
11/1/2022 6:30:00 PM 13.81 56.858 0.485 7.81 4.6 9.82
11/1/2022 6:45:00 PM 13.84 56.912 0.486 7.78 5.07 9.8
11/1/2022 7:00:00 PM 13.86 56.948 0.479 7.81 5.25 9.78
11/1/2022 7:15:00 PM 13.88 56.984 0.46 7.81 4.95 9.76
11/1/2022 7:30:00 PM 13.89 57.002 0.483 7.78 5.21 9.75
11/1/2022 7:45:00 PM 13.91 57.038 0.456 7.8 5.43 9.74
11/1/2022 8:00:00 PM 13.92 57.056 0.449 7.79 5.22 9.73
11/1/2022 8:15:00 PM 13.93 57.074 0.459 7.78 5.39 9.71
11/1/2022 8:30:00 PM 13.94 57.092 0.422 7.79 5.6 9.71
11/1/2022 8:45:00 PM 13.94 57.092 0.502 7.78 6.1 9.69
11/1/2022 9:00:00 PM 13.94 57.092 0.411 7.75 5.76 9.69
11/1/2022 9:15:00 PM 13.94 57.092 0.49 7.75 5.93 9.68
11/1/2022 9:30:00 PM 13.93 57.074 0.375 7.73 5.88 9.67
11/1/2022 9:45:00 PM 13.92 57.056 0.375 7.77 6.2 9.67
11/1/2022 10:00:00 PM 13.91 57.038 0.378 7.73 6.09 9.67
11/1/2022 10:15:00 PM 13.89 57.002 0.377 7.73 6.6 9.67
11/1/2022 10:30:00 PM 13.86 56.948 0.375 7.74 6.35 9.66
11/1/2022 10:45:00 PM 13.83 56.894 0.376 7.68 6.33 9.67
11/1/2022 11:00:00 PM 13.8 56.84 0.377 7.68 6.45 9.67
11/1/2022 11:15:00 PM 13.76 56.768 0.376 7.67 6.72 9.67
11/1/2022 11:30:00 PM 13.72 56.696 0.375 7.67 6.46 9.68
11/1/2022 11:45:00 PM 13.68 56.624 0.376 7.65 6.86 9.68
11/2/2022 12:00:00 AM 13.64 56.552 0.374 7.67 7.05 9.68
11/2/2022 12:15:00 AM 13.6 56.48 0.376 7.68 7.03 9.69
11/2/2022 12:30:00 AM 13.56 56.408 0.375 7.64 7.31 9.69
11/2/2022 12:45:00 AM 13.52 56.336 0.374 7.67 7.41 9.69
11/2/2022 1:00:00 AM 13.48 56.264 0.372 7.65 7.62 9.68
11/2/2022 1:15:00 AM 13.44 56.192 0.368 7.64 8.05 9.68
11/2/2022 1:30:00 AM 13.41 56.138 0.369 7.63 7.72 9.69
11/2/2022 1:45:00 AM 13.37 56.066 0.372 7.65 8.18 9.69
11/2/2022 2:00:00 AM 13.34 56.012 0.367 7.64 8.52 9.68
11/2/2022 2:15:00 AM 13.3 55.94 0.366 7.65 8.35 9.68
11/2/2022 2:30:00 AM 13.27 55.886 0.37 7.65 8.54 9.68
11/2/2022 2:45:00 AM 13.24 55.832 0.366 7.66 8.79 9.68
11/2/2022 3:00:00 AM 13.2 55.76 0.365 7.63 8.74 9.68
11/2/2022 3:15:00 AM 13.17 55.706 0.366 7.63 8.86 9.68
11/2/2022 3:30:00 AM 13.13 55.634 0.367 7.62 9.23 9.68
11/2/2022 3:45:00 AM 13.11 55.598 0.365 7.63 9.16 9.67
11/2/2022 4:00:00 AM 13.07 55.526 0.368 7.6 9.49 9.67
11/2/2022 4:15:00 AM 13.04 55.472 0.366 7.62 9.43 9.67
11/2/2022 4:30:00 AM 13.01 55.418 0.368 7.62 9.18 9.67
11/2/2022 4:45:00 AM 12.98 55.364 0.372 7.64 9.06 9.67
11/2/2022 5:00:00 AM 12.95 55.31 0.372 7.63 9.5 9.67
11/2/2022 5:15:00 AM 12.92 55.256 0.369 7.61 9.63 9.67
11/2/2022 5:30:00 AM 12.89 55.202 0.367 7.6 9.85 9.67
11/2/2022 5:45:00 AM 12.86 55.148 0.37 7.62 9.43 9.67
11/2/2022 6:00:00 AM 12.84 55.112 0.371 7.61 9.53 9.66
11/2/2022 6:15:00 AM 12.81 55.058 0.372 7.62 9.37 9.66
11/2/2022 6:30:00 AM 12.78 55.004 0.376 7.62 10 9.66
11/2/2022 6:45:00 AM 12.76 54.968 0.373 7.62 9.84 9.66
11/2/2022 7:00:00 AM 12.73 54.914 0.374 7.62 9.8 9.66
11/2/2022 7:15:00 AM 12.71 54.878 0.378 7.61 10.33 9.65
11/2/2022 7:30:00 AM 12.68 54.824 0.379 7.62 10.46 9.66
11/2/2022 7:45:00 AM 12.66 54.788 0.377 7.59 10.42 9.66
11/2/2022 8:00:00 AM 12.64 54.752 0.38 7.62 10.63 9.67
11/2/2022 8:15:00 AM 12.62 54.716 0.375 7.59 10.51 9.68
11/2/2022 8:30:00 AM 12.61 54.698 0.382 7.6 10.43 9.68
11/2/2022 8:45:00 AM 12.6 54.68 0.379 7.6 9.85 9.71
11/2/2022 9:00:00 AM 12.6 54.68 0.38 7.63 9.78 9.73
11/2/2022 9:15:00 AM 12.61 54.698 0.38 7.64 10.22 9.75
11/2/2022 9:30:00 AM 12.62 54.716 0.38 7.63 9.91 9.77
11/2/2022 9:45:00 AM 12.63 54.734 0.385 7.65 9.81 9.79
11/2/2022 10:00:00 AM 12.64 54.752 0.382 7.61 12.06 9.79
11/2/2022 10:15:00 AM 12.66 54.788 0.383 7.61 9.69 9.82
11/2/2022 10:30:00 AM 12.68 54.824 0.383 7.62 9.7 9.84
11/2/2022 10:45:00 AM 12.7 54.86 0.384 7.63 9.65 9.84
11/2/2022 11:00:00 AM 12.73 54.914 0.385 7.6 10.04 9.85
11/2/2022 11:15:00 AM 12.75 54.95 0.383 7.63 10.23 9.85
11/2/2022 11:30:00 AM 12.77 54.986 0.379 7.62 9.65 9.85
11/2/2022 11:45:00 AM 12.8 55.04 0.388 7.64 9.03 9.85
11/2/2022 12:00:00 PM 12.8 55.04 0.384 7.66 9.73 9.85
11/2/2022 12:15:00 PM 12.84 55.112 0.384 7.65 9.53 9.84
11/2/2022 12:30:00 PM 12.86 55.148 0.385 7.62 9.35 9.83
11/2/2022 12:45:00 PM 12.89 55.202 0.384 7.63 10.58 9.82
11/2/2022 1:00:00 PM 12.91 55.238 0.427 7.65 8.88 9.81
11/2/2022 1:15:00 PM 12.94 55.292 0.385 7.64 9.25 9.81
11/2/2022 1:30:00 PM 12.95 55.31 0.384 7.63 9.03 9.79
11/2/2022 1:45:00 PM 12.99 55.382 0.386 7.65 9.15 9.78
11/2/2022 2:00:00 PM 13 55.4 0.382 7.65 8.75 9.78
11/2/2022 2:15:00 PM 13.04 55.472 0.383 7.64 8.71 9.76
11/2/2022 2:30:00 PM 13.09 55.562 0.385 7.66 8.75 9.74
11/2/2022 2:45:00 PM 13.14 55.652 0.385 7.65 8.75 9.72
11/2/2022 3:00:00 PM 13.15 55.67 0.385 7.63 8.43 9.7
11/2/2022 3:15:00 PM 13.13 55.634 0.382 7.64 8.45 9.66
11/2/2022 3:30:00 PM 13.15 55.67 0.383 7.64 8.47 9.64
11/2/2022 3:45:00 PM 13.18 55.724 0.383 7.62 8.62 9.65
11/2/2022 4:00:00 PM 13.24 55.832 0.403 7.65 8.71 9.67
11/2/2022 4:15:00 PM 13.3 55.94 0.38 7.65 8.33 9.67
11/2/2022 4:30:00 PM 13.35 56.03 0.381 7.65 8.19 9.64
11/2/2022 4:45:00 PM 13.39 56.102 0.38 7.65 8.15 9.62
11/2/2022 5:00:00 PM 13.41 56.138 0.377 7.65 7.85 9.6
11/2/2022 5:15:00 PM 13.44 56.192 0.376 7.62 7.75 9.6
11/2/2022 5:30:00 PM 13.45 56.21 0.402 7.67 7.75 9.6
11/2/2022 5:45:00 PM 13.45 56.21 0.375 7.63 7.52 9.59
11/2/2022 6:00:00 PM 13.44 56.192 0.377 7.65 7.7 9.58
11/2/2022 6:15:00 PM 13.43 56.174 0.382 7.63 7.37 9.59
11/2/2022 6:30:00 PM 13.41 56.138 0.379 7.63 7.72 9.59
11/2/2022 6:45:00 PM 13.39 56.102 0.379 7.65 7.59 9.59
11/2/2022 7:00:00 PM 13.38 56.084 0.377 7.65 7.5 9.6
11/2/2022 7:15:00 PM 13.36 56.048 0.378 7.64 7.64 9.61
11/2/2022 7:30:00 PM 13.35 56.03 0.379 7.63 6.97 9.61
11/2/2022 7:45:00 PM 13.34 56.012 0.381 7.66 6.94 9.63
11/2/2022 8:00:00 PM 13.33 55.994 0.381 7.63 7.14 9.62
11/2/2022 8:15:00 PM 13.33 55.994 0.379 7.65 6.96 9.63
11/2/2022 8:30:00 PM 13.34 56.012 0.376 7.65 6.89 9.63
11/2/2022 8:45:00 PM 13.34 56.012 0.378 7.65 7.01 9.64
11/2/2022 9:00:00 PM 13.36 56.048 0.376 7.67 6.56 9.64
11/2/2022 9:15:00 PM 13.37 56.066 0.377 7.68 6.49 9.65
11/2/2022 9:30:00 PM 13.39 56.102 0.376 7.66 6.38 9.66
11/2/2022 9:45:00 PM 13.41 56.138 0.378 7.65 6.79 9.67
11/2/2022 10:00:00 PM 13.43 56.174 0.377 7.66 6.44 9.68
11/2/2022 10:15:00 PM 13.44 56.192 0.379 7.67 6.44 9.67
11/2/2022 10:30:00 PM 13.46 56.228 0.382 7.69 6.5 9.67
11/2/2022 10:45:00 PM 13.46 56.228 0.407 7.69 6.37 9.67
11/2/2022 11:00:00 PM 13.47 56.246 0.376 7.68 6.11 9.67
11/2/2022 11:15:00 PM 13.47 56.246 0.378 7.69 6.38 9.68
11/2/2022 11:30:00 PM 13.47 56.246 0.378 7.71 5.82 9.67
11/2/2022 11:45:00 PM 13.46 56.228 0.376 7.71 5.79 9.67
11/3/2022 12:00:00 AM 13.46 56.228 0.376 7.68 5.9 9.67
11/3/2022 12:15:00 AM 13.45 56.21 0.375 7.7 5.51 9.66
11/3/2022 12:30:00 AM 13.44 56.192 0.379 7.69 5.78 9.67
11/3/2022 12:45:00 AM 13.42 56.156 0.381 7.72 5.61 9.67
11/3/2022 1:00:00 AM 13.4 56.12 0.378 7.72 5.7 9.66
11/3/2022 1:15:00 AM 13.39 56.102 0.376 7.67 5.38 9.66
11/3/2022 1:30:00 AM 13.36 56.048 0.375 7.7 5.6 9.65
11/3/2022 1:45:00 AM 13.34 56.012 0.383 7.72 5.71 9.65
11/3/2022 2:00:00 AM 13.31 55.958 0.38 7.71 5.4 9.65
11/3/2022 2:15:00 AM 13.28 55.904 0.38 7.69 5.28 9.66
11/3/2022 2:30:00 AM 13.26 55.868 0.378 7.72 5.14 9.65
11/3/2022 2:45:00 AM 13.23 55.814 0.383 7.72 5.13 9.64
11/3/2022 3:00:00 AM 13.2 55.76 0.376 7.72 5.03 9.64
11/3/2022 3:15:00 AM 13.16 55.688 0.381 7.69 5.04 9.64
11/3/2022 3:30:00 AM 13.13 55.634 0.411 7.69 5.07 9.63
11/3/2022 3:45:00 AM 13.09 55.562 0.378 7.69 4.93 9.63
11/3/2022 4:00:00 AM 13.06 55.508 0.386 7.69 5.14 9.63
11/3/2022 4:15:00 AM 13.02 55.436 0.379 7.7 5.28 9.63
11/3/2022 4:30:00 AM 12.98 55.364 0.412 7.7 4.89 9.62
11/3/2022 4:45:00 AM 12.94 55.292 0.384 7.7 4.66 9.62
11/3/2022 5:00:00 AM 12.9 55.22 0.386 7.69 4.96 9.61
11/3/2022 5:15:00 AM 12.85 55.13 0.382 7.68 4.63 9.62
11/3/2022 5:30:00 AM 12.81 55.058 0.383 7.69 4.97 9.62
11/3/2022 5:45:00 AM 12.76 54.968 0.382 7.68 4.46 9.62
11/3/2022 6:00:00 AM 12.72 54.896 0.383 7.69 4.61 9.62
11/3/2022 6:15:00 AM 12.67 54.806 0.388 7.64 4.67 9.63
11/3/2022 6:30:00 AM 12.62 54.716 0.386 7.68 4.97 9.63
11/3/2022 6:45:00 AM 12.58 54.644 0.387 7.66 4.67 9.63
11/3/2022 7:00:00 AM 12.53 54.554 0.385 7.67 4.81 9.63
11/3/2022 7:15:00 AM 12.48 54.464 0.39 7.62 4.37 9.64
11/3/2022 7:30:00 AM 12.43 54.374 0.389 7.65 4.64 9.65
11/3/2022 7:45:00 AM 12.38 54.284 0.389 7.7 4.47 9.66
11/3/2022 8:00:00 AM 12.34 54.212 0.387 7.67 4.4 9.67
11/3/2022 8:15:00 AM 12.31 54.158 0.393 7.68 4.57 9.68
11/3/2022 8:30:00 AM 12.27 54.086 0.391 7.67 4.52 9.71
11/3/2022 8:45:00 AM 12.24 54.032 0.416 7.71 4.62 9.74
11/3/2022 9:00:00 AM 12.23 54.014 0.389 7.67 4.5 9.78
11/3/2022 9:15:00 AM 12.21 53.978 0.417 7.7 4.38 9.81
11/3/2022 9:30:00 AM 12.2 53.96 0.418 7.69 4.55 9.84
11/3/2022 9:45:00 AM 12.2 53.96 0.392 7.69 5.27 9.87
11/3/2022 10:00:00 AM 12.2 53.96 0.39 7.72 4.51 9.9
11/3/2022 10:15:00 AM 12.21 53.978 0.393 7.71 4.5 9.92
11/3/2022 10:30:00 AM 12.22 53.996 0.417 7.72 4.54 9.94
11/3/2022 10:45:00 AM 12.23 54.014 0.392 7.73 4.48 9.95
11/3/2022 11:00:00 AM 12.23 54.014 0.391 7.72 4.24 9.97
11/3/2022 11:15:00 AM 12.25 54.05 0.394 7.73 4.02 9.98
11/3/2022 11:30:00 AM 12.26 54.068 0.417 7.73 4.12 9.97
11/3/2022 11:45:00 AM 12.28 54.104 0.387 7.74 4.01 9.98
11/3/2022 12:00:00 PM 12.28 54.104 0.387 7.72 3.93 9.99
11/3/2022 12:15:00 PM 12.29 54.122 0.391 7.72 4.07 9.99
11/3/2022 12:30:00 PM 12.3 54.14 0.391 7.71 4.19 9.99
11/3/2022 12:45:00 PM 12.3 54.14 0.393 7.73 4.01 9.99
11/3/2022 1:00:00 PM 12.3 54.14 0.389 7.72 3.72 9.98
11/3/2022 1:15:00 PM 12.31 54.158 0.387 7.71 3.64 9.98
11/3/2022 1:30:00 PM 12.3 54.14 0.39 7.72 4.32 9.97
11/3/2022 1:45:00 PM 12.32 54.176 0.393 7.72 3.95 9.96
11/3/2022 2:00:00 PM 12.31 54.158 0.393 7.72 4.1 9.97
11/3/2022 2:15:00 PM 12.29 54.122 0.389 7.7 4 9.97
11/3/2022 2:30:00 PM 12.28 54.104 0.389 7.72 3.85 9.96
11/3/2022 2:45:00 PM 12.3 54.14 0.393 7.66 3.68 9.95
11/3/2022 3:00:00 PM 12.3 54.14 0.386 7.7 3.39 9.94
11/3/2022 3:15:00 PM 12.29 54.122 0.506 7.69 4.07 9.93
11/3/2022 3:30:00 PM 12.27 54.086 0.386 7.73 3.4 9.91
11/3/2022 3:45:00 PM 12.27 54.086 0.39 7.7 3.35 9.89
11/3/2022 4:00:00 PM 12.28 54.104 0.388 7.68 3.32 9.88
11/3/2022 4:15:00 PM 12.29 54.122 0.39 7.69 3.78 9.87
11/3/2022 4:30:00 PM 12.28 54.104 0.39 7.69 3.23 9.85
11/3/2022 4:45:00 PM 12.27 54.086 0.421 7.7 3.27 9.84
11/3/2022 5:00:00 PM 12.27 54.086 0.39 7.7 3.35 9.85
11/3/2022 5:15:00 PM 12.28 54.104 0.39 7.7 3.12 9.85
11/3/2022 5:30:00 PM 12.29 54.122 0.389 7.71 3.25 9.85
11/3/2022 5:45:00 PM 12.3 54.14 0.386 7.71 3.39 9.84
11/3/2022 6:00:00 PM 12.31 54.158 0.383 7.69 3.35 9.82
11/3/2022 6:15:00 PM 12.32 54.176 0.39 7.7 3.28 9.83
11/3/2022 6:30:00 PM 12.33 54.194 0.425 7.69 3.26 9.82
11/3/2022 6:45:00 PM 12.33 54.194 0.39 7.7 3.04 9.83
11/3/2022 7:00:00 PM 12.34 54.212 0.514 7.7 3.23 9.83
11/3/2022 7:15:00 PM 12.33 54.194 0.425 7.7 3.46 9.84
11/3/2022 7:30:00 PM 12.32 54.176 0.515 7.73 3.36 9.85
11/3/2022 7:45:00 PM 12.29 54.122 0.516 7.7 3.45 9.86
11/3/2022 8:00:00 PM 12.26 54.068 0.385 7.69 3.38 9.87
11/3/2022 8:15:00 PM 12.21 53.978 0.39 7.71 3.77 9.87
11/3/2022 8:30:00 PM 12.17 53.906 0.431 7.7 3.15 9.83
11/3/2022 8:45:00 PM 12.13 53.834 0.521 7.73 3.81 9.85
11/3/2022 9:00:00 PM 12.11 53.798 0.522 7.72 3.29 9.89
11/3/2022 9:15:00 PM 12.09 53.762 0.385 7.72 3.48 9.92
11/3/2022 9:30:00 PM 12.07 53.726 0.391 7.71 3.5 9.94
11/3/2022 9:45:00 PM 12.06 53.708 0.527 7.73 3.39 9.93
11/3/2022 10:00:00 PM 12.06 53.708 0.526 7.7 3.42 9.94
11/3/2022 10:15:00 PM 12.06 53.708 0.527 7.71 3.56 9.95
11/3/2022 10:30:00 PM 12.07 53.726 0.394 7.71 3.21 9.95
11/3/2022 10:45:00 PM 12.09 53.762 0.472 7.72 3.15 9.93
11/3/2022 11:00:00 PM 12.11 53.798 0.474 7.72 3.42 9.96
11/3/2022 11:15:00 PM 12.13 53.834 0.476 7.72 4.2 9.95
11/3/2022 11:30:00 PM 12.16 53.888 0.477 7.74 3.3 9.97
11/3/2022 11:45:00 PM 12.2 53.96 0.48 7.72 3.35 9.97
11/4/2022 12:00:00 AM 12.23 54.014 0.481 7.74 3.77 9.97
11/4/2022 12:15:00 AM 12.26 54.068 0.482 7.75 3.28 9.97
11/4/2022 12:30:00 AM 12.3 54.14 0.545 7.75 3.46 9.98
11/4/2022 12:45:00 AM 12.33 54.194 0.465 7.76 3.19 9.98
11/4/2022 1:00:00 AM 12.35 54.23 0.455 7.77 3.17 9.93
11/4/2022 1:15:00 AM 12.37 54.266 0.544 7.75 3.3 9.93
11/4/2022 1:30:00 AM 12.4 54.32 0.469 7.74 3.19 9.94
11/4/2022 1:45:00 AM 12.42 54.356 0.489 7.73 3.32 9.94
11/4/2022 2:00:00 AM 12.43 54.374 0.472 7.73 3.18 9.92
11/4/2022 2:15:00 AM 12.44 54.392 0.492 7.75 3.39 9.92
11/4/2022 2:30:00 AM 12.44 54.392 0.492 7.74 3.34 9.91
11/4/2022 2:45:00 AM 12.44 54.392 0.474 7.77 3.25 9.88
11/4/2022 3:00:00 AM 12.44 54.392 0.494 7.73 2.94 9.88
11/4/2022 3:15:00 AM 12.43 54.374 0.462 7.75 3.09 9.87
11/4/2022 3:30:00 AM 12.42 54.356 0.494 7.75 3.42 9.86
11/4/2022 3:45:00 AM 12.41 54.338 0.476 7.74 3.34 9.86
11/4/2022 4:00:00 AM 12.39 54.302 0.496 7.76 3.53 9.83
11/4/2022 4:15:00 AM 12.36 54.248 0.477 7.74 3.39 9.85
11/4/2022 4:30:00 AM 12.34 54.212 0.497 7.74 6.63 9.84
11/4/2022 4:45:00 AM 12.32 54.176 0.498 7.76 3.71 9.82
11/4/2022 5:00:00 AM 12.29 54.122 0.498 7.77 3.21 9.82
11/4/2022 5:15:00 AM 12.26 54.068 0.467 7.75 3.46 9.81
11/4/2022 5:30:00 AM 12.23 54.014 0.499 7.75 3.66 9.82
11/4/2022 5:45:00 AM 12.2 53.96 0.48 7.74 3.4 9.82
11/4/2022 6:00:00 AM 12.17 53.906 0.481 7.79 3.74 9.81
11/4/2022 6:15:00 AM 12.14 53.852 0.501 7.76 3.27 9.8
11/4/2022 6:30:00 AM 12.11 53.798 0.483 7.74 3.47 9.8
11/4/2022 6:45:00 AM 12.07 53.726 0.483 7.76 3.15 9.78
11/4/2022 7:00:00 AM 12.04 53.672 0.484 7.75 3.28 9.77
11/4/2022 7:15:00 AM 12.01 53.618 0.504 7.75 3.77 9.78
11/4/2022 7:30:00 AM 11.98 53.564 0.485 7.72 3.35 9.76
11/4/2022 7:45:00 AM 11.95 53.51 0.486 7.74 3.45 9.73
11/4/2022 8:00:00 AM 11.92 53.456 0.487 7.75 3.53 9.74
11/4/2022 8:15:00 AM 11.9 53.42 0.475 7.73 3.51 9.79
11/4/2022 8:30:00 AM 11.89 53.402 0.487 7.71 3.51 9.82
11/4/2022 8:45:00 AM 11.88 53.384 0.488 7.72 5.52 9.84
11/4/2022 9:00:00 AM 11.87 53.366 0.476 7.73 3.54 9.88
11/4/2022 9:15:00 AM 11.88 53.384 0.489 7.75 3.3 9.92
11/4/2022 9:30:00 AM 11.89 53.402 0.508 7.74 3.27 9.95
11/4/2022 9:45:00 AM 11.9 53.42 0.482 7.78 3.28 9.96
11/4/2022 10:00:00 AM 11.9 53.42 0.489 7.76 3.25 9.99
11/4/2022 10:15:00 AM 11.92 53.456 0.489 7.76 3.34 9.99
11/4/2022 10:30:00 AM 11.94 53.492 0.468 7.77 3.09 10.02
11/4/2022 10:45:00 AM 11.97 53.546 0.482 7.77 3.24 10.05
11/4/2022 11:00:00 AM 12.02 53.636 0.508 7.78 3.09 10.07
11/4/2022 11:15:00 AM 12.05 53.69 0.481 7.77 3.21 10.08
11/4/2022 11:30:00 AM 12.08 53.744 0.569 7.76 3.17 10.08
11/4/2022 11:45:00 AM 12.11 53.798 0.482 7.74 3.16 10.07
11/4/2022 12:00:00 PM 12.13 53.834 0.488 7.72 3.03 10.08
11/4/2022 12:15:00 PM 12.18 53.924 0.476 7.75 3.25 10.06
11/4/2022 12:30:00 PM 12.19 53.942 0.488 7.77 2.9 10.08
11/4/2022 12:45:00 PM 12.18 53.924 0.488 7.73 2.94 10.04
11/4/2022 1:00:00 PM 12.22 53.996 0.487 7.77 2.79 10.04
11/4/2022 1:15:00 PM 12.26 54.068 0.487 7.77 2.76 9.97
11/4/2022 1:30:00 PM 12.27 54.086 0.487 7.78 3.06 9.97
11/4/2022 1:45:00 PM 12.3 54.14 0.48 7.74 2.96 10
11/4/2022 2:00:00 PM 12.33 54.194 0.487 7.74 3.12 10.01
11/4/2022 2:15:00 PM 12.39 54.302 0.488 7.72 2.8 9.99
11/4/2022 2:30:00 PM 12.37 54.266 0.506 7.75 2.71 9.99
11/4/2022 2:45:00 PM 12.34 54.212 0.507 7.76 2.8 9.96
11/4/2022 3:00:00 PM 12.27 54.086 0.487 7.75 2.74 9.97
11/4/2022 3:15:00 PM 12.25 54.05 0.479 7.75 2.88 9.96
11/4/2022 3:30:00 PM 12.24 54.032 0.474 7.76 2.85 9.92
11/4/2022 3:45:00 PM 12.29 54.122 0.487 7.74 2.86 9.89
11/4/2022 4:00:00 PM 12.34 54.212 0.486 7.76 2.71 9.86
11/4/2022 4:15:00 PM 12.31 54.158 0.506 7.77 2.63 9.84
11/4/2022 4:30:00 PM 12.29 54.122 0.486 7.76 2.47 9.85
11/4/2022 4:45:00 PM 12.28 54.104 0.566 7.75 2.55 9.79
11/4/2022 5:00:00 PM 12.3 54.14 0.479 7.78 2.37 9.87
11/4/2022 5:15:00 PM 12.3 54.14 0.567 7.76 2.35 9.85
11/4/2022 5:30:00 PM 12.3 54.14 0.479 7.74 2.39 9.83
11/4/2022 5:45:00 PM 12.31 54.158 0.566 7.74 2.39 9.81
11/4/2022 6:00:00 PM 12.3 54.14 0.479 7.74 2.52 9.81
11/4/2022 6:15:00 PM 12.27 54.086 0.471 7.75 2.37 9.82
11/4/2022 6:30:00 PM 12.25 54.05 0.479 7.75 2.55 9.8
11/4/2022 6:45:00 PM 12.22 53.996 0.505 7.76 2.47 9.77
11/4/2022 7:00:00 PM 12.21 53.978 0.479 7.76 2.63 9.78
11/4/2022 7:15:00 PM 12.2 53.96 0.486 7.78 2.57 9.81
11/4/2022 7:30:00 PM 12.2 53.96 0.479 7.75 2.44 9.83
11/4/2022 7:45:00 PM 12.19 53.942 0.486 7.76 2.42 9.82
11/4/2022 8:00:00 PM 12.18 53.924 0.479 7.76 2.46 9.82
11/4/2022 8:15:00 PM 12.16 53.888 0.486 7.79 2.61 9.76
11/4/2022 8:30:00 PM 12.14 53.852 0.506 7.76 2.89 9.79
11/4/2022 8:45:00 PM 12.12 53.816 0.479 7.78 2.62 9.78
11/4/2022 9:00:00 PM 12.1 53.78 0.486 7.78 4.11 9.86
11/4/2022 9:15:00 PM 12.09 53.762 0.479 7.78 2.61 9.89
11/4/2022 9:30:00 PM 12.07 53.726 0.487 7.78 2.54 9.9
11/4/2022 9:45:00 PM 12.07 53.726 0.48 7.79 2.67 9.9
11/4/2022 10:00:00 PM 12.06 53.708 0.488 7.78 2.41 9.78
11/4/2022 10:15:00 PM 12.06 53.708 0.487 7.79 2.75 9.84
11/4/2022 10:30:00 PM 12.07 53.726 0.487 7.8 2.43 9.91
11/4/2022 10:45:00 PM 12.08 53.744 0.487 7.81 2.54 9.88
11/4/2022 11:00:00 PM 12.09 53.762 0.488 7.8 2.73 9.82
11/4/2022 11:15:00 PM 12.11 53.798 0.488 7.8 2.63 9.9
11/4/2022 11:30:00 PM 12.14 53.852 0.488 7.81 2.62 9.84
11/4/2022 11:45:00 PM 12.17 53.906 0.571 7.8 2.62 9.87
11/5/2022 12:00:00 AM 12.2 53.96 0.489 7.82 2.42 9.85
11/5/2022 12:15:00 AM 12.24 54.032 0.483 7.81 2.62 9.85
11/5/2022 12:30:00 AM 12.29 54.122 0.49 7.84 2.25 9.88
11/5/2022 12:45:00 AM 12.34 54.212 0.49 7.83 2.39 9.89
11/5/2022 1:00:00 AM 12.39 54.302 0.484 7.84 2.66 9.91
11/5/2022 1:15:00 AM 12.44 54.392 0.491 7.83 2.29 9.86
11/5/2022 1:30:00 AM 12.49 54.482 0.492 7.83 2.65 9.95
11/5/2022 1:45:00 AM 12.54 54.572 0.492 7.85 2.25 9.9
11/5/2022 2:00:00 AM 12.58 54.644 0.486 7.84 2.46 9.92
11/5/2022 2:15:00 AM 12.63 54.734 0.514 7.85 2.5 9.93
11/5/2022 2:30:00 AM 12.66 54.788 0.494 7.85 2.35 9.89
11/5/2022 2:45:00 AM 12.69 54.842 0.487 7.85 2.45 9.91
11/5/2022 3:00:00 AM 12.72 54.896 0.494 7.83 2.58 9.9
11/5/2022 3:15:00 AM 12.77 54.986 0.489 7.81 2.48 9.86
11/5/2022 3:30:00 AM 12.8 55.04 0.496 7.85 2.48 9.79
11/5/2022 3:45:00 AM 12.83 55.094 0.49 7.84 2.6 9.82
11/5/2022 4:00:00 AM 12.86 55.148 0.498 7.83 2.5 9.71
11/5/2022 4:15:00 AM 12.88 55.184 0.492 7.83 2.48 9.77
11/5/2022 4:30:00 AM 12.91 55.238 0.485 7.85 2.28 9.73
11/5/2022 4:45:00 AM 12.94 55.292 0.5 7.82 2.54 9.75
11/5/2022 5:00:00 AM 12.96 55.328 0.494 7.83 2.38 9.71
11/5/2022 5:15:00 AM 12.98 55.364 0.489 7.83 2.33 9.63
11/5/2022 5:30:00 AM 12.99 55.382 0.503 7.83 2.36 9.67
11/5/2022 5:45:00 AM 13 55.4 0.504 7.85 2.62 9.66
11/5/2022 6:00:00 AM 13.01 55.418 0.498 7.85 2.86 9.65
11/5/2022 6:15:00 AM 13.02 55.436 0.499 7.84 2.43 9.6
11/5/2022 6:30:00 AM 13.02 55.436 0.499 7.84 2.79 9.64
11/5/2022 6:45:00 AM 13.02 55.436 0.494 7.84 2.87 9.55
11/5/2022 7:00:00 AM 13.02 55.436 0.498 7.84 2.54 9.56
11/5/2022 7:15:00 AM 13.03 55.454 0.501 7.82 2.85 9.56
11/5/2022 7:30:00 AM 13.04 55.472 0.503 7.81 2.76 9.55
11/5/2022 7:45:00 AM 13.04 55.472 0.503 7.83 3.1 9.54
11/5/2022 8:00:00 AM 13.04 55.472 0.498 7.83 2.62 9.55
11/5/2022 8:15:00 AM 13.04 55.472 0.505 7.83 2.93 9.55
11/5/2022 8:30:00 AM 13.05 55.49 0.5 7.83 3.5 9.57
11/5/2022 8:45:00 AM 13.06 55.508 0.507 7.81 2.81 9.57
11/5/2022 9:00:00 AM 13.07 55.526 0.505 7.84 2.68 9.58
11/5/2022 9:15:00 AM 13.1 55.58 0.508 7.85 2.71 9.63
11/5/2022 9:30:00 AM 13.14 55.652 0.506 7.85 2.69 9.68
11/5/2022 9:45:00 AM 13.19 55.742 0.516 7.84 2.74 9.73
11/5/2022 10:00:00 AM 13.24 55.832 0.51 7.86 2.84 9.76
11/5/2022 10:15:00 AM 13.29 55.922 0.51 7.85 3.62 9.77
11/5/2022 10:30:00 AM 13.31 55.958 0.51 7.85 4.25 9.76
11/5/2022 10:45:00 AM 13.37 56.066 0.511 7.84 2.85 9.79
11/5/2022 11:00:00 AM 13.43 56.174 0.518 7.86 3.83 9.77
11/5/2022 11:15:00 AM 13.5 56.3 0.512 7.85 2.55 9.74
11/5/2022 11:30:00 AM 13.59 56.462 0.215 7.91 2.53 9.75
11/5/2022 11:45:00 AM 13.67 56.606 0.509 7.9 3.53 9.77
11/5/2022 12:00:00 PM 13.75 56.75 0.513 7.92 2.81 9.66
11/5/2022 12:15:00 PM 13.79 56.822 0.52 7.92 2.38 9.68
11/5/2022 12:30:00 PM 13.85 56.93 0.513 7.93 2.4 9.69
11/5/2022 12:45:00 PM 13.86 56.948 0.511 7.87 2.47 9.68
11/5/2022 1:00:00 PM 13.88 56.984 0.513 7.88 2.51 9.66
11/5/2022 1:15:00 PM 13.87 56.966 0.508 7.88 2.52 9.6
11/5/2022 1:30:00 PM 13.91 57.038 0.521 7.89 2.44 9.66
11/5/2022 1:45:00 PM 13.96 57.128 0.514 7.9 2.5 9.57
11/5/2022 2:00:00 PM 14.02 57.236 0.509 7.92 2.22 9.57
11/5/2022 2:15:00 PM 14.06 57.308 0.515 7.9 2.87 9.43
11/5/2022 2:30:00 PM 14.13 57.434 0.515 7.91 2.31 9.57
11/5/2022 2:45:00 PM 14.16 57.488 0.515 7.91 2.3 9.45
11/5/2022 3:00:00 PM 14.22 57.596 0.513 7.9 2.56 9.46
11/5/2022 3:15:00 PM 14.21 57.578 0.516 7.91 2.32 9.41
11/5/2022 3:30:00 PM 14.28 57.704 0.513 7.9 2.19 9.52
11/5/2022 3:45:00 PM 14.27 57.686 0.514 7.91 2.34 9.52
11/5/2022 4:00:00 PM 14.3 57.74 0.516 7.88 2.41 9.5
11/5/2022 4:15:00 PM 14.3 57.74 0.516 7.88 2.21 9.44
11/5/2022 4:30:00 PM 14.32 57.776 0.514 7.87 2.1 9.34
11/5/2022 4:45:00 PM 14.32 57.776 0.515 7.86 2.43 9.34
11/5/2022 5:00:00 PM 14.37 57.866 0.515 7.84 2.37 9.27
11/5/2022 5:15:00 PM 14.37 57.866 0.518 7.84 2.52 9.28
11/5/2022 5:30:00 PM 14.36 57.848 0.515 7.83 2.76 9.26
11/5/2022 5:45:00 PM 14.35 57.83 0.515 7.82 2.43 9.22
11/5/2022 6:00:00 PM 14.38 57.884 0.516 7.82 2.57 9.22
11/5/2022 6:15:00 PM 14.39 57.902 0.518 7.83 2.82 9.19
11/5/2022 6:30:00 PM 14.37 57.866 0.515 7.83 2.68 9.2
11/5/2022 6:45:00 PM 14.33 57.794 0.518 7.84 2.57 9.21
11/5/2022 7:00:00 PM 14.34 57.812 0.518 7.82 2.42 9.08
11/5/2022 7:15:00 PM 14.33 57.794 0.518 7.82 2.78 9.18
11/5/2022 7:30:00 PM 14.33 57.794 0.516 7.82 2.87 9.12
11/5/2022 7:45:00 PM 14.33 57.794 0.508 7.82 2.75 9.13
11/5/2022 8:00:00 PM 14.34 57.812 0.513 7.8 3.22 9.15
11/5/2022 8:15:00 PM 14.32 57.776 0.518 7.81 2.9 9.2
11/5/2022 8:30:00 PM 14.31 57.758 0.516 7.78 2.85 9.19
11/5/2022 8:45:00 PM 14.3 57.74 0.515 7.8 2.94 9.2
11/5/2022 9:00:00 PM 14.3 57.74 0.516 7.86 2.92 9.12
11/5/2022 9:15:00 PM 14.3 57.74 0.515 7.85 3.14 9.08
11/5/2022 9:30:00 PM 14.31 57.758 0.518 7.83 2.85 9.15
11/5/2022 9:45:00 PM 14.33 57.794 0.515 7.83 3.05 9.03
11/5/2022 10:00:00 PM 14.35 57.83 0.509 7.84 3.11 9.07
11/5/2022 10:15:00 PM 14.37 57.866 0.514 7.83 3.39 9.13
11/5/2022 10:30:00 PM 14.4 57.92 0.517 7.84 3.51 9.14
11/5/2022 10:45:00 PM 14.42 57.956 0.517 7.85 3.5 9.09
11/5/2022 11:00:00 PM 14.45 58.01 0.514 7.79 3.22 9.15
11/5/2022 11:15:00 PM 14.47 58.046 0.516 7.78 3.47 9.13
11/5/2022 11:30:00 PM 14.5 58.1 0.513 7.76 3.19 9
11/5/2022 11:45:00 PM 14.53 58.154 0.516 7.78 3.25 8.86
11/6/2022 12:00:00 AM 14.57 58.226 0.512 7.78 3.21 8.73
11/6/2022 12:15:00 AM 14.62 58.316 0.509 7.78 3.43 8.74
11/6/2022 12:30:00 AM 14.68 58.424 0.514 7.78 3.19 8.51
11/6/2022 12:45:00 AM 14.73 58.514 0.52 7.77 3.15 8.5
11/6/2022 1:00:00 AM 14.78 58.604 0.511 7.78 3.16 8.61
11/6/2022 1:15:00 AM 14.83 58.694 0.513 7.78 3.17 8.69
11/6/2022 1:30:00 AM 14.88 58.784 0.51 7.78 3.43 8.7
11/6/2022 1:45:00 AM 14.91 58.838 0.513 7.76 3.39 8.59
11/6/2022 2:00:00 AM 14.93 58.874 0.51 7.78 2.97 8.55
11/6/2022 2:15:00 AM 14.98 58.964 0.519 7.77 2.95 8.51
11/6/2022 2:30:00 AM 15.02 59.036 0.509 7.76 2.75 8.39
11/6/2022 2:45:00 AM 15.06 59.108 0.509 7.78 2.79 8.36
11/6/2022 3:00:00 AM 15.11 59.198 0.519 7.77 2.94 8.4
11/6/2022 3:15:00 AM 15.24 59.432 0.51 7.76 2.65 8.13
11/6/2022 3:30:00 AM 15.26 59.468 0.508 7.76 2.55 8.2
11/6/2022 3:45:00 AM 15.28 59.504 0.51 7.78 2.65 8.1
11/6/2022 4:00:00 AM 15.29 59.522 0.508 7.77 2.78 8.24
11/6/2022 4:15:00 AM 15.32 59.576 0.511 7.76 2.8 8.22
11/6/2022 4:30:00 AM 15.34 59.612 0.509 7.78 2.5 8.21
11/6/2022 4:45:00 AM 15.36 59.648 0.512 7.77 2.8 8.17
11/6/2022 5:00:00 AM 15.36 59.648 0.513 7.77 4.1 8.27
11/6/2022 5:15:00 AM 15.38 59.684 0.514 7.79 2.86 8.26
11/6/2022 5:30:00 AM 15.4 59.72 0.512 7.74 2.52 8.17
11/6/2022 5:45:00 AM 15.41 59.738 0.515 7.78 2.83 8.2
11/6/2022 6:00:00 AM 15.42 59.756 0.515 7.76 3.12 8.27
11/6/2022 6:15:00 AM 15.43 59.774 0.516 7.77 2.78 8.16
11/6/2022 6:30:00 AM 15.43 59.774 0.517 7.75 2.47 8.09
11/6/2022 6:45:00 AM 15.44 59.792 0.518 7.77 2.45 8.05
11/6/2022 7:00:00 AM 15.44 59.792 0.518 7.77 3.23 8.13
11/6/2022 7:15:00 AM 15.45 59.81 0.519 7.77 2.66 8
11/6/2022 7:30:00 AM 15.46 59.828 0.523 7.76 2.51 7.97
11/6/2022 7:45:00 AM 15.47 59.846 0.516 7.76 2.59 7.98
11/6/2022 8:00:00 AM 15.48 59.864 0.53 7.75 2.41 8.06
11/6/2022 8:15:00 AM 15.49 59.882 0.524 7.75 2.29 7.95
11/6/2022 8:30:00 AM 15.49 59.882 0.525 7.77 2.46 8.07
11/6/2022 8:45:00 AM 15.5 59.9 0.526 7.75 2.58 8.09
11/6/2022 9:00:00 AM 15.53 59.954 0.523 7.76 2.73 7.96
11/6/2022 9:15:00 AM 15.56 60.008 0.525 7.76 2.71 7.92
11/6/2022 9:30:00 AM 15.58 60.044 0.525 7.78 2.36 8.11
11/6/2022 9:45:00 AM 15.61 60.098 0.526 7.8 2.44 7.98
11/6/2022 10:00:00 AM 15.62 60.116 0.527 7.75 2.39 8
11/6/2022 10:15:00 AM 15.64 60.152 0.53 7.79 2.24 8.03
11/6/2022 10:30:00 AM 15.67 60.206 0.526 7.77 3.34 7.94
11/6/2022 10:45:00 AM 15.69 60.242 0.528 7.8 2.45 8.11
11/6/2022 11:00:00 AM 15.71 60.278 0.528 7.77 2.31 7.87
11/6/2022 11:15:00 AM 15.72 60.296 0.528 7.77 2.28 7.88
11/6/2022 11:30:00 AM 15.75 60.35 0.528 7.77 2.38 7.91
11/6/2022 11:45:00 AM 15.75 60.35 0.529 7.77 2.31 8.08
11/6/2022 12:00:00 PM 15.77 60.386 0.531 7.8 2.57 7.89
11/6/2022 12:15:00 PM 15.79 60.422 0.528 7.76 2.6 7.94
11/6/2022 12:30:00 PM 15.84 60.512 0.528 7.79 2.33 8.02
11/6/2022 12:45:00 PM 15.87 60.566 0.527 7.78 2.39 7.87
11/6/2022 1:00:00 PM 15.89 60.602 0.528 7.8 2.32 7.92
11/6/2022 1:15:00 PM 15.87 60.566 0.527 7.8 2.34 7.85
11/6/2022 1:30:00 PM 15.88 60.584 0.528 7.78 3.2 7.84
11/6/2022 1:45:00 PM 15.86 60.548 0.526 7.78 2.43 7.84
11/6/2022 2:00:00 PM 15.86 60.548 0.527 7.79 2.48 7.82
11/6/2022 2:15:00 PM 15.86 60.548 0.527 7.78 2.47 7.76
11/6/2022 2:30:00 PM 15.87 60.566 0.526 7.78 2.74 7.95
11/6/2022 2:45:00 PM 15.87 60.566 0.526 7.8 2.77 8.08
11/6/2022 3:00:00 PM 15.88 60.584 0.528 7.8 2.46 7.84
11/6/2022 3:15:00 PM 15.89 60.602 0.524 7.82 3.15 8.08
11/6/2022 3:30:00 PM 15.9 60.62 0.525 7.79 2.97 7.83
11/6/2022 3:45:00 PM 15.91 60.638 0.521 7.79 2.32 7.66
11/6/2022 4:00:00 PM 15.92 60.656 0.524 7.79 2.17 7.87
11/6/2022 4:15:00 PM 15.9 60.62 0.532 7.78 2.91 7.7
11/6/2022 4:30:00 PM 15.89 60.602 0.526 7.78 2.92 7.62
11/6/2022 4:45:00 PM 15.85 60.53 0.525 7.76 2.34 7.85
11/6/2022 5:00:00 PM 15.83 60.494 0.522 7.73 3.62 7.49
11/6/2022 5:15:00 PM 15.8 60.44 0.521 7.77 2.92 7.51
11/6/2022 5:30:00 PM 15.78 60.404 0.522 7.73 5.55 7.56
11/6/2022 5:45:00 PM 15.77 60.386 0.518 7.76 2.7 7.66
11/6/2022 6:00:00 PM 15.76 60.368 0.521 7.76 3.13 7.99
11/6/2022 6:15:00 PM 15.75 60.35 0.52 7.71 3.1 7.71
11/6/2022 6:30:00 PM 15.76 60.368 0.52 7.72 2.85 8.01
11/6/2022 6:45:00 PM 15.77 60.386 0.52 7.72 2.65 8
11/6/2022 7:00:00 PM 15.78 60.404 0.517 7.72 2.91 7.69
11/6/2022 7:15:00 PM 15.78 60.404 0.519 7.71 2.53 7.6
11/6/2022 7:30:00 PM 15.78 60.404 0.519 7.71 2.65 7.52
11/6/2022 7:45:00 PM 15.78 60.404 0.519 7.72 2.4 7.84
11/6/2022 8:00:00 PM 15.79 60.422 0.519 7.73 2.45 7.86
11/6/2022 8:15:00 PM 15.78 60.404 0.519 7.74 2.36 7.83
11/6/2022 8:30:00 PM 15.78 60.404 0.521 7.73 2.45 7.78
11/6/2022 8:45:00 PM 15.77 60.386 0.519 7.72 2.74 7.97
11/6/2022 9:00:00 PM 15.77 60.386 0.515 7.75 2.48 8
11/6/2022 9:15:00 PM 15.77 60.386 0.518 7.72 2.74 8.02
11/6/2022 9:30:00 PM 15.77 60.386 0.527 7.77 2.57 8.09
11/6/2022 9:45:00 PM 15.77 60.386 0.518 7.75 2.85 8
11/6/2022 10:00:00 PM 15.77 60.386 0.521 7.79 2.78 7.98
11/6/2022 10:15:00 PM 15.78 60.404 0.517 7.79 2.54 7.91
11/6/2022 10:30:00 PM 15.79 60.422 0.518 7.79 2.53 8.07
11/6/2022 10:45:00 PM 15.79 60.422 0.517 7.81 2.63 8.04
11/6/2022 11:00:00 PM 15.8 60.44 0.518 7.8 3.09 8.15
11/6/2022 11:15:00 PM 15.81 60.458 0.521 7.8 2.63 8.12
11/6/2022 11:30:00 PM 15.83 60.494 0.518 7.79 2.71 8.1
11/6/2022 11:45:00 PM 15.85 60.53 0.52 7.81 3.17 8.19
11/7/2022 12:00:00 AM 15.85 60.53 0.52 7.79 2.69 8.13
11/7/2022 12:15:00 AM 15.87 60.566 0.517 7.84 2.69 8.21
11/7/2022 12:30:00 AM 15.88 60.584 0.515 7.83 2.59 8.21
11/7/2022 12:45:00 AM 15.91 60.638 0.513 7.81 2.48 8.24
11/7/2022 1:00:00 AM 15.92 60.656 0.516 7.79 2.48 8.2
11/7/2022 1:15:00 AM 15.93 60.674 0.515 7.81 3.16 8.25
11/7/2022 1:30:00 AM 15.93 60.674 0.515 7.78 2.75 8.2
11/7/2022 1:45:00 AM 15.93 60.674 0.517 7.82 5.24 8.28
11/7/2022 2:00:00 AM 15.94 60.692 0.523 7.81 2.88 8.33
11/7/2022 2:15:00 AM 15.95 60.71 0.513 7.85 2.88 8.35
11/7/2022 2:30:00 AM 15.97 60.746 0.512 7.85 2.8 8.33
11/7/2022 2:45:00 AM 15.98 60.764 0.509 7.85 2.53 8.36
11/7/2022 3:00:00 AM 15.98 60.764 0.514 7.76 2.88 8.31
11/7/2022 3:15:00 AM 15.97 60.746 0.519 7.86 2.54 8.27
11/7/2022 3:30:00 AM 15.97 60.746 0.512 7.83 2.9 8.27
11/7/2022 3:45:00 AM 15.97 60.746 0.511 7.79 2.67 8.28
11/7/2022 4:00:00 AM 15.96 60.728 0.511 7.84 2.96 8.23
11/7/2022 4:15:00 AM 15.96 60.728 0.508 7.84 2.86 8.22
11/7/2022 4:30:00 AM 15.96 60.728 0.51 7.84 3 8.24
11/7/2022 4:45:00 AM 15.96 60.728 0.507 7.83 2.99 8.27
11/7/2022 5:00:00 AM 15.95 60.71 0.507 7.83 2.92 8.19
11/7/2022 5:15:00 AM 15.95 60.71 0.507 7.82 3.33 8.25
11/7/2022 5:30:00 AM 15.96 60.728 0.51 7.88 3.34 8.44
11/7/2022 5:45:00 AM 15.97 60.746 0.505 7.85 3.18 8.18
11/7/2022 6:00:00 AM 15.98 60.764 0.503 7.88 3.6 8.36
11/7/2022 6:15:00 AM 15.99 60.782 0.508 7.84 3.44 8.39
11/7/2022 6:30:00 AM 16 60.8 0.512 7.87 3.05 8.41
11/7/2022 6:45:00 AM 16.01 60.818 0.507 7.72 4.01 8.37
11/7/2022 7:00:00 AM 16 60.8 0.513 7.68 3.27 8.16
11/7/2022 7:15:00 AM 16 60.8 0.51 7.7 3.24 8.37
11/7/2022 7:30:00 AM 16 60.8 0.512 7.7 3.6 8.24
11/7/2022 7:45:00 AM 16 60.8 0.513 7.69 3.24 8.43
11/7/2022 8:00:00 AM 16 60.8 0.516 7.67 3.23 8.43
11/7/2022 8:15:00 AM 16.01 60.818 0.515 7.64 3.07 8.45
11/7/2022 8:30:00 AM 16.03 60.854 0.518 7.69 2.96 8.32
11/7/2022 8:45:00 AM 16.06 60.908 0.515 7.68 3 8.4
11/7/2022 9:00:00 AM 16.07 60.926 0.519 7.79 2.86 8.55
11/7/2022 9:15:00 AM 16.09 60.962 0.517 7.75 2.95 8.22
11/7/2022 9:30:00 AM 16.1 60.98 0.518 7.77 2.78 8.29
11/7/2022 9:45:00 AM 16.12 61.016 0.518 7.82 2.98 8.66
11/7/2022 10:00:00 AM 16.14 61.052 0.519 7.83 2.66 8.66
11/7/2022 10:15:00 AM 16.15 61.07 0.518 7.84 2.86 8.47
11/7/2022 10:30:00 AM 16.17 61.106 0.52 7.84 2.76 8.55
11/7/2022 10:45:00 AM 16.19 61.142 0.519 7.84 2.66 8.53
11/7/2022 11:00:00 AM 16.21 61.178 0.52 7.84 2.75 8.69
11/7/2022 11:15:00 AM 16.23 61.214 0.519 7.85 2.86 8.7
11/7/2022 11:30:00 AM 16.24 61.232 0.521 7.85 2.89 8.68
11/7/2022 11:45:00 AM 16.25 61.25 0.519 7.85 4.07 8.64
11/7/2022 12:00:00 PM 16.27 61.286 0.52 7.85 3.1 8.63
11/7/2022 12:15:00 PM 16.28 61.304 0.519 7.84 3.18 8.63
11/7/2022 12:30:00 PM 16.29 61.322 0.52 7.87 3.08 8.66
11/7/2022 12:45:00 PM 16.3 61.34 0.518 7.88 2.98 8.61
11/7/2022 1:00:00 PM 16.31 61.358 0.52 7.87 2.71 8.52
11/7/2022 1:15:00 PM 16.32 61.376 0.518 7.85 2.71 8.54
11/7/2022 1:30:00 PM 16.32 61.376 0.519 7.88 2.69 8.59
11/7/2022 1:45:00 PM 16.33 61.394 0.518 7.86 2.94 8.58
11/7/2022 2:00:00 PM 16.35 61.43 0.519 7.86 2.74 8.52
11/7/2022 2:15:00 PM 16.36 61.448 0.517 7.85 2.77 8.57
11/7/2022 2:30:00 PM 16.36 61.448 0.516 7.91 2.45 8.48
11/7/2022 2:45:00 PM 16.36 61.448 0.521 7.9 2.52 8.54
11/7/2022 3:00:00 PM 16.36 61.448 0.518 7.89 2.63 8.52
11/7/2022 3:15:00 PM 16.35 61.43 0.518 7.91 2.5 8.4
11/7/2022 3:30:00 PM 16.36 61.448 0.517 7.86 2.89 8.4
11/7/2022 3:45:00 PM 16.37 61.466 0.517 7.87 2.76 8.36
11/7/2022 4:00:00 PM 16.38 61.484 0.516 7.88 2.27 8.35
11/7/2022 4:15:00 PM 16.39 61.502 0.52 7.86 4.58 8.38
11/7/2022 4:30:00 PM 16.4 61.52 0.516 7.87 2.45 8.41
11/7/2022 4:45:00 PM 16.4 61.52 0.517 7.88 2.51 8.47
11/7/2022 5:00:00 PM 16.4 61.52 0.516 7.86 2.72 8.21
11/7/2022 5:15:00 PM 16.4 61.52 0.517 7.83 2.48 8.42
11/7/2022 5:30:00 PM 16.39 61.502 0.516 7.81 2.77 8.29
11/7/2022 5:45:00 PM 16.39 61.502 0.517 7.78 2.8 8.28
11/7/2022 6:00:00 PM 16.38 61.484 0.516 7.79 2.78 8.23
11/7/2022 6:15:00 PM 16.36 61.448 0.516 7.83 2.55 8.33
11/7/2022 6:30:00 PM 16.34 61.412 0.514 7.81 2.98 8.29
11/7/2022 6:45:00 PM 16.33 61.394 0.516 7.81 2.98 8.3
11/7/2022 7:00:00 PM 16.3 61.34 0.514 7.81 2.93 8.35
11/7/2022 7:15:00 PM 16.26 61.268 0.514 7.82 2.99 8.39
11/7/2022 7:30:00 PM 16.23 61.214 0.513 7.82 2.9 8.41
11/7/2022 7:45:00 PM 16.18 61.124 0.511 7.83 2.62 8.37
11/7/2022 8:00:00 PM 16.13 61.034 0.513 7.86 3.03 8.41
11/7/2022 8:15:00 PM 16.07 60.926 0.512 7.91 2.93 8.39
11/7/2022 8:30:00 PM 16.02 60.836 0.512 7.87 3.09 8.46
11/7/2022 8:45:00 PM 15.98 60.764 0.512 7.85 2.93 8.4
11/7/2022 9:00:00 PM 15.95 60.71 0.514 7.84 3.14 8.44
11/7/2022 9:15:00 PM 15.91 60.638 0.514 7.84 2.92 8.41
11/7/2022 9:30:00 PM 15.89 60.602 0.51 7.83 3.25 8.45
11/7/2022 9:45:00 PM 15.86 60.548 0.512 7.84 3.26 8.49
11/7/2022 10:00:00 PM 15.83 60.494 0.509 7.84 3.38 8.5
11/7/2022 10:15:00 PM 15.8 60.44 0.511 7.85 3.23 8.51
11/7/2022 10:30:00 PM 15.78 60.404 0.511 7.86 3.28 8.53
11/7/2022 10:45:00 PM 15.76 60.368 0.507 7.85 3.02 8.56
11/7/2022 11:00:00 PM 15.74 60.332 0.508 7.84 3.1 8.61
11/7/2022 11:15:00 PM 15.73 60.314 0.505 7.83 3.02 8.58
11/7/2022 11:30:00 PM 15.72 60.296 0.506 7.87 3.18 8.68
11/7/2022 11:45:00 PM 15.7 60.26 0.5 7.87 3.12 8.68
11/8/2022 12:00:00 AM 15.7 60.26 0.505 7.87 2.96 8.7
11/8/2022 12:15:00 AM 15.69 60.242 0.501 7.86 3.22 8.71
11/8/2022 12:30:00 AM 15.68 60.224 0.503 7.89 2.98 8.73
11/8/2022 12:45:00 AM 15.67 60.206 0.499 7.93 3.13 8.77
11/8/2022 1:00:00 AM 15.64 60.152 0.501 7.93 2.92 8.75
11/8/2022 1:15:00 AM 15.64 60.152 0.498 7.93 3.52 8.75
11/8/2022 1:30:00 AM 15.62 60.116 0.5 7.96 2.94 8.74
11/8/2022 1:45:00 AM 15.6 60.08 0.495 7.95 3 8.76
11/8/2022 2:00:00 AM 15.58 60.044 0.507 7.91 3 8.78
11/8/2022 2:15:00 AM 15.55 59.99 0.497 7.91 3.14 8.81
11/8/2022 2:30:00 AM 15.52 59.936 0.506 7.94 2.92 8.78
11/8/2022 2:45:00 AM 15.48 59.864 0.499 7.92 3.11 8.75
11/8/2022 3:00:00 AM 15.44 59.792 0.494 7.92 3.1 8.77
11/8/2022 3:15:00 AM 15.41 59.738 0.498 7.89 3.02 8.75
11/8/2022 3:30:00 AM 15.36 59.648 0.501 7.94 3.14 8.74
11/8/2022 3:45:00 AM 15.32 59.576 0.508 7.84 3.08 8.75
11/8/2022 4:00:00 AM 15.25 59.45 0.501 7.85 3.04 8.79
11/8/2022 4:15:00 AM 15.18 59.324 0.501 7.92 2.92 8.75
11/8/2022 4:30:00 AM 15.12 59.216 0.499 7.94 3.04 8.73
11/8/2022 4:45:00 AM 15.07 59.126 0.503 7.93 3.08 8.75
11/8/2022 5:00:00 AM 15.02 59.036 0.501 7.92 3.12 8.71
11/8/2022 5:15:00 AM 14.96 58.928 0.504 7.93 3.07 8.7
11/8/2022 5:30:00 AM 14.9 58.82 0.505 7.98 2.93 8.7
11/8/2022 5:45:00 AM 14.84 58.712 0.505 7.95 3.05 8.73
11/8/2022 6:00:00 AM 14.77 58.586 0.501 7.96 3.09 8.72
11/8/2022 6:15:00 AM 14.7 58.46 0.514 7.93 3.34 8.73
11/8/2022 6:30:00 AM 14.64 58.352 0.508 7.93 3.28 8.73
11/8/2022 6:45:00 AM 14.57 58.226 0.515 7.94 3.76 8.74
11/8/2022 7:00:00 AM 14.5 58.1 0.509 7.94 7.01 8.77
11/8/2022 7:15:00 AM 14.45 58.01 0.516 7.91 5.45 8.8
11/8/2022 7:30:00 AM 14.39 57.902 0.51 7.94 3.6 8.82
11/8/2022 7:45:00 AM 14.33 57.794 0.51 7.93 4.03 8.85
11/8/2022 8:00:00 AM 14.29 57.722 0.511 7.93 3.35 8.88
11/8/2022 8:15:00 AM 14.25 57.65 0.511 7.94 3.25 8.96
11/8/2022 8:30:00 AM 14.23 57.614 0.508 7.91 3.43 8.98
11/8/2022 8:45:00 AM 14.19 57.542 0.511 7.94 3.23 9.03
11/8/2022 9:00:00 AM 14.16 57.488 0.511 7.95 3.35 9.09
11/8/2022 9:15:00 AM 14.12 57.416 0.512 7.96 3.22 9.09
11/8/2022 9:30:00 AM 14.1 57.38 0.511 7.96 3.16 9.12
11/8/2022 9:45:00 AM 14.09 57.362 0.511 7.95 3.41 9.18
11/8/2022 10:00:00 AM 14.08 57.344 0.506 7.95 3.21 9.19
11/8/2022 10:15:00 AM 14.07 57.326 0.506 7.95 3.11 9.19
11/8/2022 10:30:00 AM 14.06 57.308 0.507 7.93 3.43 9.2
11/8/2022 10:45:00 AM 14.06 57.308 0.51 7.96 3.33 9.24
11/8/2022 11:00:00 AM 14.04 57.272 0.516 7.96 3.34 9.23
11/8/2022 11:15:00 AM 14.03 57.254 0.51 7.94 3.55 9.22
11/8/2022 11:30:00 AM 14.02 57.236 0.503 7.98 3 9.25
11/8/2022 11:45:00 AM 13.99 57.182 0.509 8 3.18 9.23
11/8/2022 12:00:00 PM 13.97 57.146 0.505 8.01 2.97 9.23
11/8/2022 12:15:00 PM 13.94 57.092 0.508 7.99 3.33 9.2
11/8/2022 12:30:00 PM 13.92 57.056 0.501 8 3.05 9.2
11/8/2022 12:45:00 PM 13.89 57.002 0.506 8.01 2.99 9.18
11/8/2022 1:00:00 PM 13.87 56.966 0.5 8.02 3.07 9.18
11/8/2022 1:15:00 PM 13.82 56.876 0.505 8.01 3.34 9.19
11/8/2022 1:30:00 PM 13.78 56.804 0.504 7.97 3.31 9.22
11/8/2022 1:45:00 PM 13.75 56.75 0.504 7.95 3.07 9.21
11/8/2022 2:00:00 PM 13.73 56.714 0.503 7.97 3.63 9.17
11/8/2022 2:15:00 PM 13.69 56.642 0.503 7.95 3.19 9.15
11/8/2022 2:30:00 PM 13.64 56.552 0.51 7.95 2.89 9.12
11/8/2022 2:45:00 PM 13.62 56.516 0.5 7.95 3.09 9.12
11/8/2022 3:00:00 PM 13.6 56.48 0.509 7.93 3.13 9.09
11/8/2022 3:15:00 PM 13.58 56.444 0.499 7.94 3.12 9.04
11/8/2022 3:30:00 PM 13.55 56.39 0.501 7.93 2.8 9.08
11/8/2022 3:45:00 PM 13.52 56.336 0.501 7.91 3.05 9.06
11/8/2022 4:00:00 PM 13.48 56.264 0.507 7.97 3.06 9.08
11/8/2022 4:15:00 PM 13.45 56.21 0.5 7.98 2.75 9.07
11/8/2022 4:30:00 PM 13.42 56.156 0.5 7.95 3.04 9.1
11/8/2022 4:45:00 PM 13.39 56.102 0.5 7.95 2.94 9.04
11/8/2022 5:00:00 PM 13.36 56.048 0.506 7.95 2.7 9.07
11/8/2022 5:15:00 PM 13.31 55.958 0.526 7.93 2.8 9.08
11/8/2022 5:30:00 PM 13.28 55.904 0.499 7.96 3.11 9.07
11/8/2022 5:45:00 PM 13.23 55.814 0.525 7.96 2.9 9.09
11/8/2022 6:00:00 PM 13.2 55.76 0.498 7.95 2.81 9.1
11/8/2022 6:15:00 PM 13.16 55.688 0.492 7.98 2.82 9.13
11/8/2022 6:30:00 PM 13.13 55.634 0.498 7.97 2.96 9.16
11/8/2022 6:45:00 PM 13.1 55.58 0.491 7.98 2.73 9.17
11/8/2022 7:00:00 PM 13.06 55.508 0.497 7.94 3.04 9.19
11/8/2022 7:15:00 PM 13.02 55.436 0.504 7.96 3.12 9.2
11/8/2022 7:30:00 PM 12.98 55.364 0.504 7.97 2.84 9.18
11/8/2022 7:45:00 PM 12.94 55.292 0.497 7.97 3.24 9.2
11/8/2022 8:00:00 PM 12.88 55.184 0.504 7.97 2.99 9.23
11/8/2022 8:15:00 PM 12.82 55.076 0.494 7.97 3.28 9.23
11/8/2022 8:30:00 PM 12.74 54.932 0.504 7.94 3.09 9.26
11/8/2022 8:45:00 PM 12.66 54.788 0.497 7.94 3.12 9.26
11/8/2022 9:00:00 PM 12.58 54.644 0.503 7.92 3.25 9.28
11/8/2022 9:15:00 PM 12.49 54.482 0.497 8.04 3.2 9.32
11/8/2022 9:30:00 PM 12.42 54.356 0.504 7.97 2.9 9.34
11/8/2022 9:45:00 PM 12.35 54.23 0.494 7.96 3.14 9.33
11/8/2022 10:00:00 PM 12.29 54.122 0.504 7.99 2.88 9.35
11/8/2022 10:15:00 PM 12.23 54.014 0.497 7.97 3.08 9.3
11/8/2022 10:30:00 PM 12.18 53.924 0.49 8.01 2.96 9.44
11/8/2022 10:45:00 PM 12.13 53.834 0.491 7.98 2.87 9.46
11/8/2022 11:00:00 PM 12.09 53.762 0.505 7.97 3.12 9.46
11/8/2022 11:15:00 PM 12.05 53.69 0.504 7.95 3.24 9.47
11/8/2022 11:30:00 PM 12.02 53.636 0.492 7.98 3.02 9.49
11/8/2022 11:45:00 PM 11.99 53.582 0.485 7.96 2.98 9.52
11/9/2022 12:00:00 AM 11.95 53.51 0.505 8 2.96 9.53
11/9/2022 12:15:00 AM 11.92 53.456 0.505 7.97 3.93 9.41
11/9/2022 12:30:00 AM 11.9 53.42 0.498 7.98 3.39 9.22
11/9/2022 12:45:00 AM 11.87 53.366 0.506 8.06 2.94 9.45
11/9/2022 1:00:00 AM 11.85 53.33 0.527 8.09 3.13 9.56
11/9/2022 1:15:00 AM 11.82 53.276 0.506 8.06 3.18 9.56
11/9/2022 1:30:00 AM 11.8 53.24 0.506 8.07 3.16 9.47
11/9/2022 1:45:00 AM 11.78 53.204 0.507 8.03 2.9 9.45
11/9/2022 2:00:00 AM 11.77 53.186 0.5 8.05 3.22 9.54
11/9/2022 2:15:00 AM 11.76 53.168 0.507 8.01 3.19 9.58
11/9/2022 2:30:00 AM 11.74 53.132 0.528 8.03 3.04 9.62
11/9/2022 2:45:00 AM 11.71 53.078 0.507 8.05 3.23 9.55
11/9/2022 3:00:00 AM 11.7 53.06 0.508 8.06 3.19 9.69
11/9/2022 3:15:00 AM 11.7 53.06 0.5 8.06 3.29 9.57
11/9/2022 3:30:00 AM 11.68 53.024 0.495 8.06 3.15 9.82
11/9/2022 3:45:00 AM 11.65 52.97 0.508 8.07 3.07 9.85
11/9/2022 4:00:00 AM 11.64 52.952 0.508 8.08 3.13 9.83
11/9/2022 4:15:00 AM 11.63 52.934 0.501 8.07 2.91 9.69
11/9/2022 4:30:00 AM 11.61 52.898 0.501 8.07 3.2 9.74
11/9/2022 4:45:00 AM 11.58 52.844 0.529 8.07 3.29 9.81
11/9/2022 5:00:00 AM 11.55 52.79 0.502 8.09 3.12 9.87
11/9/2022 5:15:00 AM 11.51 52.718 0.509 8.07 3.02 9.85
11/9/2022 5:30:00 AM 11.47 52.646 0.508 8.04 3.33 9.8
11/9/2022 5:45:00 AM 11.43 52.574 0.529 8.04 3.01 9.8
11/9/2022 6:00:00 AM 11.39 52.502 0.502 8.08 3.09 9.76
11/9/2022 6:15:00 AM 11.35 52.43 0.51 8.08 3.49 9.76
11/9/2022 6:30:00 AM 11.31 52.358 0.51 8.08 3.14 9.76
11/9/2022 6:45:00 AM 11.26 52.268 0.531 8.07 3.22 9.77
11/9/2022 7:00:00 AM 11.21 52.178 0.498 8.08 3.13 9.79
11/9/2022 7:15:00 AM 11.17 52.106 0.511 8.07 3.15 9.65
11/9/2022 7:30:00 AM 11.13 52.034 0.504 8.1 3.13 9.8
11/9/2022 7:45:00 AM 11.09 51.962 0.505 8.09 3.44 9.74
11/9/2022 8:00:00 AM 11.06 51.908 0.513 8.13 3.12 9.77
11/9/2022 8:15:00 AM 11.04 51.872 0.506 8.08 3.3 9.83
11/9/2022 8:30:00 AM 11.03 51.854 0.514 8.08 3.52 9.91
11/9/2022 8:45:00 AM 11.01 51.818 0.507 8.07 3.21 9.89
11/9/2022 9:00:00 AM 11 51.8 0.502 8.02 3.04 9.9
11/9/2022 9:15:00 AM 11 51.8 0.509 8.09 3.29 9.93
11/9/2022 9:30:00 AM 10.99 51.782 0.516 8.1 3.57 10
11/9/2022 9:45:00 AM 11 51.8 0.51 8.1 3.48 10.03
11/9/2022 10:00:00 AM 10.99 51.782 0.511 8.1 3.17 10.03
11/9/2022 10:15:00 AM 10.99 51.782 0.506 8.08 3.28 10.01
11/9/2022 10:30:00 AM 11.01 51.818 0.521 8.08 3.18 9.99
11/9/2022 10:45:00 AM 11.03 51.854 0.521 8.07 2.95 10.01
11/9/2022 11:00:00 AM 11.03 51.854 0.523 8.06 3.24 9.94
11/9/2022 11:15:00 AM 11.03 51.854 0.524 8.08 3.08 9.89
11/9/2022 11:30:00 AM 11.05 51.89 0.517 8.06 6.69 10.03
11/9/2022 11:45:00 AM 11.05 51.89 0.526 8.08 3.67 10.01
11/9/2022 12:00:00 PM 11.05 51.89 0.513 8.09 2.82 9.97
11/9/2022 12:15:00 PM 11.05 51.89 0.52 8.09 2.91 10.01
11/9/2022 12:30:00 PM 11.05 51.89 0.521 8.06 3.76 10
11/9/2022 12:45:00 PM 11.03 51.854 0.53 8.07 2.7 9.97
11/9/2022 1:00:00 PM 11.04 51.872 0.523 8.06 2.73 9.93
11/9/2022 1:15:00 PM 11.03 51.854 0.523 8.05 2.98 9.94
11/9/2022 1:30:00 PM 11.01 51.818 0.525 8.05 3 9.94
11/9/2022 1:45:00 PM 10.97 51.746 0.526 8.04 2.7 9.89
11/9/2022 2:00:00 PM 10.96 51.728 0.534 8.04 2.63 9.89
11/9/2022 2:15:00 PM 10.93 51.674 0.521 8.04 2.73 9.91
11/9/2022 2:30:00 PM 10.9 51.62 0.527 8.04 2.76 9.87
11/9/2022 2:45:00 PM 10.88 51.584 0.536 8.02 2.57 9.85
11/9/2022 3:00:00 PM 10.89 51.602 0.536 8.05 2.68 9.81
11/9/2022 3:15:00 PM 10.88 51.584 0.529 8.04 2.58 9.81
11/9/2022 3:30:00 PM 10.85 51.53 0.537 8.02 2.58 9.76
11/9/2022 3:45:00 PM 10.82 51.476 0.537 7.99 2.57 9.71
11/9/2022 4:00:00 PM 10.79 51.422 0.537 8 2.83 9.74
11/9/2022 4:15:00 PM 10.76 51.368 0.524 8.01 2.53 9.66
11/9/2022 4:30:00 PM 10.72 51.296 0.537 8.04 2.97 9.71
11/9/2022 4:45:00 PM 10.69 51.242 0.53 8.01 3.51 9.69
11/9/2022 5:00:00 PM 10.67 51.206 0.53 8.02 2.69 9.74
11/9/2022 5:15:00 PM 10.64 51.152 0.539 8.01 2.53 9.73
11/9/2022 5:30:00 PM 10.62 51.116 0.531 8.03 2.95 9.74
11/9/2022 5:45:00 PM 10.6 51.08 0.538 8.02 2.79 9.78
11/9/2022 6:00:00 PM 10.58 51.044 0.525 8.06 2.85 9.72
11/9/2022 6:15:00 PM 10.56 51.008 0.538 8.06 2.78 9.74
11/9/2022 6:30:00 PM 10.55 50.99 0.527 8.05 2.83 9.76
11/9/2022 6:45:00 PM 10.53 50.954 0.537 8.09 2.93 9.79
11/9/2022 7:00:00 PM 10.51 50.918 0.53 8.06 3.03 9.82
11/9/2022 7:15:00 PM 10.5 50.9 0.537 8.09 2.68 9.84
11/9/2022 7:30:00 PM 10.48 50.864 0.53 8.06 2.79 9.85
11/9/2022 7:45:00 PM 10.45 50.81 0.537 8.01 2.65 9.87
11/9/2022 8:00:00 PM 10.43 50.774 0.53 8.01 2.92 9.88
11/9/2022 8:15:00 PM 10.4 50.72 0.537 8.02 2.65 9.85
11/9/2022 8:30:00 PM 10.36 50.648 0.53 8.01 2.8 9.85
11/9/2022 8:45:00 PM 10.33 50.594 0.522 8.01 2.6 9.88
11/9/2022 9:00:00 PM 10.28 50.504 0.529 8 3.05 9.87
11/9/2022 9:15:00 PM 10.22 50.396 0.529 8.03 2.96 9.89
11/9/2022 9:30:00 PM 10.16 50.288 0.529 8.03 3.31 9.92
11/9/2022 9:45:00 PM 10.1 50.18 0.536 8.02 2.79 9.91
11/9/2022 10:00:00 PM 10.03 50.054 0.536 8.05 2.83 9.93
11/9/2022 10:15:00 PM 9.97 49.946 0.536 8.02 2.68 10
11/9/2022 10:30:00 PM 9.91 49.838 0.528 8 2.71 10
11/9/2022 10:45:00 PM 9.86 49.748 0.528 8.02 2.79 10.04
11/9/2022 11:00:00 PM 9.82 49.676 0.528 8.03 2.68 10.09
11/9/2022 11:15:00 PM 9.78 49.604 0.528 8.01 2.59 10.12
11/9/2022 11:30:00 PM 9.76 49.568 0.536 8.05 2.81 10.15
11/9/2022 11:45:00 PM 9.73 49.514 0.528 8.03 2.7 10.19
11/10/2022 12:00:00 AM 9.71 49.478 0.536 8.04 2.66 10.2
11/10/2022 12:15:00 AM 9.69 49.442 0.529 8.04 2.42 10.24
11/10/2022 12:30:00 AM 9.67 49.406 0.558 8.05 2.59 10.25
11/10/2022 12:45:00 AM 9.65 49.37 0.529 7.91 2.66 10.26
11/10/2022 1:00:00 AM 9.63 49.334 0.537 7.93 2.83 10.25
11/10/2022 1:15:00 AM 9.62 49.316 0.529 7.94 2.9 10.29
11/10/2022 1:30:00 AM 9.6 49.28 0.557 8.06 2.8 10.31
11/10/2022 1:45:00 AM 9.6 49.28 0.523 8.05 2.43 10.32
11/10/2022 2:00:00 AM 9.59 49.262 0.557 8.03 2.6 10.34
11/10/2022 2:15:00 AM 9.59 49.262 0.529 8.07 2.57 10.35
11/10/2022 2:30:00 AM 9.59 49.262 0.523 8.09 2.85 10.37
11/10/2022 2:45:00 AM 9.59 49.262 0.536 8.09 2.64 10.38
11/10/2022 3:00:00 AM 9.6 49.28 0.537 8.1 2.52 10.42
11/10/2022 3:15:00 AM 9.61 49.298 0.523 8.09 2.51 10.44
11/10/2022 3:30:00 AM 9.61 49.298 0.537 8.12 2.87 10.45
11/10/2022 3:45:00 AM 9.63 49.334 0.537 8.11 2.8 10.49
11/10/2022 4:00:00 AM 9.64 49.352 0.536 8.13 2.83 10.5
11/10/2022 4:15:00 AM 9.64 49.352 0.557 8.14 2.71 10.52
11/10/2022 4:30:00 AM 9.66 49.388 0.537 8.15 3.03 10.55
11/10/2022 4:45:00 AM 9.66 49.388 0.558 8.15 2.77 10.56
11/10/2022 5:00:00 AM 9.68 49.424 0.529 8.17 3.11 10.58
11/10/2022 5:15:00 AM 9.68 49.424 0.529 8.16 2.57 10.58
11/10/2022 5:30:00 AM 9.67 49.406 0.529 8.17 2.74 10.57
11/10/2022 5:45:00 AM 9.68 49.424 0.559 8.17 2.85 10.55
11/10/2022 6:00:00 AM 9.68 49.424 0.536 8.23 3.07 10.57
11/10/2022 6:15:00 AM 9.68 49.424 0.537 8.23 2.83 10.58
11/10/2022 6:30:00 AM 9.67 49.406 0.523 8.26 2.89 10.55
11/10/2022 6:45:00 AM 9.65 49.37 0.535 8.22 3.04 10.55
11/10/2022 7:00:00 AM 9.64 49.352 0.536 8.29 3.18 10.53
11/10/2022 7:15:00 AM 9.62 49.316 0.522 8.23 2.79 10.51
11/10/2022 7:30:00 AM 9.61 49.298 0.556 8.19 2.91 10.53
11/10/2022 7:45:00 AM 9.59 49.262 0.535 8.2 3.64 10.52
11/10/2022 8:00:00 AM 9.59 49.262 0.521 8.15 3.5 10.57
11/10/2022 8:15:00 AM 9.59 49.262 0.534 8.15 3.02 10.61
11/10/2022 8:30:00 AM 9.59 49.262 0.534 8.16 3.31 10.62
11/10/2022 8:45:00 AM 9.61 49.298 0.527 8.18 3.01 10.62
11/10/2022 9:00:00 AM